<?xml version="1.0" encoding="UTF-8" standalone="no" ?>
<gpx xmlns="http://www.topografix.com/GPX/1/1" xmlns:xsi="http://www.w3.org/2001/XMLSchema-instance" xsi:schemaLocation="http://www.topografix.com/GPX/1/1 http://www.topografix.com/GPX/1/1/gpx.xsd" version="1.1" creator="VisuGPX - https://www.visugpx.com">
  <metadata>
    <name>Tour du lac de REMORAY</name>
    <desc><![CDATA[Belle randonnée organisée par Mireille dans le cadre des activités du foyer rural de MYON.]]></desc>
  </metadata>
  <trk>
    <name><![CDATA[2019-04-14_tour_du_lac_Remoray]]></name>
    <trkseg>
      <trkpt lat="46.75624" lon="6.25677">
        <ele>998.6</ele>
        <time>2019-04-14T07:35:01Z</time>
      </trkpt>
      <trkpt lat="46.75623" lon="6.25677">
        <ele>991.9</ele>
        <time>2019-04-14T07:35:03Z</time>
      </trkpt>
      <trkpt lat="46.75625" lon="6.2569">
        <ele>893.1</ele>
        <time>2019-04-14T07:38:19Z</time>
      </trkpt>
      <trkpt lat="46.75631" lon="6.25699">
        <ele>892.6</ele>
        <time>2019-04-14T07:38:33Z</time>
      </trkpt>
      <trkpt lat="46.75639" lon="6.25706">
        <ele>891.5</ele>
        <time>2019-04-14T07:38:47Z</time>
      </trkpt>
      <trkpt lat="46.75647" lon="6.25699">
        <ele>890.2</ele>
        <time>2019-04-14T07:38:57Z</time>
      </trkpt>
      <trkpt lat="46.75654" lon="6.2569">
        <ele>890.6</ele>
        <time>2019-04-14T07:39:07Z</time>
      </trkpt>
      <trkpt lat="46.75661" lon="6.25678">
        <ele>889.8</ele>
        <time>2019-04-14T07:39:18Z</time>
      </trkpt>
      <trkpt lat="46.75669" lon="6.25671">
        <ele>889.6</ele>
        <time>2019-04-14T07:39:26Z</time>
      </trkpt>
      <trkpt lat="46.75678" lon="6.25666">
        <ele>889.3</ele>
        <time>2019-04-14T07:39:37Z</time>
      </trkpt>
      <trkpt lat="46.75687" lon="6.2567">
        <ele>889.2</ele>
        <time>2019-04-14T07:39:48Z</time>
      </trkpt>
      <trkpt lat="46.75695" lon="6.25677">
        <ele>889.6</ele>
        <time>2019-04-14T07:39:59Z</time>
      </trkpt>
      <trkpt lat="46.75698" lon="6.25691">
        <ele>890.7</ele>
        <time>2019-04-14T07:40:14Z</time>
      </trkpt>
      <trkpt lat="46.757" lon="6.25704">
        <ele>892.3</ele>
        <time>2019-04-14T07:40:28Z</time>
      </trkpt>
      <trkpt lat="46.75703" lon="6.25717">
        <ele>894.3</ele>
        <time>2019-04-14T07:40:42Z</time>
      </trkpt>
      <trkpt lat="46.75709" lon="6.25729">
        <ele>896.1</ele>
        <time>2019-04-14T07:40:52Z</time>
      </trkpt>
      <trkpt lat="46.75714" lon="6.25741">
        <ele>897.9</ele>
        <time>2019-04-14T07:41:03Z</time>
      </trkpt>
      <trkpt lat="46.75719" lon="6.25753">
        <ele>900.3</ele>
        <time>2019-04-14T07:41:17Z</time>
      </trkpt>
      <trkpt lat="46.75719" lon="6.25766">
        <ele>903</ele>
        <time>2019-04-14T07:41:35Z</time>
      </trkpt>
      <trkpt lat="46.7572" lon="6.2578">
        <ele>902.8</ele>
        <time>2019-04-14T07:41:44Z</time>
      </trkpt>
      <trkpt lat="46.7572" lon="6.25794">
        <ele>902.6</ele>
        <time>2019-04-14T07:41:55Z</time>
      </trkpt>
      <trkpt lat="46.75722" lon="6.25808">
        <ele>902.4</ele>
        <time>2019-04-14T07:42:05Z</time>
      </trkpt>
      <trkpt lat="46.75723" lon="6.25823">
        <ele>902.3</ele>
        <time>2019-04-14T07:42:13Z</time>
      </trkpt>
      <trkpt lat="46.75723" lon="6.25836">
        <ele>901.6</ele>
        <time>2019-04-14T07:42:21Z</time>
      </trkpt>
      <trkpt lat="46.75724" lon="6.25851">
        <ele>900.3</ele>
        <time>2019-04-14T07:42:31Z</time>
      </trkpt>
      <trkpt lat="46.75725" lon="6.25865">
        <ele>900.4</ele>
        <time>2019-04-14T07:42:41Z</time>
      </trkpt>
      <trkpt lat="46.75728" lon="6.25878">
        <ele>900.6</ele>
        <time>2019-04-14T07:42:48Z</time>
      </trkpt>
      <trkpt lat="46.7573" lon="6.25892">
        <ele>900.4</ele>
        <time>2019-04-14T07:42:53Z</time>
      </trkpt>
      <trkpt lat="46.75732" lon="6.25905">
        <ele>900.3</ele>
        <time>2019-04-14T07:42:59Z</time>
      </trkpt>
      <trkpt lat="46.75734" lon="6.25919">
        <ele>900.4</ele>
        <time>2019-04-14T07:43:06Z</time>
      </trkpt>
      <trkpt lat="46.75738" lon="6.25931">
        <ele>900.6</ele>
        <time>2019-04-14T07:43:13Z</time>
      </trkpt>
      <trkpt lat="46.75745" lon="6.25941">
        <ele>900.4</ele>
        <time>2019-04-14T07:43:20Z</time>
      </trkpt>
      <trkpt lat="46.75747" lon="6.25954">
        <ele>900.2</ele>
        <time>2019-04-14T07:43:26Z</time>
      </trkpt>
      <trkpt lat="46.7575" lon="6.25967">
        <ele>899.8</ele>
        <time>2019-04-14T07:43:35Z</time>
      </trkpt>
      <trkpt lat="46.75754" lon="6.25981">
        <ele>899.1</ele>
        <time>2019-04-14T07:43:49Z</time>
      </trkpt>
      <trkpt lat="46.75757" lon="6.25993">
        <ele>897.7</ele>
        <time>2019-04-14T07:44:00Z</time>
      </trkpt>
      <trkpt lat="46.75761" lon="6.26005">
        <ele>897.2</ele>
        <time>2019-04-14T07:44:10Z</time>
      </trkpt>
      <trkpt lat="46.75765" lon="6.26018">
        <ele>896.3</ele>
        <time>2019-04-14T07:44:16Z</time>
      </trkpt>
      <trkpt lat="46.75766" lon="6.26032">
        <ele>895.2</ele>
        <time>2019-04-14T07:44:24Z</time>
      </trkpt>
      <trkpt lat="46.75769" lon="6.26045">
        <ele>893.4</ele>
        <time>2019-04-14T07:44:37Z</time>
      </trkpt>
      <trkpt lat="46.75772" lon="6.26058">
        <ele>892</ele>
        <time>2019-04-14T07:44:53Z</time>
      </trkpt>
      <trkpt lat="46.75775" lon="6.26071">
        <ele>891.8</ele>
        <time>2019-04-14T07:45:03Z</time>
      </trkpt>
      <trkpt lat="46.75773" lon="6.26085">
        <ele>890.5</ele>
        <time>2019-04-14T07:45:17Z</time>
      </trkpt>
      <trkpt lat="46.75774" lon="6.26098">
        <ele>887.7</ele>
        <time>2019-04-14T07:45:34Z</time>
      </trkpt>
      <trkpt lat="46.75775" lon="6.26112">
        <ele>886.4</ele>
        <time>2019-04-14T07:45:45Z</time>
      </trkpt>
      <trkpt lat="46.75777" lon="6.26126">
        <ele>885.4</ele>
        <time>2019-04-14T07:45:54Z</time>
      </trkpt>
      <trkpt lat="46.75778" lon="6.26139">
        <ele>884.3</ele>
        <time>2019-04-14T07:46:00Z</time>
      </trkpt>
      <trkpt lat="46.7578" lon="6.26153">
        <ele>883.2</ele>
        <time>2019-04-14T07:46:10Z</time>
      </trkpt>
      <trkpt lat="46.75785" lon="6.26164">
        <ele>882.7</ele>
        <time>2019-04-14T07:46:18Z</time>
      </trkpt>
      <trkpt lat="46.75786" lon="6.26183">
        <ele>880.5</ele>
        <time>2019-04-14T07:46:38Z</time>
      </trkpt>
      <trkpt lat="46.75785" lon="6.26197">
        <ele>879.1</ele>
        <time>2019-04-14T07:46:47Z</time>
      </trkpt>
      <trkpt lat="46.75786" lon="6.26211">
        <ele>878.3</ele>
        <time>2019-04-14T07:46:55Z</time>
      </trkpt>
      <trkpt lat="46.75787" lon="6.26227">
        <ele>878.4</ele>
        <time>2019-04-14T07:47:00Z</time>
      </trkpt>
      <trkpt lat="46.75789" lon="6.2624">
        <ele>877.9</ele>
        <time>2019-04-14T07:47:07Z</time>
      </trkpt>
      <trkpt lat="46.75794" lon="6.26253">
        <ele>877.2</ele>
        <time>2019-04-14T07:47:12Z</time>
      </trkpt>
      <trkpt lat="46.75799" lon="6.26266">
        <ele>877</ele>
        <time>2019-04-14T07:47:18Z</time>
      </trkpt>
      <trkpt lat="46.75805" lon="6.26278">
        <ele>876.6</ele>
        <time>2019-04-14T07:47:25Z</time>
      </trkpt>
      <trkpt lat="46.7581" lon="6.2629">
        <ele>876.3</ele>
        <time>2019-04-14T07:47:32Z</time>
      </trkpt>
      <trkpt lat="46.75815" lon="6.26302">
        <ele>875.5</ele>
        <time>2019-04-14T07:47:42Z</time>
      </trkpt>
      <trkpt lat="46.75821" lon="6.26314">
        <ele>875.1</ele>
        <time>2019-04-14T07:47:50Z</time>
      </trkpt>
      <trkpt lat="46.75826" lon="6.26326">
        <ele>875</ele>
        <time>2019-04-14T07:47:59Z</time>
      </trkpt>
      <trkpt lat="46.75834" lon="6.26334">
        <ele>874.4</ele>
        <time>2019-04-14T07:48:04Z</time>
      </trkpt>
      <trkpt lat="46.75842" lon="6.26342">
        <ele>874.9</ele>
        <time>2019-04-14T07:48:12Z</time>
      </trkpt>
      <trkpt lat="46.75849" lon="6.26353">
        <ele>875.6</ele>
        <time>2019-04-14T07:48:19Z</time>
      </trkpt>
      <trkpt lat="46.75855" lon="6.26364">
        <ele>874.8</ele>
        <time>2019-04-14T07:48:26Z</time>
      </trkpt>
      <trkpt lat="46.7586" lon="6.26377">
        <ele>875</ele>
        <time>2019-04-14T07:48:34Z</time>
      </trkpt>
      <trkpt lat="46.75867" lon="6.26387">
        <ele>874.4</ele>
        <time>2019-04-14T07:48:41Z</time>
      </trkpt>
      <trkpt lat="46.75875" lon="6.26394">
        <ele>874.6</ele>
        <time>2019-04-14T07:48:47Z</time>
      </trkpt>
      <trkpt lat="46.75883" lon="6.26403">
        <ele>874.9</ele>
        <time>2019-04-14T07:48:55Z</time>
      </trkpt>
      <trkpt lat="46.75891" lon="6.2641">
        <ele>875.1</ele>
        <time>2019-04-14T07:49:03Z</time>
      </trkpt>
      <trkpt lat="46.75896" lon="6.26421">
        <ele>874.5</ele>
        <time>2019-04-14T07:49:09Z</time>
      </trkpt>
      <trkpt lat="46.75903" lon="6.26431">
        <ele>875.1</ele>
        <time>2019-04-14T07:49:17Z</time>
      </trkpt>
      <trkpt lat="46.7591" lon="6.26442">
        <ele>875.8</ele>
        <time>2019-04-14T07:49:26Z</time>
      </trkpt>
      <trkpt lat="46.75918" lon="6.26449">
        <ele>875.3</ele>
        <time>2019-04-14T07:49:33Z</time>
      </trkpt>
      <trkpt lat="46.75926" lon="6.26458">
        <ele>875.6</ele>
        <time>2019-04-14T07:49:42Z</time>
      </trkpt>
      <trkpt lat="46.75933" lon="6.26467">
        <ele>876.5</ele>
        <time>2019-04-14T07:49:51Z</time>
      </trkpt>
      <trkpt lat="46.75941" lon="6.26476">
        <ele>876.2</ele>
        <time>2019-04-14T07:49:59Z</time>
      </trkpt>
      <trkpt lat="46.7595" lon="6.26484">
        <ele>876.9</ele>
        <time>2019-04-14T07:50:08Z</time>
      </trkpt>
      <trkpt lat="46.75957" lon="6.26492">
        <ele>877.2</ele>
        <time>2019-04-14T07:50:16Z</time>
      </trkpt>
      <trkpt lat="46.75961" lon="6.26505">
        <ele>877.1</ele>
        <time>2019-04-14T07:50:26Z</time>
      </trkpt>
      <trkpt lat="46.7596" lon="6.26519">
        <ele>877.5</ele>
        <time>2019-04-14T07:50:40Z</time>
      </trkpt>
      <trkpt lat="46.75965" lon="6.26531">
        <ele>877.7</ele>
        <time>2019-04-14T07:51:07Z</time>
      </trkpt>
      <trkpt lat="46.75965" lon="6.26544">
        <ele>877.9</ele>
        <time>2019-04-14T07:51:17Z</time>
      </trkpt>
      <trkpt lat="46.75968" lon="6.26558">
        <ele>879.1</ele>
        <time>2019-04-14T07:51:27Z</time>
      </trkpt>
      <trkpt lat="46.75969" lon="6.26572">
        <ele>879.9</ele>
        <time>2019-04-14T07:51:35Z</time>
      </trkpt>
      <trkpt lat="46.75969" lon="6.26586">
        <ele>880.5</ele>
        <time>2019-04-14T07:51:44Z</time>
      </trkpt>
      <trkpt lat="46.75969" lon="6.26599">
        <ele>881.3</ele>
        <time>2019-04-14T07:51:52Z</time>
      </trkpt>
      <trkpt lat="46.75968" lon="6.26613">
        <ele>882.7</ele>
        <time>2019-04-14T07:52:02Z</time>
      </trkpt>
      <trkpt lat="46.75973" lon="6.26627">
        <ele>885.6</ele>
        <time>2019-04-14T07:52:40Z</time>
      </trkpt>
      <trkpt lat="46.75972" lon="6.2664">
        <ele>887</ele>
        <time>2019-04-14T07:53:06Z</time>
      </trkpt>
      <trkpt lat="46.75966" lon="6.26651">
        <ele>887.7</ele>
        <time>2019-04-14T07:53:18Z</time>
      </trkpt>
      <trkpt lat="46.75962" lon="6.26664">
        <ele>888.8</ele>
        <time>2019-04-14T07:53:27Z</time>
      </trkpt>
      <trkpt lat="46.75958" lon="6.26676">
        <ele>890.1</ele>
        <time>2019-04-14T07:53:38Z</time>
      </trkpt>
      <trkpt lat="46.75958" lon="6.26689">
        <ele>890.7</ele>
        <time>2019-04-14T07:53:46Z</time>
      </trkpt>
      <trkpt lat="46.75954" lon="6.26702">
        <ele>891.7</ele>
        <time>2019-04-14T07:53:56Z</time>
      </trkpt>
      <trkpt lat="46.75953" lon="6.26715">
        <ele>893</ele>
        <time>2019-04-14T07:54:07Z</time>
      </trkpt>
      <trkpt lat="46.75951" lon="6.26728">
        <ele>894.5</ele>
        <time>2019-04-14T07:54:20Z</time>
      </trkpt>
      <trkpt lat="46.75952" lon="6.26742">
        <ele>896.3</ele>
        <time>2019-04-14T07:54:33Z</time>
      </trkpt>
      <trkpt lat="46.75955" lon="6.26754">
        <ele>898.2</ele>
        <time>2019-04-14T07:54:47Z</time>
      </trkpt>
      <trkpt lat="46.75961" lon="6.26766">
        <ele>900.4</ele>
        <time>2019-04-14T07:55:01Z</time>
      </trkpt>
      <trkpt lat="46.75982" lon="6.26762">
        <ele>902</ele>
        <time>2019-04-14T07:56:28Z</time>
      </trkpt>
      <trkpt lat="46.75976" lon="6.26773">
        <ele>902.4</ele>
        <time>2019-04-14T07:57:10Z</time>
      </trkpt>
      <trkpt lat="46.75979" lon="6.26786">
        <ele>903.1</ele>
        <time>2019-04-14T07:57:18Z</time>
      </trkpt>
      <trkpt lat="46.75986" lon="6.26796">
        <ele>902.2</ele>
        <time>2019-04-14T07:57:26Z</time>
      </trkpt>
      <trkpt lat="46.75995" lon="6.26794">
        <ele>904.3</ele>
        <time>2019-04-14T07:58:24Z</time>
      </trkpt>
      <trkpt lat="46.76003" lon="6.26803">
        <ele>905.1</ele>
        <time>2019-04-14T07:58:50Z</time>
      </trkpt>
      <trkpt lat="46.76011" lon="6.2681">
        <ele>906</ele>
        <time>2019-04-14T07:59:02Z</time>
      </trkpt>
      <trkpt lat="46.76015" lon="6.26823">
        <ele>906.7</ele>
        <time>2019-04-14T07:59:10Z</time>
      </trkpt>
      <trkpt lat="46.7602" lon="6.26835">
        <ele>906.6</ele>
        <time>2019-04-14T07:59:20Z</time>
      </trkpt>
      <trkpt lat="46.76025" lon="6.26846">
        <ele>907.7</ele>
        <time>2019-04-14T07:59:31Z</time>
      </trkpt>
      <trkpt lat="46.7603" lon="6.26859">
        <ele>907.9</ele>
        <time>2019-04-14T07:59:38Z</time>
      </trkpt>
      <trkpt lat="46.76038" lon="6.26868">
        <ele>908</ele>
        <time>2019-04-14T07:59:46Z</time>
      </trkpt>
      <trkpt lat="46.76044" lon="6.26877">
        <ele>907.8</ele>
        <time>2019-04-14T07:59:54Z</time>
      </trkpt>
      <trkpt lat="46.76053" lon="6.26882">
        <ele>908.1</ele>
        <time>2019-04-14T08:00:04Z</time>
      </trkpt>
      <trkpt lat="46.76062" lon="6.26886">
        <ele>908</ele>
        <time>2019-04-14T08:00:14Z</time>
      </trkpt>
      <trkpt lat="46.76068" lon="6.26896">
        <ele>907.2</ele>
        <time>2019-04-14T08:00:26Z</time>
      </trkpt>
      <trkpt lat="46.76078" lon="6.26899">
        <ele>906.9</ele>
        <time>2019-04-14T08:00:37Z</time>
      </trkpt>
      <trkpt lat="46.76086" lon="6.26905">
        <ele>905.9</ele>
        <time>2019-04-14T08:00:47Z</time>
      </trkpt>
      <trkpt lat="46.76093" lon="6.26915">
        <ele>905.1</ele>
        <time>2019-04-14T08:00:57Z</time>
      </trkpt>
      <trkpt lat="46.76097" lon="6.26927">
        <ele>904.7</ele>
        <time>2019-04-14T08:01:05Z</time>
      </trkpt>
      <trkpt lat="46.76103" lon="6.26937">
        <ele>904</ele>
        <time>2019-04-14T08:01:15Z</time>
      </trkpt>
      <trkpt lat="46.76109" lon="6.26947">
        <ele>903.6</ele>
        <time>2019-04-14T08:01:25Z</time>
      </trkpt>
      <trkpt lat="46.76114" lon="6.26959">
        <ele>903.6</ele>
        <time>2019-04-14T08:01:35Z</time>
      </trkpt>
      <trkpt lat="46.76122" lon="6.26968">
        <ele>902.7</ele>
        <time>2019-04-14T08:01:47Z</time>
      </trkpt>
      <trkpt lat="46.76128" lon="6.26978">
        <ele>902.1</ele>
        <time>2019-04-14T08:01:54Z</time>
      </trkpt>
      <trkpt lat="46.76135" lon="6.26987">
        <ele>902</ele>
        <time>2019-04-14T08:02:06Z</time>
      </trkpt>
      <trkpt lat="46.76139" lon="6.27011">
        <ele>904</ele>
        <time>2019-04-14T08:04:32Z</time>
      </trkpt>
      <trkpt lat="46.76146" lon="6.2702">
        <ele>904.3</ele>
        <time>2019-04-14T08:04:41Z</time>
      </trkpt>
      <trkpt lat="46.76153" lon="6.27032">
        <ele>904.6</ele>
        <time>2019-04-14T08:04:49Z</time>
      </trkpt>
      <trkpt lat="46.7616" lon="6.27041">
        <ele>904.7</ele>
        <time>2019-04-14T08:04:58Z</time>
      </trkpt>
      <trkpt lat="46.76166" lon="6.27051">
        <ele>904.9</ele>
        <time>2019-04-14T08:05:07Z</time>
      </trkpt>
      <trkpt lat="46.76173" lon="6.2706">
        <ele>904.9</ele>
        <time>2019-04-14T08:05:17Z</time>
      </trkpt>
      <trkpt lat="46.76179" lon="6.2707">
        <ele>905.5</ele>
        <time>2019-04-14T08:05:27Z</time>
      </trkpt>
      <trkpt lat="46.76186" lon="6.27081">
        <ele>906.2</ele>
        <time>2019-04-14T08:05:36Z</time>
      </trkpt>
      <trkpt lat="46.76194" lon="6.27089">
        <ele>906.1</ele>
        <time>2019-04-14T08:05:46Z</time>
      </trkpt>
      <trkpt lat="46.762" lon="6.27099">
        <ele>906.1</ele>
        <time>2019-04-14T08:05:55Z</time>
      </trkpt>
      <trkpt lat="46.76207" lon="6.2711">
        <ele>905.8</ele>
        <time>2019-04-14T08:06:04Z</time>
      </trkpt>
      <trkpt lat="46.76215" lon="6.27119">
        <ele>905.5</ele>
        <time>2019-04-14T08:06:12Z</time>
      </trkpt>
      <trkpt lat="46.76221" lon="6.2713">
        <ele>904.9</ele>
        <time>2019-04-14T08:06:21Z</time>
      </trkpt>
      <trkpt lat="46.76228" lon="6.27141">
        <ele>904.7</ele>
        <time>2019-04-14T08:06:30Z</time>
      </trkpt>
      <trkpt lat="46.76234" lon="6.27151">
        <ele>904.8</ele>
        <time>2019-04-14T08:06:39Z</time>
      </trkpt>
      <trkpt lat="46.7624" lon="6.27161">
        <ele>904.4</ele>
        <time>2019-04-14T08:06:48Z</time>
      </trkpt>
      <trkpt lat="46.76246" lon="6.27171">
        <ele>904.4</ele>
        <time>2019-04-14T08:06:57Z</time>
      </trkpt>
      <trkpt lat="46.76253" lon="6.27181">
        <ele>904.2</ele>
        <time>2019-04-14T08:07:05Z</time>
      </trkpt>
      <trkpt lat="46.76259" lon="6.27191">
        <ele>904.3</ele>
        <time>2019-04-14T08:07:14Z</time>
      </trkpt>
      <trkpt lat="46.76265" lon="6.27201">
        <ele>903.8</ele>
        <time>2019-04-14T08:07:22Z</time>
      </trkpt>
      <trkpt lat="46.76271" lon="6.27211">
        <ele>903.4</ele>
        <time>2019-04-14T08:07:31Z</time>
      </trkpt>
      <trkpt lat="46.76278" lon="6.2722">
        <ele>903.1</ele>
        <time>2019-04-14T08:07:39Z</time>
      </trkpt>
      <trkpt lat="46.76284" lon="6.27231">
        <ele>903</ele>
        <time>2019-04-14T08:07:46Z</time>
      </trkpt>
      <trkpt lat="46.7629" lon="6.27241">
        <ele>902.6</ele>
        <time>2019-04-14T08:07:54Z</time>
      </trkpt>
      <trkpt lat="46.76295" lon="6.27253">
        <ele>902.1</ele>
        <time>2019-04-14T08:08:04Z</time>
      </trkpt>
      <trkpt lat="46.763" lon="6.27265">
        <ele>901.4</ele>
        <time>2019-04-14T08:08:14Z</time>
      </trkpt>
      <trkpt lat="46.76303" lon="6.27278">
        <ele>901.2</ele>
        <time>2019-04-14T08:08:23Z</time>
      </trkpt>
      <trkpt lat="46.76306" lon="6.27292">
        <ele>900.9</ele>
        <time>2019-04-14T08:08:31Z</time>
      </trkpt>
      <trkpt lat="46.76309" lon="6.27306">
        <ele>900.7</ele>
        <time>2019-04-14T08:08:39Z</time>
      </trkpt>
      <trkpt lat="46.76312" lon="6.27319">
        <ele>900.3</ele>
        <time>2019-04-14T08:08:47Z</time>
      </trkpt>
      <trkpt lat="46.76316" lon="6.27332">
        <ele>900.2</ele>
        <time>2019-04-14T08:08:55Z</time>
      </trkpt>
      <trkpt lat="46.76318" lon="6.27346">
        <ele>899.8</ele>
        <time>2019-04-14T08:09:04Z</time>
      </trkpt>
      <trkpt lat="46.76321" lon="6.27359">
        <ele>898.9</ele>
        <time>2019-04-14T08:09:12Z</time>
      </trkpt>
      <trkpt lat="46.76325" lon="6.27372">
        <ele>898.1</ele>
        <time>2019-04-14T08:09:20Z</time>
      </trkpt>
      <trkpt lat="46.76328" lon="6.27384">
        <ele>897.4</ele>
        <time>2019-04-14T08:09:28Z</time>
      </trkpt>
      <trkpt lat="46.76331" lon="6.27398">
        <ele>897</ele>
        <time>2019-04-14T08:09:37Z</time>
      </trkpt>
      <trkpt lat="46.76335" lon="6.27411">
        <ele>897.1</ele>
        <time>2019-04-14T08:09:45Z</time>
      </trkpt>
      <trkpt lat="46.76337" lon="6.27426">
        <ele>896.8</ele>
        <time>2019-04-14T08:09:53Z</time>
      </trkpt>
      <trkpt lat="46.7634" lon="6.27439">
        <ele>895.9</ele>
        <time>2019-04-14T08:10:01Z</time>
      </trkpt>
      <trkpt lat="46.76342" lon="6.27452">
        <ele>895.1</ele>
        <time>2019-04-14T08:10:14Z</time>
      </trkpt>
      <trkpt lat="46.7635" lon="6.2746">
        <ele>894.1</ele>
        <time>2019-04-14T08:10:23Z</time>
      </trkpt>
      <trkpt lat="46.76359" lon="6.27465">
        <ele>893.2</ele>
        <time>2019-04-14T08:10:32Z</time>
      </trkpt>
      <trkpt lat="46.76364" lon="6.27475">
        <ele>892.1</ele>
        <time>2019-04-14T08:10:39Z</time>
      </trkpt>
      <trkpt lat="46.76373" lon="6.27482">
        <ele>891.1</ele>
        <time>2019-04-14T08:10:48Z</time>
      </trkpt>
      <trkpt lat="46.76379" lon="6.27493">
        <ele>890.5</ele>
        <time>2019-04-14T08:10:56Z</time>
      </trkpt>
      <trkpt lat="46.76385" lon="6.27504">
        <ele>890.2</ele>
        <time>2019-04-14T08:11:02Z</time>
      </trkpt>
      <trkpt lat="46.76392" lon="6.27513">
        <ele>889.1</ele>
        <time>2019-04-14T08:11:09Z</time>
      </trkpt>
      <trkpt lat="46.764" lon="6.27522">
        <ele>888.5</ele>
        <time>2019-04-14T08:11:17Z</time>
      </trkpt>
      <trkpt lat="46.76409" lon="6.27528">
        <ele>887.8</ele>
        <time>2019-04-14T08:11:26Z</time>
      </trkpt>
      <trkpt lat="46.76419" lon="6.27529">
        <ele>887.1</ele>
        <time>2019-04-14T08:11:36Z</time>
      </trkpt>
      <trkpt lat="46.76428" lon="6.27528">
        <ele>886.6</ele>
        <time>2019-04-14T08:11:45Z</time>
      </trkpt>
      <trkpt lat="46.76438" lon="6.27528">
        <ele>885.8</ele>
        <time>2019-04-14T08:11:55Z</time>
      </trkpt>
      <trkpt lat="46.76448" lon="6.27527">
        <ele>885.6</ele>
        <time>2019-04-14T08:12:04Z</time>
      </trkpt>
      <trkpt lat="46.76457" lon="6.27525">
        <ele>884.5</ele>
        <time>2019-04-14T08:12:14Z</time>
      </trkpt>
      <trkpt lat="46.76468" lon="6.27521">
        <ele>883.7</ele>
        <time>2019-04-14T08:12:23Z</time>
      </trkpt>
      <trkpt lat="46.76477" lon="6.27517">
        <ele>882.9</ele>
        <time>2019-04-14T08:12:31Z</time>
      </trkpt>
      <trkpt lat="46.76486" lon="6.27516">
        <ele>882</ele>
        <time>2019-04-14T08:12:40Z</time>
      </trkpt>
      <trkpt lat="46.76495" lon="6.27519">
        <ele>881.3</ele>
        <time>2019-04-14T08:12:52Z</time>
      </trkpt>
      <trkpt lat="46.76505" lon="6.2752">
        <ele>880.8</ele>
        <time>2019-04-14T08:13:01Z</time>
      </trkpt>
      <trkpt lat="46.76514" lon="6.27519">
        <ele>880.2</ele>
        <time>2019-04-14T08:13:10Z</time>
      </trkpt>
      <trkpt lat="46.76523" lon="6.27519">
        <ele>879.5</ele>
        <time>2019-04-14T08:13:19Z</time>
      </trkpt>
      <trkpt lat="46.76533" lon="6.27519">
        <ele>879.3</ele>
        <time>2019-04-14T08:13:26Z</time>
      </trkpt>
      <trkpt lat="46.76542" lon="6.2752">
        <ele>878.7</ele>
        <time>2019-04-14T08:13:34Z</time>
      </trkpt>
      <trkpt lat="46.76551" lon="6.27521">
        <ele>878.9</ele>
        <time>2019-04-14T08:13:42Z</time>
      </trkpt>
      <trkpt lat="46.7656" lon="6.27523">
        <ele>878.6</ele>
        <time>2019-04-14T08:13:51Z</time>
      </trkpt>
      <trkpt lat="46.7657" lon="6.27526">
        <ele>878.3</ele>
        <time>2019-04-14T08:13:58Z</time>
      </trkpt>
      <trkpt lat="46.76579" lon="6.2753">
        <ele>877.9</ele>
        <time>2019-04-14T08:14:06Z</time>
      </trkpt>
      <trkpt lat="46.76588" lon="6.27532">
        <ele>878.4</ele>
        <time>2019-04-14T08:14:13Z</time>
      </trkpt>
      <trkpt lat="46.76599" lon="6.27535">
        <ele>878.1</ele>
        <time>2019-04-14T08:14:51Z</time>
      </trkpt>
      <trkpt lat="46.76607" lon="6.27539">
        <ele>878.1</ele>
        <time>2019-04-14T08:15:00Z</time>
      </trkpt>
      <trkpt lat="46.76617" lon="6.27543">
        <ele>877.9</ele>
        <time>2019-04-14T08:15:09Z</time>
      </trkpt>
      <trkpt lat="46.76625" lon="6.27548">
        <ele>877.8</ele>
        <time>2019-04-14T08:15:17Z</time>
      </trkpt>
      <trkpt lat="46.76633" lon="6.27553">
        <ele>878</ele>
        <time>2019-04-14T08:15:24Z</time>
      </trkpt>
      <trkpt lat="46.76642" lon="6.27556">
        <ele>877.9</ele>
        <time>2019-04-14T08:15:30Z</time>
      </trkpt>
      <trkpt lat="46.76652" lon="6.2756">
        <ele>877.4</ele>
        <time>2019-04-14T08:15:39Z</time>
      </trkpt>
      <trkpt lat="46.7666" lon="6.27565">
        <ele>877.3</ele>
        <time>2019-04-14T08:15:47Z</time>
      </trkpt>
      <trkpt lat="46.76668" lon="6.27572">
        <ele>877.6</ele>
        <time>2019-04-14T08:15:56Z</time>
      </trkpt>
      <trkpt lat="46.76677" lon="6.27576">
        <ele>877.8</ele>
        <time>2019-04-14T08:16:04Z</time>
      </trkpt>
      <trkpt lat="46.76686" lon="6.27581">
        <ele>877.5</ele>
        <time>2019-04-14T08:16:13Z</time>
      </trkpt>
      <trkpt lat="46.76695" lon="6.27582">
        <ele>877.6</ele>
        <time>2019-04-14T08:16:21Z</time>
      </trkpt>
      <trkpt lat="46.76704" lon="6.27582">
        <ele>877</ele>
        <time>2019-04-14T08:16:29Z</time>
      </trkpt>
      <trkpt lat="46.76714" lon="6.27581">
        <ele>876.7</ele>
        <time>2019-04-14T08:16:37Z</time>
      </trkpt>
      <trkpt lat="46.76724" lon="6.27582">
        <ele>876.4</ele>
        <time>2019-04-14T08:16:47Z</time>
      </trkpt>
      <trkpt lat="46.76732" lon="6.27588">
        <ele>876.5</ele>
        <time>2019-04-14T08:16:55Z</time>
      </trkpt>
      <trkpt lat="46.76741" lon="6.27591">
        <ele>876.8</ele>
        <time>2019-04-14T08:17:06Z</time>
      </trkpt>
      <trkpt lat="46.7675" lon="6.27585">
        <ele>875.9</ele>
        <time>2019-04-14T08:17:25Z</time>
      </trkpt>
      <trkpt lat="46.76756" lon="6.27573">
        <ele>875.3</ele>
        <time>2019-04-14T08:17:35Z</time>
      </trkpt>
      <trkpt lat="46.76761" lon="6.27561">
        <ele>875</ele>
        <time>2019-04-14T08:17:43Z</time>
      </trkpt>
      <trkpt lat="46.76766" lon="6.2755">
        <ele>874.1</ele>
        <time>2019-04-14T08:17:52Z</time>
      </trkpt>
      <trkpt lat="46.76771" lon="6.27538">
        <ele>873</ele>
        <time>2019-04-14T08:18:02Z</time>
      </trkpt>
      <trkpt lat="46.76774" lon="6.27526">
        <ele>872.5</ele>
        <time>2019-04-14T08:18:09Z</time>
      </trkpt>
      <trkpt lat="46.7678" lon="6.27514">
        <ele>871.7</ele>
        <time>2019-04-14T08:18:18Z</time>
      </trkpt>
      <trkpt lat="46.76785" lon="6.27502">
        <ele>871.4</ele>
        <time>2019-04-14T08:18:26Z</time>
      </trkpt>
      <trkpt lat="46.76791" lon="6.27491">
        <ele>871.1</ele>
        <time>2019-04-14T08:18:35Z</time>
      </trkpt>
      <trkpt lat="46.76796" lon="6.27479">
        <ele>870.3</ele>
        <time>2019-04-14T08:18:43Z</time>
      </trkpt>
      <trkpt lat="46.76801" lon="6.27468">
        <ele>869.8</ele>
        <time>2019-04-14T08:18:52Z</time>
      </trkpt>
      <trkpt lat="46.76804" lon="6.27454">
        <ele>869.1</ele>
        <time>2019-04-14T08:19:01Z</time>
      </trkpt>
      <trkpt lat="46.76806" lon="6.2744">
        <ele>868.7</ele>
        <time>2019-04-14T08:19:08Z</time>
      </trkpt>
      <trkpt lat="46.76808" lon="6.27426">
        <ele>868.4</ele>
        <time>2019-04-14T08:19:15Z</time>
      </trkpt>
      <trkpt lat="46.76807" lon="6.27413">
        <ele>868.2</ele>
        <time>2019-04-14T08:19:25Z</time>
      </trkpt>
      <trkpt lat="46.76808" lon="6.27398">
        <ele>867.8</ele>
        <time>2019-04-14T08:19:34Z</time>
      </trkpt>
      <trkpt lat="46.76806" lon="6.27385">
        <ele>867.5</ele>
        <time>2019-04-14T08:19:42Z</time>
      </trkpt>
      <trkpt lat="46.76803" lon="6.27372">
        <ele>867.5</ele>
        <time>2019-04-14T08:19:51Z</time>
      </trkpt>
      <trkpt lat="46.76799" lon="6.2736">
        <ele>867</ele>
        <time>2019-04-14T08:19:59Z</time>
      </trkpt>
      <trkpt lat="46.76795" lon="6.27349">
        <ele>867</ele>
        <time>2019-04-14T08:20:06Z</time>
      </trkpt>
      <trkpt lat="46.76789" lon="6.27338">
        <ele>867</ele>
        <time>2019-04-14T08:20:14Z</time>
      </trkpt>
      <trkpt lat="46.76781" lon="6.27331">
        <ele>867</ele>
        <time>2019-04-14T08:20:21Z</time>
      </trkpt>
      <trkpt lat="46.76773" lon="6.27322">
        <ele>867.2</ele>
        <time>2019-04-14T08:20:31Z</time>
      </trkpt>
      <trkpt lat="46.76767" lon="6.27311">
        <ele>866.5</ele>
        <time>2019-04-14T08:20:45Z</time>
      </trkpt>
      <trkpt lat="46.76757" lon="6.27303">
        <ele>866.3</ele>
        <time>2019-04-14T08:21:14Z</time>
      </trkpt>
      <trkpt lat="46.76766" lon="6.27301">
        <ele>866.6</ele>
        <time>2019-04-14T08:21:37Z</time>
      </trkpt>
      <trkpt lat="46.76775" lon="6.27297">
        <ele>866.8</ele>
        <time>2019-04-14T08:21:46Z</time>
      </trkpt>
      <trkpt lat="46.76785" lon="6.27295">
        <ele>867.1</ele>
        <time>2019-04-14T08:21:55Z</time>
      </trkpt>
      <trkpt lat="46.76795" lon="6.27292">
        <ele>867.4</ele>
        <time>2019-04-14T08:22:04Z</time>
      </trkpt>
      <trkpt lat="46.76804" lon="6.27291">
        <ele>867.3</ele>
        <time>2019-04-14T08:22:12Z</time>
      </trkpt>
      <trkpt lat="46.76813" lon="6.27292">
        <ele>867.4</ele>
        <time>2019-04-14T08:22:20Z</time>
      </trkpt>
      <trkpt lat="46.76824" lon="6.27294">
        <ele>867.6</ele>
        <time>2019-04-14T08:22:29Z</time>
      </trkpt>
      <trkpt lat="46.76834" lon="6.27296">
        <ele>867.1</ele>
        <time>2019-04-14T08:22:37Z</time>
      </trkpt>
      <trkpt lat="46.76843" lon="6.27301">
        <ele>867.3</ele>
        <time>2019-04-14T08:22:45Z</time>
      </trkpt>
      <trkpt lat="46.76851" lon="6.27305">
        <ele>867.3</ele>
        <time>2019-04-14T08:22:53Z</time>
      </trkpt>
      <trkpt lat="46.7686" lon="6.2731">
        <ele>867.3</ele>
        <time>2019-04-14T08:23:01Z</time>
      </trkpt>
      <trkpt lat="46.76868" lon="6.27318">
        <ele>867.3</ele>
        <time>2019-04-14T08:23:08Z</time>
      </trkpt>
      <trkpt lat="46.76877" lon="6.27323">
        <ele>867.6</ele>
        <time>2019-04-14T08:23:15Z</time>
      </trkpt>
      <trkpt lat="46.76886" lon="6.27327">
        <ele>867.9</ele>
        <time>2019-04-14T08:23:24Z</time>
      </trkpt>
      <trkpt lat="46.76896" lon="6.27329">
        <ele>867.7</ele>
        <time>2019-04-14T08:23:32Z</time>
      </trkpt>
      <trkpt lat="46.76905" lon="6.2733">
        <ele>868</ele>
        <time>2019-04-14T08:23:40Z</time>
      </trkpt>
      <trkpt lat="46.76914" lon="6.2733">
        <ele>868.5</ele>
        <time>2019-04-14T08:23:49Z</time>
      </trkpt>
      <trkpt lat="46.76923" lon="6.27329">
        <ele>868.6</ele>
        <time>2019-04-14T08:23:58Z</time>
      </trkpt>
      <trkpt lat="46.76932" lon="6.27327">
        <ele>868.8</ele>
        <time>2019-04-14T08:24:06Z</time>
      </trkpt>
      <trkpt lat="46.76942" lon="6.27325">
        <ele>869</ele>
        <time>2019-04-14T08:24:14Z</time>
      </trkpt>
      <trkpt lat="46.76951" lon="6.27323">
        <ele>869.2</ele>
        <time>2019-04-14T08:24:23Z</time>
      </trkpt>
      <trkpt lat="46.7696" lon="6.27322">
        <ele>869.3</ele>
        <time>2019-04-14T08:24:31Z</time>
      </trkpt>
      <trkpt lat="46.7697" lon="6.2732">
        <ele>869.5</ele>
        <time>2019-04-14T08:24:39Z</time>
      </trkpt>
      <trkpt lat="46.76979" lon="6.27318">
        <ele>870.1</ele>
        <time>2019-04-14T08:24:47Z</time>
      </trkpt>
      <trkpt lat="46.76988" lon="6.27316">
        <ele>869.8</ele>
        <time>2019-04-14T08:24:56Z</time>
      </trkpt>
      <trkpt lat="46.76997" lon="6.27315">
        <ele>869.8</ele>
        <time>2019-04-14T08:25:04Z</time>
      </trkpt>
      <trkpt lat="46.77007" lon="6.27314">
        <ele>869.9</ele>
        <time>2019-04-14T08:25:11Z</time>
      </trkpt>
      <trkpt lat="46.77016" lon="6.27314">
        <ele>869.5</ele>
        <time>2019-04-14T08:25:19Z</time>
      </trkpt>
      <trkpt lat="46.77026" lon="6.27312">
        <ele>869.8</ele>
        <time>2019-04-14T08:25:28Z</time>
      </trkpt>
      <trkpt lat="46.77035" lon="6.27312">
        <ele>869.9</ele>
        <time>2019-04-14T08:25:36Z</time>
      </trkpt>
      <trkpt lat="46.77042" lon="6.27323">
        <ele>869.6</ele>
        <time>2019-04-14T08:25:46Z</time>
      </trkpt>
      <trkpt lat="46.77049" lon="6.27331">
        <ele>870.1</ele>
        <time>2019-04-14T08:25:56Z</time>
      </trkpt>
      <trkpt lat="46.77056" lon="6.2734">
        <ele>870.8</ele>
        <time>2019-04-14T08:26:04Z</time>
      </trkpt>
      <trkpt lat="46.77061" lon="6.27351">
        <ele>871.4</ele>
        <time>2019-04-14T08:26:13Z</time>
      </trkpt>
      <trkpt lat="46.77067" lon="6.27362">
        <ele>871.2</ele>
        <time>2019-04-14T08:26:20Z</time>
      </trkpt>
      <trkpt lat="46.77073" lon="6.27373">
        <ele>871</ele>
        <time>2019-04-14T08:26:28Z</time>
      </trkpt>
      <trkpt lat="46.7708" lon="6.27383">
        <ele>871.3</ele>
        <time>2019-04-14T08:26:36Z</time>
      </trkpt>
      <trkpt lat="46.77088" lon="6.27392">
        <ele>871.3</ele>
        <time>2019-04-14T08:26:44Z</time>
      </trkpt>
      <trkpt lat="46.77096" lon="6.27397">
        <ele>871.6</ele>
        <time>2019-04-14T08:26:54Z</time>
      </trkpt>
      <trkpt lat="46.77105" lon="6.27401">
        <ele>872</ele>
        <time>2019-04-14T08:27:07Z</time>
      </trkpt>
      <trkpt lat="46.77112" lon="6.27409">
        <ele>874.4</ele>
        <time>2019-04-14T08:29:36Z</time>
      </trkpt>
      <trkpt lat="46.77118" lon="6.2742">
        <ele>875.9</ele>
        <time>2019-04-14T08:31:15Z</time>
      </trkpt>
      <trkpt lat="46.77119" lon="6.27433">
        <ele>876.6</ele>
        <time>2019-04-14T08:31:32Z</time>
      </trkpt>
      <trkpt lat="46.77121" lon="6.27447">
        <ele>877</ele>
        <time>2019-04-14T08:31:43Z</time>
      </trkpt>
      <trkpt lat="46.77122" lon="6.27461">
        <ele>877.2</ele>
        <time>2019-04-14T08:31:54Z</time>
      </trkpt>
      <trkpt lat="46.77125" lon="6.27474">
        <ele>877.5</ele>
        <time>2019-04-14T08:32:04Z</time>
      </trkpt>
      <trkpt lat="46.77126" lon="6.27488">
        <ele>877.6</ele>
        <time>2019-04-14T08:32:13Z</time>
      </trkpt>
      <trkpt lat="46.77128" lon="6.27502">
        <ele>878</ele>
        <time>2019-04-14T08:32:22Z</time>
      </trkpt>
      <trkpt lat="46.77131" lon="6.27516">
        <ele>878.4</ele>
        <time>2019-04-14T08:32:29Z</time>
      </trkpt>
      <trkpt lat="46.77137" lon="6.27525">
        <ele>878.4</ele>
        <time>2019-04-14T08:32:37Z</time>
      </trkpt>
      <trkpt lat="46.77142" lon="6.27538">
        <ele>878.6</ele>
        <time>2019-04-14T08:32:44Z</time>
      </trkpt>
      <trkpt lat="46.77148" lon="6.27549">
        <ele>878</ele>
        <time>2019-04-14T08:32:52Z</time>
      </trkpt>
      <trkpt lat="46.7715" lon="6.27562">
        <ele>878.3</ele>
        <time>2019-04-14T08:33:04Z</time>
      </trkpt>
      <trkpt lat="46.77154" lon="6.27574">
        <ele>878.3</ele>
        <time>2019-04-14T08:33:13Z</time>
      </trkpt>
      <trkpt lat="46.77155" lon="6.27588">
        <ele>878.4</ele>
        <time>2019-04-14T08:33:21Z</time>
      </trkpt>
      <trkpt lat="46.77156" lon="6.27602">
        <ele>879.6</ele>
        <time>2019-04-14T08:33:29Z</time>
      </trkpt>
      <trkpt lat="46.77159" lon="6.27616">
        <ele>879.8</ele>
        <time>2019-04-14T08:33:37Z</time>
      </trkpt>
      <trkpt lat="46.77162" lon="6.27629">
        <ele>880</ele>
        <time>2019-04-14T08:33:45Z</time>
      </trkpt>
      <trkpt lat="46.77163" lon="6.27642">
        <ele>880.3</ele>
        <time>2019-04-14T08:33:54Z</time>
      </trkpt>
      <trkpt lat="46.77163" lon="6.27656">
        <ele>880.4</ele>
        <time>2019-04-14T08:34:03Z</time>
      </trkpt>
      <trkpt lat="46.77163" lon="6.2767">
        <ele>880.5</ele>
        <time>2019-04-14T08:34:10Z</time>
      </trkpt>
      <trkpt lat="46.77163" lon="6.27684">
        <ele>881</ele>
        <time>2019-04-14T08:34:18Z</time>
      </trkpt>
      <trkpt lat="46.77165" lon="6.27698">
        <ele>881.5</ele>
        <time>2019-04-14T08:34:25Z</time>
      </trkpt>
      <trkpt lat="46.77167" lon="6.27712">
        <ele>881.8</ele>
        <time>2019-04-14T08:34:32Z</time>
      </trkpt>
      <trkpt lat="46.77169" lon="6.27726">
        <ele>881.9</ele>
        <time>2019-04-14T08:34:40Z</time>
      </trkpt>
      <trkpt lat="46.77168" lon="6.27741">
        <ele>882.5</ele>
        <time>2019-04-14T08:34:48Z</time>
      </trkpt>
      <trkpt lat="46.77166" lon="6.27755">
        <ele>882.5</ele>
        <time>2019-04-14T08:34:57Z</time>
      </trkpt>
      <trkpt lat="46.77164" lon="6.27768">
        <ele>882.6</ele>
        <time>2019-04-14T08:35:06Z</time>
      </trkpt>
      <trkpt lat="46.77162" lon="6.27781">
        <ele>882.7</ele>
        <time>2019-04-14T08:35:13Z</time>
      </trkpt>
      <trkpt lat="46.77156" lon="6.27793">
        <ele>882.5</ele>
        <time>2019-04-14T08:35:22Z</time>
      </trkpt>
      <trkpt lat="46.77153" lon="6.27805">
        <ele>882.4</ele>
        <time>2019-04-14T08:35:30Z</time>
      </trkpt>
      <trkpt lat="46.77148" lon="6.27816">
        <ele>882.9</ele>
        <time>2019-04-14T08:35:40Z</time>
      </trkpt>
      <trkpt lat="46.77149" lon="6.2783">
        <ele>883.1</ele>
        <time>2019-04-14T08:35:50Z</time>
      </trkpt>
      <trkpt lat="46.77147" lon="6.27843">
        <ele>883.3</ele>
        <time>2019-04-14T08:35:59Z</time>
      </trkpt>
      <trkpt lat="46.77143" lon="6.27856">
        <ele>883.5</ele>
        <time>2019-04-14T08:36:10Z</time>
      </trkpt>
      <trkpt lat="46.77135" lon="6.27863">
        <ele>883.6</ele>
        <time>2019-04-14T08:36:19Z</time>
      </trkpt>
      <trkpt lat="46.7713" lon="6.27875">
        <ele>883.6</ele>
        <time>2019-04-14T08:36:28Z</time>
      </trkpt>
      <trkpt lat="46.7713" lon="6.27889">
        <ele>884.1</ele>
        <time>2019-04-14T08:36:39Z</time>
      </trkpt>
      <trkpt lat="46.77126" lon="6.27906">
        <ele>884.5</ele>
        <time>2019-04-14T08:36:47Z</time>
      </trkpt>
      <trkpt lat="46.77117" lon="6.27915">
        <ele>884</ele>
        <time>2019-04-14T08:36:51Z</time>
      </trkpt>
      <trkpt lat="46.7711" lon="6.27924">
        <ele>884.4</ele>
        <time>2019-04-14T08:36:55Z</time>
      </trkpt>
      <trkpt lat="46.77111" lon="6.27937">
        <ele>884.8</ele>
        <time>2019-04-14T08:37:04Z</time>
      </trkpt>
      <trkpt lat="46.77119" lon="6.27946">
        <ele>885.1</ele>
        <time>2019-04-14T08:37:15Z</time>
      </trkpt>
      <trkpt lat="46.77128" lon="6.27951">
        <ele>884.6</ele>
        <time>2019-04-14T08:37:25Z</time>
      </trkpt>
      <trkpt lat="46.77138" lon="6.27952">
        <ele>884.4</ele>
        <time>2019-04-14T08:37:32Z</time>
      </trkpt>
      <trkpt lat="46.77147" lon="6.27951">
        <ele>885</ele>
        <time>2019-04-14T08:37:39Z</time>
      </trkpt>
      <trkpt lat="46.77157" lon="6.27949">
        <ele>885</ele>
        <time>2019-04-14T08:37:46Z</time>
      </trkpt>
      <trkpt lat="46.77167" lon="6.2795">
        <ele>885.3</ele>
        <time>2019-04-14T08:37:54Z</time>
      </trkpt>
      <trkpt lat="46.77177" lon="6.27953">
        <ele>885.2</ele>
        <time>2019-04-14T08:38:00Z</time>
      </trkpt>
      <trkpt lat="46.77186" lon="6.27952">
        <ele>885.5</ele>
        <time>2019-04-14T08:38:07Z</time>
      </trkpt>
      <trkpt lat="46.77197" lon="6.27954">
        <ele>886.3</ele>
        <time>2019-04-14T08:38:15Z</time>
      </trkpt>
      <trkpt lat="46.77206" lon="6.27953">
        <ele>886.4</ele>
        <time>2019-04-14T08:38:24Z</time>
      </trkpt>
      <trkpt lat="46.77215" lon="6.27959">
        <ele>887.3</ele>
        <time>2019-04-14T08:38:38Z</time>
      </trkpt>
      <trkpt lat="46.77224" lon="6.27962">
        <ele>887.7</ele>
        <time>2019-04-14T08:38:45Z</time>
      </trkpt>
      <trkpt lat="46.77233" lon="6.27969">
        <ele>888</ele>
        <time>2019-04-14T08:38:53Z</time>
      </trkpt>
      <trkpt lat="46.77241" lon="6.27976">
        <ele>888.2</ele>
        <time>2019-04-14T08:39:01Z</time>
      </trkpt>
      <trkpt lat="46.77247" lon="6.27987">
        <ele>888.4</ele>
        <time>2019-04-14T08:39:13Z</time>
      </trkpt>
      <trkpt lat="46.77254" lon="6.27998">
        <ele>888.9</ele>
        <time>2019-04-14T08:39:22Z</time>
      </trkpt>
      <trkpt lat="46.77262" lon="6.28007">
        <ele>889.4</ele>
        <time>2019-04-14T08:39:29Z</time>
      </trkpt>
      <trkpt lat="46.77269" lon="6.28015">
        <ele>889.5</ele>
        <time>2019-04-14T08:39:35Z</time>
      </trkpt>
      <trkpt lat="46.77277" lon="6.28025">
        <ele>889.8</ele>
        <time>2019-04-14T08:39:42Z</time>
      </trkpt>
      <trkpt lat="46.77285" lon="6.28034">
        <ele>889.3</ele>
        <time>2019-04-14T08:39:49Z</time>
      </trkpt>
      <trkpt lat="46.77295" lon="6.2804">
        <ele>888.9</ele>
        <time>2019-04-14T08:40:22Z</time>
      </trkpt>
      <trkpt lat="46.77303" lon="6.28048">
        <ele>889.2</ele>
        <time>2019-04-14T08:40:35Z</time>
      </trkpt>
      <trkpt lat="46.7731" lon="6.28055">
        <ele>889.4</ele>
        <time>2019-04-14T08:40:45Z</time>
      </trkpt>
      <trkpt lat="46.77319" lon="6.28059">
        <ele>889.6</ele>
        <time>2019-04-14T08:40:54Z</time>
      </trkpt>
      <trkpt lat="46.77328" lon="6.28064">
        <ele>889.5</ele>
        <time>2019-04-14T08:41:02Z</time>
      </trkpt>
      <trkpt lat="46.77338" lon="6.28064">
        <ele>889.7</ele>
        <time>2019-04-14T08:41:10Z</time>
      </trkpt>
      <trkpt lat="46.77347" lon="6.2806">
        <ele>890.2</ele>
        <time>2019-04-14T08:41:19Z</time>
      </trkpt>
      <trkpt lat="46.77356" lon="6.28059">
        <ele>889.8</ele>
        <time>2019-04-14T08:41:27Z</time>
      </trkpt>
      <trkpt lat="46.77365" lon="6.28057">
        <ele>889.7</ele>
        <time>2019-04-14T08:41:34Z</time>
      </trkpt>
      <trkpt lat="46.77374" lon="6.28053">
        <ele>890</ele>
        <time>2019-04-14T08:41:42Z</time>
      </trkpt>
      <trkpt lat="46.77384" lon="6.2805">
        <ele>890.4</ele>
        <time>2019-04-14T08:41:51Z</time>
      </trkpt>
      <trkpt lat="46.77393" lon="6.28045">
        <ele>890.6</ele>
        <time>2019-04-14T08:41:58Z</time>
      </trkpt>
      <trkpt lat="46.77402" lon="6.28038">
        <ele>891</ele>
        <time>2019-04-14T08:42:06Z</time>
      </trkpt>
      <trkpt lat="46.77411" lon="6.28034">
        <ele>891.6</ele>
        <time>2019-04-14T08:42:13Z</time>
      </trkpt>
      <trkpt lat="46.7742" lon="6.28029">
        <ele>892.5</ele>
        <time>2019-04-14T08:42:21Z</time>
      </trkpt>
      <trkpt lat="46.7743" lon="6.28025">
        <ele>893.2</ele>
        <time>2019-04-14T08:42:28Z</time>
      </trkpt>
      <trkpt lat="46.77439" lon="6.28019">
        <ele>893.5</ele>
        <time>2019-04-14T08:42:35Z</time>
      </trkpt>
      <trkpt lat="46.77447" lon="6.28013">
        <ele>893.9</ele>
        <time>2019-04-14T08:42:42Z</time>
      </trkpt>
      <trkpt lat="46.77454" lon="6.28005">
        <ele>894.2</ele>
        <time>2019-04-14T08:42:50Z</time>
      </trkpt>
      <trkpt lat="46.77458" lon="6.27993">
        <ele>894.3</ele>
        <time>2019-04-14T08:42:59Z</time>
      </trkpt>
      <trkpt lat="46.77464" lon="6.27983">
        <ele>894.9</ele>
        <time>2019-04-14T08:43:15Z</time>
      </trkpt>
      <trkpt lat="46.7747" lon="6.27971">
        <ele>894.8</ele>
        <time>2019-04-14T08:43:26Z</time>
      </trkpt>
      <trkpt lat="46.77475" lon="6.2796">
        <ele>894.9</ele>
        <time>2019-04-14T08:43:34Z</time>
      </trkpt>
      <trkpt lat="46.77479" lon="6.27947">
        <ele>894.8</ele>
        <time>2019-04-14T08:43:41Z</time>
      </trkpt>
      <trkpt lat="46.77482" lon="6.27935">
        <ele>894.6</ele>
        <time>2019-04-14T08:43:47Z</time>
      </trkpt>
      <trkpt lat="46.77486" lon="6.27921">
        <ele>894.3</ele>
        <time>2019-04-14T08:43:55Z</time>
      </trkpt>
      <trkpt lat="46.77492" lon="6.2791">
        <ele>894.5</ele>
        <time>2019-04-14T08:44:05Z</time>
      </trkpt>
      <trkpt lat="46.77498" lon="6.27899">
        <ele>894.2</ele>
        <time>2019-04-14T08:44:13Z</time>
      </trkpt>
      <trkpt lat="46.77503" lon="6.27886">
        <ele>894.1</ele>
        <time>2019-04-14T08:44:19Z</time>
      </trkpt>
      <trkpt lat="46.77507" lon="6.27872">
        <ele>894.5</ele>
        <time>2019-04-14T08:44:26Z</time>
      </trkpt>
      <trkpt lat="46.77513" lon="6.2786">
        <ele>894.5</ele>
        <time>2019-04-14T08:44:33Z</time>
      </trkpt>
      <trkpt lat="46.7752" lon="6.2785">
        <ele>894.1</ele>
        <time>2019-04-14T08:44:40Z</time>
      </trkpt>
      <trkpt lat="46.77525" lon="6.2784">
        <ele>894.6</ele>
        <time>2019-04-14T08:44:46Z</time>
      </trkpt>
      <trkpt lat="46.77533" lon="6.27831">
        <ele>894</ele>
        <time>2019-04-14T08:44:54Z</time>
      </trkpt>
      <trkpt lat="46.7754" lon="6.27823">
        <ele>894.4</ele>
        <time>2019-04-14T08:45:03Z</time>
      </trkpt>
      <trkpt lat="46.77548" lon="6.27818">
        <ele>894.1</ele>
        <time>2019-04-14T08:45:10Z</time>
      </trkpt>
      <trkpt lat="46.77558" lon="6.27815">
        <ele>894.2</ele>
        <time>2019-04-14T08:45:20Z</time>
      </trkpt>
      <trkpt lat="46.77568" lon="6.27812">
        <ele>893.7</ele>
        <time>2019-04-14T08:45:31Z</time>
      </trkpt>
      <trkpt lat="46.77577" lon="6.27814">
        <ele>894</ele>
        <time>2019-04-14T08:45:39Z</time>
      </trkpt>
      <trkpt lat="46.77586" lon="6.27813">
        <ele>893.8</ele>
        <time>2019-04-14T08:45:47Z</time>
      </trkpt>
      <trkpt lat="46.77595" lon="6.27809">
        <ele>893.6</ele>
        <time>2019-04-14T08:45:57Z</time>
      </trkpt>
      <trkpt lat="46.77606" lon="6.27809">
        <ele>893.5</ele>
        <time>2019-04-14T08:46:05Z</time>
      </trkpt>
      <trkpt lat="46.77615" lon="6.2781">
        <ele>892.7</ele>
        <time>2019-04-14T08:46:13Z</time>
      </trkpt>
      <trkpt lat="46.77624" lon="6.27815">
        <ele>893.1</ele>
        <time>2019-04-14T08:46:25Z</time>
      </trkpt>
      <trkpt lat="46.77634" lon="6.2782">
        <ele>892.9</ele>
        <time>2019-04-14T08:46:33Z</time>
      </trkpt>
      <trkpt lat="46.77642" lon="6.27824">
        <ele>892.9</ele>
        <time>2019-04-14T08:46:40Z</time>
      </trkpt>
      <trkpt lat="46.77651" lon="6.27831">
        <ele>892.7</ele>
        <time>2019-04-14T08:46:48Z</time>
      </trkpt>
      <trkpt lat="46.7766" lon="6.27834">
        <ele>892.7</ele>
        <time>2019-04-14T08:46:53Z</time>
      </trkpt>
      <trkpt lat="46.7767" lon="6.27835">
        <ele>892.8</ele>
        <time>2019-04-14T08:47:01Z</time>
      </trkpt>
      <trkpt lat="46.7768" lon="6.27836">
        <ele>892.8</ele>
        <time>2019-04-14T08:47:12Z</time>
      </trkpt>
      <trkpt lat="46.77689" lon="6.27835">
        <ele>892.8</ele>
        <time>2019-04-14T08:47:19Z</time>
      </trkpt>
      <trkpt lat="46.77698" lon="6.27834">
        <ele>892.9</ele>
        <time>2019-04-14T08:47:24Z</time>
      </trkpt>
      <trkpt lat="46.77708" lon="6.27833">
        <ele>892.8</ele>
        <time>2019-04-14T08:47:32Z</time>
      </trkpt>
      <trkpt lat="46.77718" lon="6.27833">
        <ele>892.5</ele>
        <time>2019-04-14T08:47:39Z</time>
      </trkpt>
      <trkpt lat="46.77728" lon="6.2783">
        <ele>892.9</ele>
        <time>2019-04-14T08:47:47Z</time>
      </trkpt>
      <trkpt lat="46.77738" lon="6.27829">
        <ele>892.7</ele>
        <time>2019-04-14T08:47:54Z</time>
      </trkpt>
      <trkpt lat="46.77748" lon="6.27829">
        <ele>892.7</ele>
        <time>2019-04-14T08:47:59Z</time>
      </trkpt>
      <trkpt lat="46.77758" lon="6.27826">
        <ele>892.5</ele>
        <time>2019-04-14T08:48:09Z</time>
      </trkpt>
      <trkpt lat="46.77767" lon="6.27825">
        <ele>892</ele>
        <time>2019-04-14T08:48:20Z</time>
      </trkpt>
      <trkpt lat="46.77776" lon="6.27831">
        <ele>892.1</ele>
        <time>2019-04-14T08:48:27Z</time>
      </trkpt>
      <trkpt lat="46.77785" lon="6.27833">
        <ele>892.1</ele>
        <time>2019-04-14T08:48:37Z</time>
      </trkpt>
      <trkpt lat="46.77796" lon="6.27836">
        <ele>891.7</ele>
        <time>2019-04-14T08:48:46Z</time>
      </trkpt>
      <trkpt lat="46.77805" lon="6.27839">
        <ele>891.7</ele>
        <time>2019-04-14T08:48:54Z</time>
      </trkpt>
      <trkpt lat="46.77815" lon="6.27841">
        <ele>891.5</ele>
        <time>2019-04-14T08:49:02Z</time>
      </trkpt>
      <trkpt lat="46.77825" lon="6.27843">
        <ele>891.6</ele>
        <time>2019-04-14T08:49:09Z</time>
      </trkpt>
      <trkpt lat="46.77834" lon="6.27846">
        <ele>891.7</ele>
        <time>2019-04-14T08:49:16Z</time>
      </trkpt>
      <trkpt lat="46.77843" lon="6.27849">
        <ele>892.1</ele>
        <time>2019-04-14T08:49:25Z</time>
      </trkpt>
      <trkpt lat="46.77853" lon="6.27849">
        <ele>891.6</ele>
        <time>2019-04-14T08:49:33Z</time>
      </trkpt>
      <trkpt lat="46.77863" lon="6.27853">
        <ele>892</ele>
        <time>2019-04-14T08:49:40Z</time>
      </trkpt>
      <trkpt lat="46.77872" lon="6.27859">
        <ele>891.7</ele>
        <time>2019-04-14T08:49:48Z</time>
      </trkpt>
      <trkpt lat="46.77881" lon="6.27861">
        <ele>891.3</ele>
        <time>2019-04-14T08:49:56Z</time>
      </trkpt>
      <trkpt lat="46.7789" lon="6.27863">
        <ele>892</ele>
        <time>2019-04-14T08:50:05Z</time>
      </trkpt>
      <trkpt lat="46.779" lon="6.27866">
        <ele>892.2</ele>
        <time>2019-04-14T08:50:13Z</time>
      </trkpt>
      <trkpt lat="46.77909" lon="6.2787">
        <ele>892.2</ele>
        <time>2019-04-14T08:50:21Z</time>
      </trkpt>
      <trkpt lat="46.77919" lon="6.27875">
        <ele>892.7</ele>
        <time>2019-04-14T08:50:29Z</time>
      </trkpt>
      <trkpt lat="46.77928" lon="6.27878">
        <ele>893.4</ele>
        <time>2019-04-14T08:50:37Z</time>
      </trkpt>
      <trkpt lat="46.77937" lon="6.27882">
        <ele>893.2</ele>
        <time>2019-04-14T08:50:45Z</time>
      </trkpt>
      <trkpt lat="46.77946" lon="6.27886">
        <ele>893.3</ele>
        <time>2019-04-14T08:50:52Z</time>
      </trkpt>
      <trkpt lat="46.77956" lon="6.27888">
        <ele>893.4</ele>
        <time>2019-04-14T08:51:00Z</time>
      </trkpt>
      <trkpt lat="46.77966" lon="6.27891">
        <ele>893.7</ele>
        <time>2019-04-14T08:51:06Z</time>
      </trkpt>
      <trkpt lat="46.77975" lon="6.27892">
        <ele>893.9</ele>
        <time>2019-04-14T08:51:16Z</time>
      </trkpt>
      <trkpt lat="46.77984" lon="6.27897">
        <ele>893.9</ele>
        <time>2019-04-14T08:51:28Z</time>
      </trkpt>
      <trkpt lat="46.77993" lon="6.27902">
        <ele>894.1</ele>
        <time>2019-04-14T08:51:40Z</time>
      </trkpt>
      <trkpt lat="46.78002" lon="6.27905">
        <ele>894.4</ele>
        <time>2019-04-14T08:51:50Z</time>
      </trkpt>
      <trkpt lat="46.78011" lon="6.27911">
        <ele>894.5</ele>
        <time>2019-04-14T08:51:58Z</time>
      </trkpt>
      <trkpt lat="46.78018" lon="6.2792">
        <ele>894.6</ele>
        <time>2019-04-14T08:52:04Z</time>
      </trkpt>
      <trkpt lat="46.78025" lon="6.27928">
        <ele>894.3</ele>
        <time>2019-04-14T08:52:16Z</time>
      </trkpt>
      <trkpt lat="46.78033" lon="6.27936">
        <ele>894.2</ele>
        <time>2019-04-14T08:52:23Z</time>
      </trkpt>
      <trkpt lat="46.78041" lon="6.27944">
        <ele>894.4</ele>
        <time>2019-04-14T08:52:29Z</time>
      </trkpt>
      <trkpt lat="46.78049" lon="6.27952">
        <ele>894.5</ele>
        <time>2019-04-14T08:52:35Z</time>
      </trkpt>
      <trkpt lat="46.78055" lon="6.27962">
        <ele>894.7</ele>
        <time>2019-04-14T08:52:43Z</time>
      </trkpt>
      <trkpt lat="46.78063" lon="6.27972">
        <ele>894.9</ele>
        <time>2019-04-14T08:52:51Z</time>
      </trkpt>
      <trkpt lat="46.7807" lon="6.27982">
        <ele>894.8</ele>
        <time>2019-04-14T08:52:59Z</time>
      </trkpt>
      <trkpt lat="46.78077" lon="6.27991">
        <ele>894.2</ele>
        <time>2019-04-14T08:53:07Z</time>
      </trkpt>
      <trkpt lat="46.78084" lon="6.28001">
        <ele>894.4</ele>
        <time>2019-04-14T08:53:15Z</time>
      </trkpt>
      <trkpt lat="46.7809" lon="6.28011">
        <ele>894.5</ele>
        <time>2019-04-14T08:53:23Z</time>
      </trkpt>
      <trkpt lat="46.78097" lon="6.28021">
        <ele>895.1</ele>
        <time>2019-04-14T08:53:31Z</time>
      </trkpt>
      <trkpt lat="46.78104" lon="6.28031">
        <ele>895.5</ele>
        <time>2019-04-14T08:53:39Z</time>
      </trkpt>
      <trkpt lat="46.78111" lon="6.28041">
        <ele>894.9</ele>
        <time>2019-04-14T08:53:47Z</time>
      </trkpt>
      <trkpt lat="46.78117" lon="6.28052">
        <ele>894.9</ele>
        <time>2019-04-14T08:53:55Z</time>
      </trkpt>
      <trkpt lat="46.78124" lon="6.28063">
        <ele>894.8</ele>
        <time>2019-04-14T08:54:03Z</time>
      </trkpt>
      <trkpt lat="46.78131" lon="6.28072">
        <ele>895</ele>
        <time>2019-04-14T08:54:11Z</time>
      </trkpt>
      <trkpt lat="46.78138" lon="6.28082">
        <ele>894.6</ele>
        <time>2019-04-14T08:54:19Z</time>
      </trkpt>
      <trkpt lat="46.78145" lon="6.28092">
        <ele>894.5</ele>
        <time>2019-04-14T08:54:27Z</time>
      </trkpt>
      <trkpt lat="46.78151" lon="6.28103">
        <ele>894.5</ele>
        <time>2019-04-14T08:54:35Z</time>
      </trkpt>
      <trkpt lat="46.78158" lon="6.28112">
        <ele>894.3</ele>
        <time>2019-04-14T08:54:42Z</time>
      </trkpt>
      <trkpt lat="46.78164" lon="6.28124">
        <ele>894.2</ele>
        <time>2019-04-14T08:54:50Z</time>
      </trkpt>
      <trkpt lat="46.78171" lon="6.28133">
        <ele>894.1</ele>
        <time>2019-04-14T08:54:57Z</time>
      </trkpt>
      <trkpt lat="46.78178" lon="6.28144">
        <ele>894.5</ele>
        <time>2019-04-14T08:55:05Z</time>
      </trkpt>
      <trkpt lat="46.78185" lon="6.28154">
        <ele>894.3</ele>
        <time>2019-04-14T08:55:13Z</time>
      </trkpt>
      <trkpt lat="46.78192" lon="6.28163">
        <ele>894.3</ele>
        <time>2019-04-14T08:55:21Z</time>
      </trkpt>
      <trkpt lat="46.78199" lon="6.28173">
        <ele>894.7</ele>
        <time>2019-04-14T08:55:28Z</time>
      </trkpt>
      <trkpt lat="46.78205" lon="6.28184">
        <ele>894.3</ele>
        <time>2019-04-14T08:55:36Z</time>
      </trkpt>
      <trkpt lat="46.78211" lon="6.28194">
        <ele>894.2</ele>
        <time>2019-04-14T08:55:44Z</time>
      </trkpt>
      <trkpt lat="46.78217" lon="6.28205">
        <ele>894.3</ele>
        <time>2019-04-14T08:55:52Z</time>
      </trkpt>
      <trkpt lat="46.78223" lon="6.28215">
        <ele>893.6</ele>
        <time>2019-04-14T08:56:01Z</time>
      </trkpt>
      <trkpt lat="46.78229" lon="6.28226">
        <ele>893.4</ele>
        <time>2019-04-14T08:56:09Z</time>
      </trkpt>
      <trkpt lat="46.78236" lon="6.28236">
        <ele>893.3</ele>
        <time>2019-04-14T08:56:18Z</time>
      </trkpt>
      <trkpt lat="46.78242" lon="6.28246">
        <ele>893</ele>
        <time>2019-04-14T08:56:26Z</time>
      </trkpt>
      <trkpt lat="46.78248" lon="6.28256">
        <ele>893.1</ele>
        <time>2019-04-14T08:56:33Z</time>
      </trkpt>
      <trkpt lat="46.78255" lon="6.28267">
        <ele>893.3</ele>
        <time>2019-04-14T08:56:41Z</time>
      </trkpt>
      <trkpt lat="46.78262" lon="6.28277">
        <ele>893.6</ele>
        <time>2019-04-14T08:56:49Z</time>
      </trkpt>
      <trkpt lat="46.78269" lon="6.28286">
        <ele>893.5</ele>
        <time>2019-04-14T08:56:58Z</time>
      </trkpt>
      <trkpt lat="46.78275" lon="6.28296">
        <ele>893.2</ele>
        <time>2019-04-14T08:57:07Z</time>
      </trkpt>
      <trkpt lat="46.78282" lon="6.28305">
        <ele>893.3</ele>
        <time>2019-04-14T08:57:15Z</time>
      </trkpt>
      <trkpt lat="46.7829" lon="6.28313">
        <ele>893.4</ele>
        <time>2019-04-14T08:57:23Z</time>
      </trkpt>
      <trkpt lat="46.78297" lon="6.28322">
        <ele>893.5</ele>
        <time>2019-04-14T08:57:31Z</time>
      </trkpt>
      <trkpt lat="46.78304" lon="6.28331">
        <ele>893.4</ele>
        <time>2019-04-14T08:57:40Z</time>
      </trkpt>
      <trkpt lat="46.78312" lon="6.2834">
        <ele>893.6</ele>
        <time>2019-04-14T08:57:52Z</time>
      </trkpt>
      <trkpt lat="46.78321" lon="6.28338">
        <ele>893.3</ele>
        <time>2019-04-14T08:57:58Z</time>
      </trkpt>
      <trkpt lat="46.78331" lon="6.28336">
        <ele>893.4</ele>
        <time>2019-04-14T08:58:06Z</time>
      </trkpt>
      <trkpt lat="46.7834" lon="6.28339">
        <ele>892.4</ele>
        <time>2019-04-14T08:58:14Z</time>
      </trkpt>
      <trkpt lat="46.78348" lon="6.28345">
        <ele>892.7</ele>
        <time>2019-04-14T08:58:23Z</time>
      </trkpt>
      <trkpt lat="46.78356" lon="6.28352">
        <ele>891.8</ele>
        <time>2019-04-14T08:58:31Z</time>
      </trkpt>
      <trkpt lat="46.78365" lon="6.28356">
        <ele>891.4</ele>
        <time>2019-04-14T08:58:39Z</time>
      </trkpt>
      <trkpt lat="46.78374" lon="6.28359">
        <ele>890.8</ele>
        <time>2019-04-14T08:58:47Z</time>
      </trkpt>
      <trkpt lat="46.78384" lon="6.28357">
        <ele>890.5</ele>
        <time>2019-04-14T08:58:54Z</time>
      </trkpt>
      <trkpt lat="46.78393" lon="6.28352">
        <ele>889.3</ele>
        <time>2019-04-14T08:59:01Z</time>
      </trkpt>
      <trkpt lat="46.78401" lon="6.28359">
        <ele>888.9</ele>
        <time>2019-04-14T08:59:12Z</time>
      </trkpt>
      <trkpt lat="46.78408" lon="6.28367">
        <ele>888.4</ele>
        <time>2019-04-14T08:59:34Z</time>
      </trkpt>
      <trkpt lat="46.78418" lon="6.28364">
        <ele>888</ele>
        <time>2019-04-14T08:59:45Z</time>
      </trkpt>
      <trkpt lat="46.78426" lon="6.28359">
        <ele>887.5</ele>
        <time>2019-04-14T08:59:52Z</time>
      </trkpt>
      <trkpt lat="46.78434" lon="6.28352">
        <ele>887.3</ele>
        <time>2019-04-14T09:00:02Z</time>
      </trkpt>
      <trkpt lat="46.78442" lon="6.28344">
        <ele>887.4</ele>
        <time>2019-04-14T09:00:11Z</time>
      </trkpt>
      <trkpt lat="46.78449" lon="6.28336">
        <ele>886.8</ele>
        <time>2019-04-14T09:00:18Z</time>
      </trkpt>
      <trkpt lat="46.78456" lon="6.28326">
        <ele>886.6</ele>
        <time>2019-04-14T09:00:24Z</time>
      </trkpt>
      <trkpt lat="46.78464" lon="6.28318">
        <ele>886.6</ele>
        <time>2019-04-14T09:00:33Z</time>
      </trkpt>
      <trkpt lat="46.78471" lon="6.28309">
        <ele>885.8</ele>
        <time>2019-04-14T09:00:41Z</time>
      </trkpt>
      <trkpt lat="46.78478" lon="6.28299">
        <ele>885.5</ele>
        <time>2019-04-14T09:00:50Z</time>
      </trkpt>
      <trkpt lat="46.78486" lon="6.28289">
        <ele>885.3</ele>
        <time>2019-04-14T09:00:58Z</time>
      </trkpt>
      <trkpt lat="46.78493" lon="6.2828">
        <ele>885.7</ele>
        <time>2019-04-14T09:01:08Z</time>
      </trkpt>
      <trkpt lat="46.785" lon="6.28271">
        <ele>885.3</ele>
        <time>2019-04-14T09:01:17Z</time>
      </trkpt>
      <trkpt lat="46.78507" lon="6.28261">
        <ele>885.2</ele>
        <time>2019-04-14T09:01:26Z</time>
      </trkpt>
      <trkpt lat="46.78515" lon="6.28253">
        <ele>885.1</ele>
        <time>2019-04-14T09:01:34Z</time>
      </trkpt>
      <trkpt lat="46.78523" lon="6.28244">
        <ele>885.1</ele>
        <time>2019-04-14T09:01:42Z</time>
      </trkpt>
      <trkpt lat="46.7853" lon="6.28235">
        <ele>884.8</ele>
        <time>2019-04-14T09:01:50Z</time>
      </trkpt>
      <trkpt lat="46.78536" lon="6.28224">
        <ele>884.8</ele>
        <time>2019-04-14T09:01:58Z</time>
      </trkpt>
      <trkpt lat="46.78544" lon="6.28216">
        <ele>885</ele>
        <time>2019-04-14T09:02:06Z</time>
      </trkpt>
      <trkpt lat="46.78551" lon="6.28206">
        <ele>885.2</ele>
        <time>2019-04-14T09:02:14Z</time>
      </trkpt>
      <trkpt lat="46.78558" lon="6.28196">
        <ele>885</ele>
        <time>2019-04-14T09:02:23Z</time>
      </trkpt>
      <trkpt lat="46.78565" lon="6.28187">
        <ele>884.2</ele>
        <time>2019-04-14T09:02:31Z</time>
      </trkpt>
      <trkpt lat="46.78571" lon="6.28177">
        <ele>883.8</ele>
        <time>2019-04-14T09:02:39Z</time>
      </trkpt>
      <trkpt lat="46.78579" lon="6.2817">
        <ele>883.8</ele>
        <time>2019-04-14T09:02:46Z</time>
      </trkpt>
      <trkpt lat="46.78586" lon="6.28162">
        <ele>883.6</ele>
        <time>2019-04-14T09:02:54Z</time>
      </trkpt>
      <trkpt lat="46.78593" lon="6.28152">
        <ele>883.7</ele>
        <time>2019-04-14T09:03:03Z</time>
      </trkpt>
      <trkpt lat="46.786" lon="6.28144">
        <ele>884</ele>
        <time>2019-04-14T09:03:13Z</time>
      </trkpt>
      <trkpt lat="46.78606" lon="6.28133">
        <ele>883.6</ele>
        <time>2019-04-14T09:03:20Z</time>
      </trkpt>
      <trkpt lat="46.78613" lon="6.28122">
        <ele>883.6</ele>
        <time>2019-04-14T09:03:27Z</time>
      </trkpt>
      <trkpt lat="46.7862" lon="6.2811">
        <ele>883.6</ele>
        <time>2019-04-14T09:03:34Z</time>
      </trkpt>
      <trkpt lat="46.78627" lon="6.28103">
        <ele>883.4</ele>
        <time>2019-04-14T09:03:41Z</time>
      </trkpt>
      <trkpt lat="46.78633" lon="6.28091">
        <ele>883.4</ele>
        <time>2019-04-14T09:03:51Z</time>
      </trkpt>
      <trkpt lat="46.78639" lon="6.28081">
        <ele>883.6</ele>
        <time>2019-04-14T09:03:59Z</time>
      </trkpt>
      <trkpt lat="46.78647" lon="6.2807">
        <ele>883.8</ele>
        <time>2019-04-14T09:04:10Z</time>
      </trkpt>
      <trkpt lat="46.78653" lon="6.2806">
        <ele>883.9</ele>
        <time>2019-04-14T09:04:17Z</time>
      </trkpt>
      <trkpt lat="46.78658" lon="6.28047">
        <ele>883.7</ele>
        <time>2019-04-14T09:04:27Z</time>
      </trkpt>
      <trkpt lat="46.78662" lon="6.28033">
        <ele>884.1</ele>
        <time>2019-04-14T09:04:34Z</time>
      </trkpt>
      <trkpt lat="46.78664" lon="6.28019">
        <ele>884.1</ele>
        <time>2019-04-14T09:04:42Z</time>
      </trkpt>
      <trkpt lat="46.78667" lon="6.28005">
        <ele>884.1</ele>
        <time>2019-04-14T09:04:51Z</time>
      </trkpt>
      <trkpt lat="46.78672" lon="6.27994">
        <ele>884.8</ele>
        <time>2019-04-14T09:05:01Z</time>
      </trkpt>
      <trkpt lat="46.78677" lon="6.27981">
        <ele>884.5</ele>
        <time>2019-04-14T09:05:10Z</time>
      </trkpt>
      <trkpt lat="46.78682" lon="6.2797">
        <ele>884.7</ele>
        <time>2019-04-14T09:05:18Z</time>
      </trkpt>
      <trkpt lat="46.78689" lon="6.2796">
        <ele>884.8</ele>
        <time>2019-04-14T09:05:27Z</time>
      </trkpt>
      <trkpt lat="46.78696" lon="6.27951">
        <ele>884.6</ele>
        <time>2019-04-14T09:05:35Z</time>
      </trkpt>
      <trkpt lat="46.78692" lon="6.27938">
        <ele>884.6</ele>
        <time>2019-04-14T09:06:04Z</time>
      </trkpt>
      <trkpt lat="46.78701" lon="6.27942">
        <ele>883.9</ele>
        <time>2019-04-14T09:07:11Z</time>
      </trkpt>
      <trkpt lat="46.78709" lon="6.27934">
        <ele>880.9</ele>
        <time>2019-04-14T09:15:02Z</time>
      </trkpt>
      <trkpt lat="46.78716" lon="6.27925">
        <ele>881.2</ele>
        <time>2019-04-14T09:15:10Z</time>
      </trkpt>
      <trkpt lat="46.78723" lon="6.27916">
        <ele>880.8</ele>
        <time>2019-04-14T09:15:20Z</time>
      </trkpt>
      <trkpt lat="46.7873" lon="6.27906">
        <ele>880.4</ele>
        <time>2019-04-14T09:15:29Z</time>
      </trkpt>
      <trkpt lat="46.78738" lon="6.27898">
        <ele>879.8</ele>
        <time>2019-04-14T09:15:40Z</time>
      </trkpt>
      <trkpt lat="46.78744" lon="6.27888">
        <ele>880.4</ele>
        <time>2019-04-14T09:15:50Z</time>
      </trkpt>
      <trkpt lat="46.78751" lon="6.27878">
        <ele>880.1</ele>
        <time>2019-04-14T09:16:01Z</time>
      </trkpt>
      <trkpt lat="46.78759" lon="6.27871">
        <ele>879.8</ele>
        <time>2019-04-14T09:16:09Z</time>
      </trkpt>
      <trkpt lat="46.78767" lon="6.27865">
        <ele>879.7</ele>
        <time>2019-04-14T09:16:16Z</time>
      </trkpt>
      <trkpt lat="46.78774" lon="6.27855">
        <ele>879.4</ele>
        <time>2019-04-14T09:16:24Z</time>
      </trkpt>
      <trkpt lat="46.7878" lon="6.27846">
        <ele>879.7</ele>
        <time>2019-04-14T09:16:33Z</time>
      </trkpt>
      <trkpt lat="46.78787" lon="6.27837">
        <ele>880.4</ele>
        <time>2019-04-14T09:16:41Z</time>
      </trkpt>
      <trkpt lat="46.78794" lon="6.27828">
        <ele>879.7</ele>
        <time>2019-04-14T09:16:48Z</time>
      </trkpt>
      <trkpt lat="46.78801" lon="6.27819">
        <ele>879.6</ele>
        <time>2019-04-14T09:16:55Z</time>
      </trkpt>
      <trkpt lat="46.78805" lon="6.27806">
        <ele>880.6</ele>
        <time>2019-04-14T09:17:10Z</time>
      </trkpt>
      <trkpt lat="46.78808" lon="6.27792">
        <ele>880.6</ele>
        <time>2019-04-14T09:17:22Z</time>
      </trkpt>
      <trkpt lat="46.7881" lon="6.27778">
        <ele>880.9</ele>
        <time>2019-04-14T09:17:30Z</time>
      </trkpt>
      <trkpt lat="46.78815" lon="6.27766">
        <ele>880.6</ele>
        <time>2019-04-14T09:17:38Z</time>
      </trkpt>
      <trkpt lat="46.78822" lon="6.27756">
        <ele>880.6</ele>
        <time>2019-04-14T09:17:50Z</time>
      </trkpt>
      <trkpt lat="46.78826" lon="6.27743">
        <ele>880.3</ele>
        <time>2019-04-14T09:17:58Z</time>
      </trkpt>
      <trkpt lat="46.7883" lon="6.27731">
        <ele>880.3</ele>
        <time>2019-04-14T09:18:03Z</time>
      </trkpt>
      <trkpt lat="46.78834" lon="6.27717">
        <ele>880.4</ele>
        <time>2019-04-14T09:18:11Z</time>
      </trkpt>
      <trkpt lat="46.78838" lon="6.27705">
        <ele>880.5</ele>
        <time>2019-04-14T09:18:19Z</time>
      </trkpt>
      <trkpt lat="46.78839" lon="6.2769">
        <ele>880.3</ele>
        <time>2019-04-14T09:18:27Z</time>
      </trkpt>
      <trkpt lat="46.78837" lon="6.27676">
        <ele>881</ele>
        <time>2019-04-14T09:18:33Z</time>
      </trkpt>
      <trkpt lat="46.78838" lon="6.27663">
        <ele>881</ele>
        <time>2019-04-14T09:18:40Z</time>
      </trkpt>
      <trkpt lat="46.78839" lon="6.27648">
        <ele>881.1</ele>
        <time>2019-04-14T09:18:49Z</time>
      </trkpt>
      <trkpt lat="46.78839" lon="6.27634">
        <ele>880.8</ele>
        <time>2019-04-14T09:18:57Z</time>
      </trkpt>
      <trkpt lat="46.78839" lon="6.2762">
        <ele>880.9</ele>
        <time>2019-04-14T09:19:05Z</time>
      </trkpt>
      <trkpt lat="46.78839" lon="6.27607">
        <ele>880</ele>
        <time>2019-04-14T09:19:12Z</time>
      </trkpt>
      <trkpt lat="46.78839" lon="6.27592">
        <ele>879.8</ele>
        <time>2019-04-14T09:19:20Z</time>
      </trkpt>
      <trkpt lat="46.78839" lon="6.27577">
        <ele>880</ele>
        <time>2019-04-14T09:19:28Z</time>
      </trkpt>
      <trkpt lat="46.7884" lon="6.27563">
        <ele>879.6</ele>
        <time>2019-04-14T09:19:35Z</time>
      </trkpt>
      <trkpt lat="46.78841" lon="6.2755">
        <ele>879.7</ele>
        <time>2019-04-14T09:19:42Z</time>
      </trkpt>
      <trkpt lat="46.7884" lon="6.27535">
        <ele>879.7</ele>
        <time>2019-04-14T09:19:50Z</time>
      </trkpt>
      <trkpt lat="46.7884" lon="6.27514">
        <ele>878.9</ele>
        <time>2019-04-14T09:23:02Z</time>
      </trkpt>
      <trkpt lat="46.78833" lon="6.27505">
        <ele>879.2</ele>
        <time>2019-04-14T09:23:24Z</time>
      </trkpt>
      <trkpt lat="46.78829" lon="6.27492">
        <ele>879.5</ele>
        <time>2019-04-14T09:23:34Z</time>
      </trkpt>
      <trkpt lat="46.7883" lon="6.27479">
        <ele>879.9</ele>
        <time>2019-04-14T09:23:45Z</time>
      </trkpt>
      <trkpt lat="46.78834" lon="6.27465">
        <ele>881.4</ele>
        <time>2019-04-14T09:25:21Z</time>
      </trkpt>
      <trkpt lat="46.78839" lon="6.27453">
        <ele>882.1</ele>
        <time>2019-04-14T09:25:43Z</time>
      </trkpt>
      <trkpt lat="46.78843" lon="6.2744">
        <ele>882.4</ele>
        <time>2019-04-14T09:26:11Z</time>
      </trkpt>
      <trkpt lat="46.78848" lon="6.27428">
        <ele>882.3</ele>
        <time>2019-04-14T09:26:32Z</time>
      </trkpt>
      <trkpt lat="46.7885" lon="6.27413">
        <ele>882.6</ele>
        <time>2019-04-14T09:28:23Z</time>
      </trkpt>
      <trkpt lat="46.78857" lon="6.27405">
        <ele>882.8</ele>
        <time>2019-04-14T09:28:35Z</time>
      </trkpt>
      <trkpt lat="46.7886" lon="6.27392">
        <ele>882.5</ele>
        <time>2019-04-14T09:28:52Z</time>
      </trkpt>
      <trkpt lat="46.78861" lon="6.27379">
        <ele>883</ele>
        <time>2019-04-14T09:32:43Z</time>
      </trkpt>
      <trkpt lat="46.78865" lon="6.27366">
        <ele>883</ele>
        <time>2019-04-14T09:32:59Z</time>
      </trkpt>
      <trkpt lat="46.78869" lon="6.27338">
        <ele>882</ele>
        <time>2019-04-14T09:34:19Z</time>
      </trkpt>
      <trkpt lat="46.78861" lon="6.2733">
        <ele>882.9</ele>
        <time>2019-04-14T09:42:22Z</time>
      </trkpt>
      <trkpt lat="46.78855" lon="6.2732">
        <ele>882.9</ele>
        <time>2019-04-14T09:42:30Z</time>
      </trkpt>
      <trkpt lat="46.7885" lon="6.27331">
        <ele>882.4</ele>
        <time>2019-04-14T09:43:46Z</time>
      </trkpt>
      <trkpt lat="46.78847" lon="6.27344">
        <ele>883</ele>
        <time>2019-04-14T09:44:00Z</time>
      </trkpt>
      <trkpt lat="46.78846" lon="6.27358">
        <ele>882.9</ele>
        <time>2019-04-14T09:44:11Z</time>
      </trkpt>
      <trkpt lat="46.78845" lon="6.27373">
        <ele>882.8</ele>
        <time>2019-04-14T09:44:19Z</time>
      </trkpt>
      <trkpt lat="46.78841" lon="6.27386">
        <ele>882.5</ele>
        <time>2019-04-14T09:44:27Z</time>
      </trkpt>
      <trkpt lat="46.78848" lon="6.27396">
        <ele>881.7</ele>
        <time>2019-04-14T09:46:07Z</time>
      </trkpt>
      <trkpt lat="46.78853" lon="6.27408">
        <ele>881.5</ele>
        <time>2019-04-14T09:46:32Z</time>
      </trkpt>
      <trkpt lat="46.78843" lon="6.27412">
        <ele>881.4</ele>
        <time>2019-04-14T09:46:36Z</time>
      </trkpt>
      <trkpt lat="46.78839" lon="6.27424">
        <ele>881.2</ele>
        <time>2019-04-14T09:46:50Z</time>
      </trkpt>
      <trkpt lat="46.78831" lon="6.27432">
        <ele>881.1</ele>
        <time>2019-04-14T09:46:59Z</time>
      </trkpt>
      <trkpt lat="46.78823" lon="6.27438">
        <ele>880.8</ele>
        <time>2019-04-14T09:47:43Z</time>
      </trkpt>
      <trkpt lat="46.78821" lon="6.27455">
        <ele>880.8</ele>
        <time>2019-04-14T09:49:22Z</time>
      </trkpt>
      <trkpt lat="46.7881" lon="6.27456">
        <ele>880.4</ele>
        <time>2019-04-14T09:50:31Z</time>
      </trkpt>
      <trkpt lat="46.78819" lon="6.27459">
        <ele>880.3</ele>
        <time>2019-04-14T09:50:49Z</time>
      </trkpt>
      <trkpt lat="46.78828" lon="6.27461">
        <ele>880.1</ele>
        <time>2019-04-14T09:50:56Z</time>
      </trkpt>
      <trkpt lat="46.78837" lon="6.27468">
        <ele>879.5</ele>
        <time>2019-04-14T09:51:07Z</time>
      </trkpt>
      <trkpt lat="46.78845" lon="6.27476">
        <ele>878.8</ele>
        <time>2019-04-14T09:51:27Z</time>
      </trkpt>
      <trkpt lat="46.78844" lon="6.27489">
        <ele>878.4</ele>
        <time>2019-04-14T09:51:44Z</time>
      </trkpt>
      <trkpt lat="46.78836" lon="6.27497">
        <ele>878</ele>
        <time>2019-04-14T09:52:27Z</time>
      </trkpt>
      <trkpt lat="46.7883" lon="6.27508">
        <ele>878.1</ele>
        <time>2019-04-14T09:52:43Z</time>
      </trkpt>
      <trkpt lat="46.78835" lon="6.27525">
        <ele>875</ele>
        <time>2019-04-14T10:30:15Z</time>
      </trkpt>
      <trkpt lat="46.78828" lon="6.27516">
        <ele>876.1</ele>
        <time>2019-04-14T10:30:28Z</time>
      </trkpt>
      <trkpt lat="46.78821" lon="6.27506">
        <ele>878</ele>
        <time>2019-04-14T10:30:37Z</time>
      </trkpt>
      <trkpt lat="46.7882" lon="6.27493">
        <ele>878.6</ele>
        <time>2019-04-14T10:30:45Z</time>
      </trkpt>
      <trkpt lat="46.78826" lon="6.27482">
        <ele>879.1</ele>
        <time>2019-04-14T10:30:56Z</time>
      </trkpt>
      <trkpt lat="46.78831" lon="6.2747">
        <ele>880.3</ele>
        <time>2019-04-14T10:31:12Z</time>
      </trkpt>
      <trkpt lat="46.78832" lon="6.27457">
        <ele>880.8</ele>
        <time>2019-04-14T10:31:26Z</time>
      </trkpt>
      <trkpt lat="46.78839" lon="6.27448">
        <ele>881.5</ele>
        <time>2019-04-14T10:31:36Z</time>
      </trkpt>
      <trkpt lat="46.78845" lon="6.27439">
        <ele>882</ele>
        <time>2019-04-14T10:31:48Z</time>
      </trkpt>
      <trkpt lat="46.78849" lon="6.27426">
        <ele>882.2</ele>
        <time>2019-04-14T10:31:56Z</time>
      </trkpt>
      <trkpt lat="46.78854" lon="6.27412">
        <ele>882.3</ele>
        <time>2019-04-14T10:32:02Z</time>
      </trkpt>
      <trkpt lat="46.78859" lon="6.27398">
        <ele>882.2</ele>
        <time>2019-04-14T10:32:10Z</time>
      </trkpt>
      <trkpt lat="46.7886" lon="6.27384">
        <ele>882</ele>
        <time>2019-04-14T10:32:19Z</time>
      </trkpt>
      <trkpt lat="46.78865" lon="6.27372">
        <ele>882.4</ele>
        <time>2019-04-14T10:32:29Z</time>
      </trkpt>
      <trkpt lat="46.7887" lon="6.27359">
        <ele>882.6</ele>
        <time>2019-04-14T10:32:54Z</time>
      </trkpt>
      <trkpt lat="46.78878" lon="6.27353">
        <ele>882.7</ele>
        <time>2019-04-14T10:33:03Z</time>
      </trkpt>
      <trkpt lat="46.78887" lon="6.27349">
        <ele>882.9</ele>
        <time>2019-04-14T10:33:12Z</time>
      </trkpt>
      <trkpt lat="46.78896" lon="6.27346">
        <ele>883</ele>
        <time>2019-04-14T10:33:22Z</time>
      </trkpt>
      <trkpt lat="46.78905" lon="6.2734">
        <ele>882.6</ele>
        <time>2019-04-14T10:33:30Z</time>
      </trkpt>
      <trkpt lat="46.78913" lon="6.27331">
        <ele>882.5</ele>
        <time>2019-04-14T10:33:40Z</time>
      </trkpt>
      <trkpt lat="46.78922" lon="6.27324">
        <ele>882.7</ele>
        <time>2019-04-14T10:33:49Z</time>
      </trkpt>
      <trkpt lat="46.7893" lon="6.27317">
        <ele>882.8</ele>
        <time>2019-04-14T10:33:57Z</time>
      </trkpt>
      <trkpt lat="46.78938" lon="6.27311">
        <ele>882.9</ele>
        <time>2019-04-14T10:34:06Z</time>
      </trkpt>
      <trkpt lat="46.78947" lon="6.2731">
        <ele>883.5</ele>
        <time>2019-04-14T10:34:16Z</time>
      </trkpt>
      <trkpt lat="46.78955" lon="6.27304">
        <ele>883.9</ele>
        <time>2019-04-14T10:34:26Z</time>
      </trkpt>
      <trkpt lat="46.78963" lon="6.27296">
        <ele>884.2</ele>
        <time>2019-04-14T10:34:37Z</time>
      </trkpt>
      <trkpt lat="46.7897" lon="6.27285">
        <ele>884.4</ele>
        <time>2019-04-14T10:34:44Z</time>
      </trkpt>
      <trkpt lat="46.78977" lon="6.27276">
        <ele>884.7</ele>
        <time>2019-04-14T10:34:49Z</time>
      </trkpt>
      <trkpt lat="46.78983" lon="6.27265">
        <ele>885.7</ele>
        <time>2019-04-14T10:34:57Z</time>
      </trkpt>
      <trkpt lat="46.78989" lon="6.27255">
        <ele>885.5</ele>
        <time>2019-04-14T10:35:07Z</time>
      </trkpt>
      <trkpt lat="46.78997" lon="6.27247">
        <ele>885.7</ele>
        <time>2019-04-14T10:35:16Z</time>
      </trkpt>
      <trkpt lat="46.79003" lon="6.27235">
        <ele>885.4</ele>
        <time>2019-04-14T10:35:24Z</time>
      </trkpt>
      <trkpt lat="46.7901" lon="6.27225">
        <ele>885.6</ele>
        <time>2019-04-14T10:35:31Z</time>
      </trkpt>
      <trkpt lat="46.79013" lon="6.27212">
        <ele>885.3</ele>
        <time>2019-04-14T10:35:39Z</time>
      </trkpt>
      <trkpt lat="46.79014" lon="6.27197">
        <ele>885.1</ele>
        <time>2019-04-14T10:35:56Z</time>
      </trkpt>
      <trkpt lat="46.79012" lon="6.27184">
        <ele>884.8</ele>
        <time>2019-04-14T10:36:04Z</time>
      </trkpt>
      <trkpt lat="46.79011" lon="6.27171">
        <ele>885.2</ele>
        <time>2019-04-14T10:36:13Z</time>
      </trkpt>
      <trkpt lat="46.7901" lon="6.27157">
        <ele>885.2</ele>
        <time>2019-04-14T10:36:21Z</time>
      </trkpt>
      <trkpt lat="46.79012" lon="6.27144">
        <ele>884.9</ele>
        <time>2019-04-14T10:36:29Z</time>
      </trkpt>
      <trkpt lat="46.79018" lon="6.27132">
        <ele>885</ele>
        <time>2019-04-14T10:36:39Z</time>
      </trkpt>
      <trkpt lat="46.79022" lon="6.2712">
        <ele>884.8</ele>
        <time>2019-04-14T10:36:52Z</time>
      </trkpt>
      <trkpt lat="46.7903" lon="6.27111">
        <ele>885</ele>
        <time>2019-04-14T10:37:02Z</time>
      </trkpt>
      <trkpt lat="46.79038" lon="6.27104">
        <ele>885.2</ele>
        <time>2019-04-14T10:37:10Z</time>
      </trkpt>
      <trkpt lat="46.79045" lon="6.27093">
        <ele>885.8</ele>
        <time>2019-04-14T10:37:18Z</time>
      </trkpt>
      <trkpt lat="46.79051" lon="6.27084">
        <ele>886</ele>
        <time>2019-04-14T10:37:24Z</time>
      </trkpt>
      <trkpt lat="46.79057" lon="6.27072">
        <ele>886.1</ele>
        <time>2019-04-14T10:37:32Z</time>
      </trkpt>
      <trkpt lat="46.79058" lon="6.27058">
        <ele>886.1</ele>
        <time>2019-04-14T10:37:40Z</time>
      </trkpt>
      <trkpt lat="46.79058" lon="6.27045">
        <ele>886.6</ele>
        <time>2019-04-14T10:37:49Z</time>
      </trkpt>
      <trkpt lat="46.79059" lon="6.2703">
        <ele>887</ele>
        <time>2019-04-14T10:38:00Z</time>
      </trkpt>
      <trkpt lat="46.79059" lon="6.27016">
        <ele>887.3</ele>
        <time>2019-04-14T10:38:08Z</time>
      </trkpt>
      <trkpt lat="46.79055" lon="6.27003">
        <ele>887.8</ele>
        <time>2019-04-14T10:38:16Z</time>
      </trkpt>
      <trkpt lat="46.79049" lon="6.26991">
        <ele>888.2</ele>
        <time>2019-04-14T10:38:24Z</time>
      </trkpt>
      <trkpt lat="46.79042" lon="6.26982">
        <ele>888.5</ele>
        <time>2019-04-14T10:38:30Z</time>
      </trkpt>
      <trkpt lat="46.79034" lon="6.26975">
        <ele>888.7</ele>
        <time>2019-04-14T10:38:38Z</time>
      </trkpt>
      <trkpt lat="46.79026" lon="6.26969">
        <ele>889.4</ele>
        <time>2019-04-14T10:38:46Z</time>
      </trkpt>
      <trkpt lat="46.79018" lon="6.26962">
        <ele>890.3</ele>
        <time>2019-04-14T10:38:55Z</time>
      </trkpt>
      <trkpt lat="46.79009" lon="6.26956">
        <ele>891.1</ele>
        <time>2019-04-14T10:39:04Z</time>
      </trkpt>
      <trkpt lat="46.79" lon="6.2695">
        <ele>893.2</ele>
        <time>2019-04-14T10:40:01Z</time>
      </trkpt>
      <trkpt lat="46.78999" lon="6.26936">
        <ele>893.5</ele>
        <time>2019-04-14T10:40:10Z</time>
      </trkpt>
      <trkpt lat="46.78995" lon="6.26923">
        <ele>894.1</ele>
        <time>2019-04-14T10:40:19Z</time>
      </trkpt>
      <trkpt lat="46.78988" lon="6.26915">
        <ele>894.4</ele>
        <time>2019-04-14T10:40:28Z</time>
      </trkpt>
      <trkpt lat="46.78978" lon="6.26911">
        <ele>895.3</ele>
        <time>2019-04-14T10:40:36Z</time>
      </trkpt>
      <trkpt lat="46.7897" lon="6.26916">
        <ele>895.7</ele>
        <time>2019-04-14T10:40:44Z</time>
      </trkpt>
      <trkpt lat="46.78966" lon="6.26928">
        <ele>896.7</ele>
        <time>2019-04-14T10:40:54Z</time>
      </trkpt>
      <trkpt lat="46.78963" lon="6.26941">
        <ele>897.7</ele>
        <time>2019-04-14T10:41:06Z</time>
      </trkpt>
      <trkpt lat="46.78964" lon="6.26954">
        <ele>898.6</ele>
        <time>2019-04-14T10:41:17Z</time>
      </trkpt>
      <trkpt lat="46.78969" lon="6.26966">
        <ele>898.6</ele>
        <time>2019-04-14T10:41:27Z</time>
      </trkpt>
      <trkpt lat="46.7897" lon="6.26979">
        <ele>899.2</ele>
        <time>2019-04-14T10:41:36Z</time>
      </trkpt>
      <trkpt lat="46.78971" lon="6.26992">
        <ele>899.9</ele>
        <time>2019-04-14T10:41:47Z</time>
      </trkpt>
      <trkpt lat="46.78972" lon="6.27007">
        <ele>900.3</ele>
        <time>2019-04-14T10:41:56Z</time>
      </trkpt>
      <trkpt lat="46.78972" lon="6.2702">
        <ele>900.5</ele>
        <time>2019-04-14T10:42:04Z</time>
      </trkpt>
      <trkpt lat="46.78969" lon="6.27033">
        <ele>900.5</ele>
        <time>2019-04-14T10:42:12Z</time>
      </trkpt>
      <trkpt lat="46.78966" lon="6.27046">
        <ele>900.5</ele>
        <time>2019-04-14T10:42:19Z</time>
      </trkpt>
      <trkpt lat="46.78962" lon="6.27059">
        <ele>900.2</ele>
        <time>2019-04-14T10:42:29Z</time>
      </trkpt>
      <trkpt lat="46.78958" lon="6.27071">
        <ele>900.5</ele>
        <time>2019-04-14T10:42:44Z</time>
      </trkpt>
      <trkpt lat="46.78951" lon="6.27081">
        <ele>900.9</ele>
        <time>2019-04-14T10:42:54Z</time>
      </trkpt>
      <trkpt lat="46.78945" lon="6.27093">
        <ele>900.9</ele>
        <time>2019-04-14T10:43:04Z</time>
      </trkpt>
      <trkpt lat="46.7894" lon="6.27104">
        <ele>900.6</ele>
        <time>2019-04-14T10:43:14Z</time>
      </trkpt>
      <trkpt lat="46.78933" lon="6.27114">
        <ele>901.4</ele>
        <time>2019-04-14T10:43:23Z</time>
      </trkpt>
      <trkpt lat="46.78925" lon="6.27122">
        <ele>901.6</ele>
        <time>2019-04-14T10:43:33Z</time>
      </trkpt>
      <trkpt lat="46.78907" lon="6.27134">
        <ele>902</ele>
        <time>2019-04-14T10:45:14Z</time>
      </trkpt>
      <trkpt lat="46.78897" lon="6.27136">
        <ele>902.5</ele>
        <time>2019-04-14T10:45:26Z</time>
      </trkpt>
      <trkpt lat="46.78888" lon="6.27133">
        <ele>902.9</ele>
        <time>2019-04-14T10:45:35Z</time>
      </trkpt>
      <trkpt lat="46.78879" lon="6.2713">
        <ele>904.2</ele>
        <time>2019-04-14T10:45:51Z</time>
      </trkpt>
      <trkpt lat="46.78872" lon="6.27121">
        <ele>905.2</ele>
        <time>2019-04-14T10:46:13Z</time>
      </trkpt>
      <trkpt lat="46.78864" lon="6.27114">
        <ele>906.5</ele>
        <time>2019-04-14T10:46:30Z</time>
      </trkpt>
      <trkpt lat="46.78855" lon="6.27112">
        <ele>907.1</ele>
        <time>2019-04-14T10:46:39Z</time>
      </trkpt>
      <trkpt lat="46.78846" lon="6.27105">
        <ele>907.4</ele>
        <time>2019-04-14T10:46:47Z</time>
      </trkpt>
      <trkpt lat="46.78837" lon="6.271">
        <ele>908</ele>
        <time>2019-04-14T10:46:57Z</time>
      </trkpt>
      <trkpt lat="46.78828" lon="6.27095">
        <ele>908.8</ele>
        <time>2019-04-14T10:47:07Z</time>
      </trkpt>
      <trkpt lat="46.78819" lon="6.27093">
        <ele>909.6</ele>
        <time>2019-04-14T10:47:18Z</time>
      </trkpt>
      <trkpt lat="46.7881" lon="6.27087">
        <ele>910.2</ele>
        <time>2019-04-14T10:47:31Z</time>
      </trkpt>
      <trkpt lat="46.78801" lon="6.27086">
        <ele>910.9</ele>
        <time>2019-04-14T10:47:42Z</time>
      </trkpt>
      <trkpt lat="46.78792" lon="6.27081">
        <ele>911.8</ele>
        <time>2019-04-14T10:47:55Z</time>
      </trkpt>
      <trkpt lat="46.78784" lon="6.27077">
        <ele>912.8</ele>
        <time>2019-04-14T10:48:06Z</time>
      </trkpt>
      <trkpt lat="46.78774" lon="6.27074">
        <ele>912.9</ele>
        <time>2019-04-14T10:48:13Z</time>
      </trkpt>
      <trkpt lat="46.78765" lon="6.27075">
        <ele>912.9</ele>
        <time>2019-04-14T10:48:17Z</time>
      </trkpt>
      <trkpt lat="46.78755" lon="6.27073">
        <ele>913.7</ele>
        <time>2019-04-14T10:48:26Z</time>
      </trkpt>
      <trkpt lat="46.78747" lon="6.27066">
        <ele>914.7</ele>
        <time>2019-04-14T10:48:37Z</time>
      </trkpt>
      <trkpt lat="46.78739" lon="6.27057">
        <ele>914.6</ele>
        <time>2019-04-14T10:48:48Z</time>
      </trkpt>
      <trkpt lat="46.78731" lon="6.27049">
        <ele>915.9</ele>
        <time>2019-04-14T10:49:01Z</time>
      </trkpt>
      <trkpt lat="46.78725" lon="6.2704">
        <ele>916.9</ele>
        <time>2019-04-14T10:49:13Z</time>
      </trkpt>
      <trkpt lat="46.78718" lon="6.27031">
        <ele>917.8</ele>
        <time>2019-04-14T10:49:25Z</time>
      </trkpt>
      <trkpt lat="46.7871" lon="6.27023">
        <ele>918.9</ele>
        <time>2019-04-14T10:49:37Z</time>
      </trkpt>
      <trkpt lat="46.78702" lon="6.27017">
        <ele>919.4</ele>
        <time>2019-04-14T10:49:46Z</time>
      </trkpt>
      <trkpt lat="46.78693" lon="6.27012">
        <ele>919.7</ele>
        <time>2019-04-14T10:49:56Z</time>
      </trkpt>
      <trkpt lat="46.78685" lon="6.27003">
        <ele>920.6</ele>
        <time>2019-04-14T10:50:06Z</time>
      </trkpt>
      <trkpt lat="46.78679" lon="6.26992">
        <ele>921.1</ele>
        <time>2019-04-14T10:50:15Z</time>
      </trkpt>
      <trkpt lat="46.78672" lon="6.26984">
        <ele>921.8</ele>
        <time>2019-04-14T10:50:26Z</time>
      </trkpt>
      <trkpt lat="46.78662" lon="6.2698">
        <ele>923.2</ele>
        <time>2019-04-14T10:50:35Z</time>
      </trkpt>
      <trkpt lat="46.78654" lon="6.26973">
        <ele>924</ele>
        <time>2019-04-14T10:50:46Z</time>
      </trkpt>
      <trkpt lat="46.78647" lon="6.26964">
        <ele>924.9</ele>
        <time>2019-04-14T10:50:56Z</time>
      </trkpt>
      <trkpt lat="46.7864" lon="6.26955">
        <ele>925</ele>
        <time>2019-04-14T10:51:02Z</time>
      </trkpt>
      <trkpt lat="46.78635" lon="6.26942">
        <ele>926.2</ele>
        <time>2019-04-14T10:51:13Z</time>
      </trkpt>
      <trkpt lat="46.78626" lon="6.26942">
        <ele>926.9</ele>
        <time>2019-04-14T10:51:22Z</time>
      </trkpt>
      <trkpt lat="46.78617" lon="6.26937">
        <ele>927.9</ele>
        <time>2019-04-14T10:51:31Z</time>
      </trkpt>
      <trkpt lat="46.78609" lon="6.2693">
        <ele>928.4</ele>
        <time>2019-04-14T10:51:39Z</time>
      </trkpt>
      <trkpt lat="46.786" lon="6.26926">
        <ele>929.1</ele>
        <time>2019-04-14T10:51:47Z</time>
      </trkpt>
      <trkpt lat="46.78593" lon="6.26917">
        <ele>930</ele>
        <time>2019-04-14T10:51:56Z</time>
      </trkpt>
      <trkpt lat="46.78585" lon="6.26908">
        <ele>930.4</ele>
        <time>2019-04-14T10:52:05Z</time>
      </trkpt>
      <trkpt lat="46.78577" lon="6.26901">
        <ele>931.5</ele>
        <time>2019-04-14T10:52:15Z</time>
      </trkpt>
      <trkpt lat="46.78569" lon="6.26893">
        <ele>931.8</ele>
        <time>2019-04-14T10:52:25Z</time>
      </trkpt>
      <trkpt lat="46.78562" lon="6.26883">
        <ele>932.9</ele>
        <time>2019-04-14T10:52:37Z</time>
      </trkpt>
      <trkpt lat="46.78559" lon="6.2687">
        <ele>933.8</ele>
        <time>2019-04-14T10:52:48Z</time>
      </trkpt>
      <trkpt lat="46.78552" lon="6.2686">
        <ele>934.3</ele>
        <time>2019-04-14T10:52:59Z</time>
      </trkpt>
      <trkpt lat="46.78542" lon="6.26858">
        <ele>934.7</ele>
        <time>2019-04-14T10:53:06Z</time>
      </trkpt>
      <trkpt lat="46.78533" lon="6.26853">
        <ele>934.3</ele>
        <time>2019-04-14T10:53:12Z</time>
      </trkpt>
      <trkpt lat="46.78523" lon="6.26856">
        <ele>934.6</ele>
        <time>2019-04-14T10:53:19Z</time>
      </trkpt>
      <trkpt lat="46.78513" lon="6.26857">
        <ele>934.5</ele>
        <time>2019-04-14T10:53:25Z</time>
      </trkpt>
      <trkpt lat="46.78504" lon="6.26851">
        <ele>934</ele>
        <time>2019-04-14T10:53:34Z</time>
      </trkpt>
      <trkpt lat="46.78495" lon="6.26848">
        <ele>934.1</ele>
        <time>2019-04-14T10:53:43Z</time>
      </trkpt>
      <trkpt lat="46.78486" lon="6.26843">
        <ele>933.6</ele>
        <time>2019-04-14T10:53:50Z</time>
      </trkpt>
      <trkpt lat="46.78477" lon="6.26844">
        <ele>933.2</ele>
        <time>2019-04-14T10:53:58Z</time>
      </trkpt>
      <trkpt lat="46.78466" lon="6.26839">
        <ele>932.8</ele>
        <time>2019-04-14T10:54:07Z</time>
      </trkpt>
      <trkpt lat="46.78459" lon="6.26831">
        <ele>932.8</ele>
        <time>2019-04-14T10:54:16Z</time>
      </trkpt>
      <trkpt lat="46.78451" lon="6.26818">
        <ele>932.5</ele>
        <time>2019-04-14T10:54:24Z</time>
      </trkpt>
      <trkpt lat="46.78443" lon="6.26813">
        <ele>932</ele>
        <time>2019-04-14T10:54:30Z</time>
      </trkpt>
      <trkpt lat="46.78435" lon="6.26805">
        <ele>931.1</ele>
        <time>2019-04-14T10:54:40Z</time>
      </trkpt>
      <trkpt lat="46.78425" lon="6.26801">
        <ele>930.6</ele>
        <time>2019-04-14T10:54:49Z</time>
      </trkpt>
      <trkpt lat="46.78419" lon="6.2679">
        <ele>930.4</ele>
        <time>2019-04-14T10:54:57Z</time>
      </trkpt>
      <trkpt lat="46.78414" lon="6.26778">
        <ele>929.9</ele>
        <time>2019-04-14T10:55:03Z</time>
      </trkpt>
      <trkpt lat="46.7841" lon="6.26764">
        <ele>929.6</ele>
        <time>2019-04-14T10:55:08Z</time>
      </trkpt>
      <trkpt lat="46.78406" lon="6.26749">
        <ele>929.9</ele>
        <time>2019-04-14T10:55:33Z</time>
      </trkpt>
      <trkpt lat="46.78397" lon="6.26747">
        <ele>929.8</ele>
        <time>2019-04-14T10:55:44Z</time>
      </trkpt>
      <trkpt lat="46.78387" lon="6.26748">
        <ele>928.9</ele>
        <time>2019-04-14T10:55:54Z</time>
      </trkpt>
      <trkpt lat="46.78378" lon="6.26743">
        <ele>929.2</ele>
        <time>2019-04-14T10:56:03Z</time>
      </trkpt>
      <trkpt lat="46.7837" lon="6.26736">
        <ele>929.1</ele>
        <time>2019-04-14T10:56:11Z</time>
      </trkpt>
      <trkpt lat="46.78361" lon="6.26729">
        <ele>928.8</ele>
        <time>2019-04-14T10:56:18Z</time>
      </trkpt>
      <trkpt lat="46.78351" lon="6.26721">
        <ele>928</ele>
        <time>2019-04-14T10:56:23Z</time>
      </trkpt>
      <trkpt lat="46.78343" lon="6.26714">
        <ele>927.9</ele>
        <time>2019-04-14T10:56:29Z</time>
      </trkpt>
      <trkpt lat="46.78338" lon="6.26703">
        <ele>927.9</ele>
        <time>2019-04-14T10:56:38Z</time>
      </trkpt>
      <trkpt lat="46.78328" lon="6.26699">
        <ele>927.8</ele>
        <time>2019-04-14T10:56:48Z</time>
      </trkpt>
      <trkpt lat="46.78319" lon="6.26693">
        <ele>927.9</ele>
        <time>2019-04-14T10:56:56Z</time>
      </trkpt>
      <trkpt lat="46.78309" lon="6.26688">
        <ele>928</ele>
        <time>2019-04-14T10:56:59Z</time>
      </trkpt>
      <trkpt lat="46.78301" lon="6.26679">
        <ele>928</ele>
        <time>2019-04-14T10:57:08Z</time>
      </trkpt>
      <trkpt lat="46.78294" lon="6.26672">
        <ele>927.6</ele>
        <time>2019-04-14T10:57:17Z</time>
      </trkpt>
      <trkpt lat="46.78285" lon="6.26668">
        <ele>927.4</ele>
        <time>2019-04-14T10:57:26Z</time>
      </trkpt>
      <trkpt lat="46.78276" lon="6.26662">
        <ele>927</ele>
        <time>2019-04-14T10:57:35Z</time>
      </trkpt>
      <trkpt lat="46.78268" lon="6.26656">
        <ele>926.8</ele>
        <time>2019-04-14T10:57:43Z</time>
      </trkpt>
      <trkpt lat="46.78259" lon="6.2665">
        <ele>926.4</ele>
        <time>2019-04-14T10:57:53Z</time>
      </trkpt>
      <trkpt lat="46.7825" lon="6.26648">
        <ele>925.7</ele>
        <time>2019-04-14T10:57:59Z</time>
      </trkpt>
      <trkpt lat="46.78242" lon="6.26642">
        <ele>925.5</ele>
        <time>2019-04-14T10:58:06Z</time>
      </trkpt>
      <trkpt lat="46.78233" lon="6.26638">
        <ele>925.6</ele>
        <time>2019-04-14T10:58:11Z</time>
      </trkpt>
      <trkpt lat="46.78225" lon="6.26643">
        <ele>925.3</ele>
        <time>2019-04-14T10:58:16Z</time>
      </trkpt>
      <trkpt lat="46.78216" lon="6.26641">
        <ele>925</ele>
        <time>2019-04-14T10:58:24Z</time>
      </trkpt>
      <trkpt lat="46.78208" lon="6.26633">
        <ele>924.8</ele>
        <time>2019-04-14T10:58:34Z</time>
      </trkpt>
      <trkpt lat="46.78199" lon="6.26627">
        <ele>925</ele>
        <time>2019-04-14T10:58:43Z</time>
      </trkpt>
      <trkpt lat="46.78189" lon="6.26626">
        <ele>924.7</ele>
        <time>2019-04-14T10:58:51Z</time>
      </trkpt>
      <trkpt lat="46.7818" lon="6.26619">
        <ele>925.1</ele>
        <time>2019-04-14T10:58:59Z</time>
      </trkpt>
      <trkpt lat="46.78171" lon="6.26614">
        <ele>925.2</ele>
        <time>2019-04-14T10:59:08Z</time>
      </trkpt>
      <trkpt lat="46.78162" lon="6.26609">
        <ele>925.1</ele>
        <time>2019-04-14T10:59:15Z</time>
      </trkpt>
      <trkpt lat="46.78152" lon="6.26599">
        <ele>925</ele>
        <time>2019-04-14T10:59:26Z</time>
      </trkpt>
      <trkpt lat="46.78144" lon="6.26593">
        <ele>925.5</ele>
        <time>2019-04-14T10:59:36Z</time>
      </trkpt>
      <trkpt lat="46.78136" lon="6.26586">
        <ele>925.6</ele>
        <time>2019-04-14T10:59:43Z</time>
      </trkpt>
      <trkpt lat="46.78133" lon="6.26573">
        <ele>926.1</ele>
        <time>2019-04-14T11:00:06Z</time>
      </trkpt>
      <trkpt lat="46.78124" lon="6.26564">
        <ele>926.6</ele>
        <time>2019-04-14T11:00:24Z</time>
      </trkpt>
      <trkpt lat="46.78111" lon="6.26544">
        <ele>926</ele>
        <time>2019-04-14T11:00:43Z</time>
      </trkpt>
      <trkpt lat="46.78102" lon="6.26538">
        <ele>927</ele>
        <time>2019-04-14T11:00:53Z</time>
      </trkpt>
      <trkpt lat="46.78094" lon="6.26533">
        <ele>927.2</ele>
        <time>2019-04-14T11:01:03Z</time>
      </trkpt>
      <trkpt lat="46.78085" lon="6.26528">
        <ele>927</ele>
        <time>2019-04-14T11:01:12Z</time>
      </trkpt>
      <trkpt lat="46.78077" lon="6.26522">
        <ele>927.6</ele>
        <time>2019-04-14T11:01:21Z</time>
      </trkpt>
      <trkpt lat="46.78067" lon="6.26519">
        <ele>927.5</ele>
        <time>2019-04-14T11:01:29Z</time>
      </trkpt>
      <trkpt lat="46.78058" lon="6.26515">
        <ele>927.8</ele>
        <time>2019-04-14T11:01:33Z</time>
      </trkpt>
      <trkpt lat="46.78049" lon="6.26509">
        <ele>927.7</ele>
        <time>2019-04-14T11:01:39Z</time>
      </trkpt>
      <trkpt lat="46.78041" lon="6.265">
        <ele>927.2</ele>
        <time>2019-04-14T11:01:46Z</time>
      </trkpt>
      <trkpt lat="46.78033" lon="6.26493">
        <ele>927.7</ele>
        <time>2019-04-14T11:01:52Z</time>
      </trkpt>
      <trkpt lat="46.78024" lon="6.26486">
        <ele>927.6</ele>
        <time>2019-04-14T11:02:00Z</time>
      </trkpt>
      <trkpt lat="46.78017" lon="6.26477">
        <ele>927.8</ele>
        <time>2019-04-14T11:02:05Z</time>
      </trkpt>
      <trkpt lat="46.78008" lon="6.26471">
        <ele>927.8</ele>
        <time>2019-04-14T11:02:12Z</time>
      </trkpt>
      <trkpt lat="46.78001" lon="6.26461">
        <ele>927.4</ele>
        <time>2019-04-14T11:02:21Z</time>
      </trkpt>
      <trkpt lat="46.77995" lon="6.26451">
        <ele>927.6</ele>
        <time>2019-04-14T11:02:32Z</time>
      </trkpt>
      <trkpt lat="46.77981" lon="6.26411">
        <ele>929</ele>
        <time>2019-04-14T11:04:06Z</time>
      </trkpt>
      <trkpt lat="46.77972" lon="6.26408">
        <ele>929.7</ele>
        <time>2019-04-14T11:04:22Z</time>
      </trkpt>
      <trkpt lat="46.77963" lon="6.26405">
        <ele>930.1</ele>
        <time>2019-04-14T11:04:32Z</time>
      </trkpt>
      <trkpt lat="46.77956" lon="6.26396">
        <ele>929.8</ele>
        <time>2019-04-14T11:04:42Z</time>
      </trkpt>
      <trkpt lat="46.7795" lon="6.26386">
        <ele>929.4</ele>
        <time>2019-04-14T11:04:51Z</time>
      </trkpt>
      <trkpt lat="46.77947" lon="6.26372">
        <ele>929.4</ele>
        <time>2019-04-14T11:05:01Z</time>
      </trkpt>
      <trkpt lat="46.7794" lon="6.26363">
        <ele>929.7</ele>
        <time>2019-04-14T11:05:10Z</time>
      </trkpt>
      <trkpt lat="46.77933" lon="6.26353">
        <ele>929.5</ele>
        <time>2019-04-14T11:05:19Z</time>
      </trkpt>
      <trkpt lat="46.77928" lon="6.26342">
        <ele>929.5</ele>
        <time>2019-04-14T11:05:28Z</time>
      </trkpt>
      <trkpt lat="46.77919" lon="6.26335">
        <ele>929.7</ele>
        <time>2019-04-14T11:05:38Z</time>
      </trkpt>
      <trkpt lat="46.77911" lon="6.26329">
        <ele>929.6</ele>
        <time>2019-04-14T11:05:44Z</time>
      </trkpt>
      <trkpt lat="46.77902" lon="6.26325">
        <ele>929.9</ele>
        <time>2019-04-14T11:05:51Z</time>
      </trkpt>
      <trkpt lat="46.77895" lon="6.26315">
        <ele>929.8</ele>
        <time>2019-04-14T11:06:01Z</time>
      </trkpt>
      <trkpt lat="46.77888" lon="6.26306">
        <ele>930.2</ele>
        <time>2019-04-14T11:06:10Z</time>
      </trkpt>
      <trkpt lat="46.77883" lon="6.26293">
        <ele>929.9</ele>
        <time>2019-04-14T11:06:22Z</time>
      </trkpt>
      <trkpt lat="46.77877" lon="6.26281">
        <ele>929.8</ele>
        <time>2019-04-14T11:06:32Z</time>
      </trkpt>
      <trkpt lat="46.77871" lon="6.26271">
        <ele>929.9</ele>
        <time>2019-04-14T11:06:43Z</time>
      </trkpt>
      <trkpt lat="46.77867" lon="6.26258">
        <ele>930</ele>
        <time>2019-04-14T11:06:52Z</time>
      </trkpt>
      <trkpt lat="46.77861" lon="6.26248">
        <ele>930</ele>
        <time>2019-04-14T11:07:00Z</time>
      </trkpt>
      <trkpt lat="46.77852" lon="6.2624">
        <ele>929.9</ele>
        <time>2019-04-14T11:07:09Z</time>
      </trkpt>
      <trkpt lat="46.77844" lon="6.26232">
        <ele>929.7</ele>
        <time>2019-04-14T11:07:14Z</time>
      </trkpt>
      <trkpt lat="46.77837" lon="6.26223">
        <ele>930</ele>
        <time>2019-04-14T11:07:22Z</time>
      </trkpt>
      <trkpt lat="46.77834" lon="6.2621">
        <ele>929.8</ele>
        <time>2019-04-14T11:07:28Z</time>
      </trkpt>
      <trkpt lat="46.77828" lon="6.262">
        <ele>929.8</ele>
        <time>2019-04-14T11:07:35Z</time>
      </trkpt>
      <trkpt lat="46.77821" lon="6.26191">
        <ele>929.9</ele>
        <time>2019-04-14T11:07:45Z</time>
      </trkpt>
      <trkpt lat="46.77813" lon="6.26181">
        <ele>929.8</ele>
        <time>2019-04-14T11:07:53Z</time>
      </trkpt>
      <trkpt lat="46.77807" lon="6.26171">
        <ele>930.1</ele>
        <time>2019-04-14T11:08:03Z</time>
      </trkpt>
      <trkpt lat="46.77802" lon="6.26159">
        <ele>930.4</ele>
        <time>2019-04-14T11:08:14Z</time>
      </trkpt>
      <trkpt lat="46.77798" lon="6.26147">
        <ele>930.4</ele>
        <time>2019-04-14T11:08:22Z</time>
      </trkpt>
      <trkpt lat="46.77793" lon="6.26136">
        <ele>930.1</ele>
        <time>2019-04-14T11:08:30Z</time>
      </trkpt>
      <trkpt lat="46.77786" lon="6.26123">
        <ele>930.5</ele>
        <time>2019-04-14T11:08:36Z</time>
      </trkpt>
      <trkpt lat="46.77777" lon="6.2612">
        <ele>930.5</ele>
        <time>2019-04-14T11:08:46Z</time>
      </trkpt>
      <trkpt lat="46.77768" lon="6.26119">
        <ele>930.4</ele>
        <time>2019-04-14T11:08:52Z</time>
      </trkpt>
      <trkpt lat="46.77759" lon="6.26116">
        <ele>930.6</ele>
        <time>2019-04-14T11:09:00Z</time>
      </trkpt>
      <trkpt lat="46.7775" lon="6.26098">
        <ele>930.9</ele>
        <time>2019-04-14T11:09:06Z</time>
      </trkpt>
      <trkpt lat="46.77741" lon="6.26092">
        <ele>930.7</ele>
        <time>2019-04-14T11:09:15Z</time>
      </trkpt>
      <trkpt lat="46.77734" lon="6.26083">
        <ele>930.8</ele>
        <time>2019-04-14T11:09:28Z</time>
      </trkpt>
      <trkpt lat="46.77702" lon="6.26058">
        <ele>935</ele>
        <time>2019-04-14T11:14:33Z</time>
      </trkpt>
      <trkpt lat="46.77692" lon="6.26056">
        <ele>936.4</ele>
        <time>2019-04-14T11:14:48Z</time>
      </trkpt>
      <trkpt lat="46.77685" lon="6.26046">
        <ele>936.9</ele>
        <time>2019-04-14T11:14:59Z</time>
      </trkpt>
      <trkpt lat="46.77679" lon="6.26035">
        <ele>937</ele>
        <time>2019-04-14T11:15:04Z</time>
      </trkpt>
      <trkpt lat="46.77674" lon="6.26024">
        <ele>937.2</ele>
        <time>2019-04-14T11:15:12Z</time>
      </trkpt>
      <trkpt lat="46.77668" lon="6.26013">
        <ele>937.8</ele>
        <time>2019-04-14T11:15:22Z</time>
      </trkpt>
      <trkpt lat="46.77661" lon="6.26002">
        <ele>938.7</ele>
        <time>2019-04-14T11:15:34Z</time>
      </trkpt>
      <trkpt lat="46.77654" lon="6.25992">
        <ele>939.4</ele>
        <time>2019-04-14T11:15:44Z</time>
      </trkpt>
      <trkpt lat="46.77646" lon="6.25984">
        <ele>939.6</ele>
        <time>2019-04-14T11:15:53Z</time>
      </trkpt>
      <trkpt lat="46.7764" lon="6.25972">
        <ele>940.5</ele>
        <time>2019-04-14T11:16:02Z</time>
      </trkpt>
      <trkpt lat="46.77634" lon="6.25963">
        <ele>940.9</ele>
        <time>2019-04-14T11:16:09Z</time>
      </trkpt>
      <trkpt lat="46.77628" lon="6.25952">
        <ele>941.2</ele>
        <time>2019-04-14T11:16:16Z</time>
      </trkpt>
      <trkpt lat="46.77624" lon="6.25941">
        <ele>941.6</ele>
        <time>2019-04-14T11:16:25Z</time>
      </trkpt>
      <trkpt lat="46.77617" lon="6.25931">
        <ele>941.7</ele>
        <time>2019-04-14T11:16:32Z</time>
      </trkpt>
      <trkpt lat="46.77615" lon="6.25917">
        <ele>942.9</ele>
        <time>2019-04-14T11:16:44Z</time>
      </trkpt>
      <trkpt lat="46.7761" lon="6.25905">
        <ele>943.2</ele>
        <time>2019-04-14T11:16:52Z</time>
      </trkpt>
      <trkpt lat="46.77604" lon="6.25894">
        <ele>944.1</ele>
        <time>2019-04-14T11:17:03Z</time>
      </trkpt>
      <trkpt lat="46.77596" lon="6.25885">
        <ele>944.6</ele>
        <time>2019-04-14T11:17:13Z</time>
      </trkpt>
      <trkpt lat="46.77589" lon="6.25876">
        <ele>945.6</ele>
        <time>2019-04-14T11:17:23Z</time>
      </trkpt>
      <trkpt lat="46.77582" lon="6.25866">
        <ele>946.6</ele>
        <time>2019-04-14T11:17:33Z</time>
      </trkpt>
      <trkpt lat="46.77575" lon="6.25857">
        <ele>946.9</ele>
        <time>2019-04-14T11:17:42Z</time>
      </trkpt>
      <trkpt lat="46.77569" lon="6.25847">
        <ele>947.2</ele>
        <time>2019-04-14T11:17:51Z</time>
      </trkpt>
      <trkpt lat="46.77562" lon="6.25837">
        <ele>947.7</ele>
        <time>2019-04-14T11:17:58Z</time>
      </trkpt>
      <trkpt lat="46.77554" lon="6.2583">
        <ele>948.4</ele>
        <time>2019-04-14T11:18:08Z</time>
      </trkpt>
      <trkpt lat="46.77546" lon="6.25821">
        <ele>949</ele>
        <time>2019-04-14T11:18:19Z</time>
      </trkpt>
      <trkpt lat="46.77538" lon="6.25816">
        <ele>949.7</ele>
        <time>2019-04-14T11:18:27Z</time>
      </trkpt>
      <trkpt lat="46.77531" lon="6.25807">
        <ele>949.8</ele>
        <time>2019-04-14T11:18:36Z</time>
      </trkpt>
      <trkpt lat="46.77522" lon="6.25803">
        <ele>950.7</ele>
        <time>2019-04-14T11:18:46Z</time>
      </trkpt>
      <trkpt lat="46.77512" lon="6.258">
        <ele>951.3</ele>
        <time>2019-04-14T11:18:55Z</time>
      </trkpt>
      <trkpt lat="46.77503" lon="6.25796">
        <ele>951.5</ele>
        <time>2019-04-14T11:19:01Z</time>
      </trkpt>
      <trkpt lat="46.77494" lon="6.25792">
        <ele>952.3</ele>
        <time>2019-04-14T11:19:10Z</time>
      </trkpt>
      <trkpt lat="46.77485" lon="6.25787">
        <ele>952.8</ele>
        <time>2019-04-14T11:19:20Z</time>
      </trkpt>
      <trkpt lat="46.77476" lon="6.25787">
        <ele>953.4</ele>
        <time>2019-04-14T11:19:28Z</time>
      </trkpt>
      <trkpt lat="46.77466" lon="6.25788">
        <ele>953.8</ele>
        <time>2019-04-14T11:19:36Z</time>
      </trkpt>
      <trkpt lat="46.77457" lon="6.25783">
        <ele>954.4</ele>
        <time>2019-04-14T11:19:44Z</time>
      </trkpt>
      <trkpt lat="46.77451" lon="6.25773">
        <ele>954.6</ele>
        <time>2019-04-14T11:19:51Z</time>
      </trkpt>
      <trkpt lat="46.77444" lon="6.25763">
        <ele>955.2</ele>
        <time>2019-04-14T11:19:58Z</time>
      </trkpt>
      <trkpt lat="46.77436" lon="6.25754">
        <ele>955.8</ele>
        <time>2019-04-14T11:20:06Z</time>
      </trkpt>
      <trkpt lat="46.7743" lon="6.25744">
        <ele>956.2</ele>
        <time>2019-04-14T11:20:14Z</time>
      </trkpt>
      <trkpt lat="46.7741" lon="6.25727">
        <ele>958</ele>
        <time>2019-04-14T11:20:44Z</time>
      </trkpt>
      <trkpt lat="46.774" lon="6.25729">
        <ele>958.2</ele>
        <time>2019-04-14T11:20:58Z</time>
      </trkpt>
      <trkpt lat="46.77392" lon="6.25721">
        <ele>958.8</ele>
        <time>2019-04-14T11:21:08Z</time>
      </trkpt>
      <trkpt lat="46.77383" lon="6.25715">
        <ele>959.4</ele>
        <time>2019-04-14T11:21:18Z</time>
      </trkpt>
      <trkpt lat="46.77375" lon="6.25708">
        <ele>959.9</ele>
        <time>2019-04-14T11:21:29Z</time>
      </trkpt>
      <trkpt lat="46.77369" lon="6.25697">
        <ele>960.8</ele>
        <time>2019-04-14T11:21:37Z</time>
      </trkpt>
      <trkpt lat="46.77365" lon="6.25685">
        <ele>961.4</ele>
        <time>2019-04-14T11:21:43Z</time>
      </trkpt>
      <trkpt lat="46.77358" lon="6.25674">
        <ele>961.8</ele>
        <time>2019-04-14T11:21:49Z</time>
      </trkpt>
      <trkpt lat="46.77349" lon="6.25667">
        <ele>962.3</ele>
        <time>2019-04-14T11:21:59Z</time>
      </trkpt>
      <trkpt lat="46.77341" lon="6.25661">
        <ele>962.9</ele>
        <time>2019-04-14T11:22:10Z</time>
      </trkpt>
      <trkpt lat="46.77334" lon="6.25652">
        <ele>963.9</ele>
        <time>2019-04-14T11:22:20Z</time>
      </trkpt>
      <trkpt lat="46.77327" lon="6.25644">
        <ele>964.4</ele>
        <time>2019-04-14T11:22:29Z</time>
      </trkpt>
      <trkpt lat="46.77319" lon="6.25637">
        <ele>964.9</ele>
        <time>2019-04-14T11:22:39Z</time>
      </trkpt>
      <trkpt lat="46.77311" lon="6.25628">
        <ele>965.7</ele>
        <time>2019-04-14T11:22:49Z</time>
      </trkpt>
      <trkpt lat="46.77305" lon="6.25618">
        <ele>966.4</ele>
        <time>2019-04-14T11:22:59Z</time>
      </trkpt>
      <trkpt lat="46.77298" lon="6.25607">
        <ele>966.6</ele>
        <time>2019-04-14T11:23:07Z</time>
      </trkpt>
      <trkpt lat="46.7729" lon="6.256">
        <ele>967.3</ele>
        <time>2019-04-14T11:23:17Z</time>
      </trkpt>
      <trkpt lat="46.77284" lon="6.25589">
        <ele>967.7</ele>
        <time>2019-04-14T11:23:24Z</time>
      </trkpt>
      <trkpt lat="46.77278" lon="6.25576">
        <ele>968.3</ele>
        <time>2019-04-14T11:23:30Z</time>
      </trkpt>
      <trkpt lat="46.77272" lon="6.25568">
        <ele>968.8</ele>
        <time>2019-04-14T11:23:37Z</time>
      </trkpt>
      <trkpt lat="46.77267" lon="6.25556">
        <ele>969</ele>
        <time>2019-04-14T11:23:44Z</time>
      </trkpt>
      <trkpt lat="46.7726" lon="6.25547">
        <ele>969.5</ele>
        <time>2019-04-14T11:23:52Z</time>
      </trkpt>
      <trkpt lat="46.77254" lon="6.25538">
        <ele>969.5</ele>
        <time>2019-04-14T11:24:03Z</time>
      </trkpt>
      <trkpt lat="46.77248" lon="6.25528">
        <ele>970.1</ele>
        <time>2019-04-14T11:24:12Z</time>
      </trkpt>
      <trkpt lat="46.77243" lon="6.25515">
        <ele>970.9</ele>
        <time>2019-04-14T11:24:20Z</time>
      </trkpt>
      <trkpt lat="46.77238" lon="6.25504">
        <ele>971.4</ele>
        <time>2019-04-14T11:24:35Z</time>
      </trkpt>
      <trkpt lat="46.77232" lon="6.25493">
        <ele>971.9</ele>
        <time>2019-04-14T11:24:45Z</time>
      </trkpt>
      <trkpt lat="46.77229" lon="6.2548">
        <ele>972</ele>
        <time>2019-04-14T11:24:53Z</time>
      </trkpt>
      <trkpt lat="46.77224" lon="6.25469">
        <ele>972.8</ele>
        <time>2019-04-14T11:25:04Z</time>
      </trkpt>
      <trkpt lat="46.77214" lon="6.25454">
        <ele>973</ele>
        <time>2019-04-14T11:25:54Z</time>
      </trkpt>
      <trkpt lat="46.7721" lon="6.25442">
        <ele>973.4</ele>
        <time>2019-04-14T11:26:04Z</time>
      </trkpt>
      <trkpt lat="46.77207" lon="6.25429">
        <ele>974.1</ele>
        <time>2019-04-14T11:26:16Z</time>
      </trkpt>
      <trkpt lat="46.77211" lon="6.25404">
        <ele>977.1</ele>
        <time>2019-04-14T11:31:00Z</time>
      </trkpt>
      <trkpt lat="46.77221" lon="6.25406">
        <ele>977.6</ele>
        <time>2019-04-14T11:31:10Z</time>
      </trkpt>
      <trkpt lat="46.7723" lon="6.25404">
        <ele>977.7</ele>
        <time>2019-04-14T11:31:16Z</time>
      </trkpt>
      <trkpt lat="46.77239" lon="6.25408">
        <ele>977.2</ele>
        <time>2019-04-14T11:31:27Z</time>
      </trkpt>
      <trkpt lat="46.77248" lon="6.25415">
        <ele>976.6</ele>
        <time>2019-04-14T11:31:39Z</time>
      </trkpt>
      <trkpt lat="46.77257" lon="6.25418">
        <ele>976.1</ele>
        <time>2019-04-14T11:31:48Z</time>
      </trkpt>
      <trkpt lat="46.77266" lon="6.25422">
        <ele>975.7</ele>
        <time>2019-04-14T11:31:58Z</time>
      </trkpt>
      <trkpt lat="46.77276" lon="6.25424">
        <ele>975.1</ele>
        <time>2019-04-14T11:32:05Z</time>
      </trkpt>
      <trkpt lat="46.77285" lon="6.25423">
        <ele>974.2</ele>
        <time>2019-04-14T11:32:13Z</time>
      </trkpt>
      <trkpt lat="46.77294" lon="6.25418">
        <ele>973.4</ele>
        <time>2019-04-14T11:32:22Z</time>
      </trkpt>
      <trkpt lat="46.77299" lon="6.25405">
        <ele>972.6</ele>
        <time>2019-04-14T11:32:31Z</time>
      </trkpt>
      <trkpt lat="46.77302" lon="6.25392">
        <ele>972.6</ele>
        <time>2019-04-14T11:32:34Z</time>
      </trkpt>
      <trkpt lat="46.77302" lon="6.25379">
        <ele>972.1</ele>
        <time>2019-04-14T11:32:39Z</time>
      </trkpt>
      <trkpt lat="46.77305" lon="6.25366">
        <ele>971.8</ele>
        <time>2019-04-14T11:32:44Z</time>
      </trkpt>
      <trkpt lat="46.77307" lon="6.25353">
        <ele>971.1</ele>
        <time>2019-04-14T11:32:53Z</time>
      </trkpt>
      <trkpt lat="46.77309" lon="6.25339">
        <ele>970.6</ele>
        <time>2019-04-14T11:33:03Z</time>
      </trkpt>
      <trkpt lat="46.77309" lon="6.25325">
        <ele>969.9</ele>
        <time>2019-04-14T11:33:11Z</time>
      </trkpt>
      <trkpt lat="46.77306" lon="6.25312">
        <ele>969.6</ele>
        <time>2019-04-14T11:33:21Z</time>
      </trkpt>
      <trkpt lat="46.77304" lon="6.25299">
        <ele>969.7</ele>
        <time>2019-04-14T11:33:31Z</time>
      </trkpt>
      <trkpt lat="46.77298" lon="6.25288">
        <ele>969.7</ele>
        <time>2019-04-14T11:33:40Z</time>
      </trkpt>
      <trkpt lat="46.77298" lon="6.25274">
        <ele>969.8</ele>
        <time>2019-04-14T11:33:52Z</time>
      </trkpt>
      <trkpt lat="46.773" lon="6.2526">
        <ele>969.8</ele>
        <time>2019-04-14T11:34:01Z</time>
      </trkpt>
      <trkpt lat="46.77303" lon="6.25246">
        <ele>969.9</ele>
        <time>2019-04-14T11:34:09Z</time>
      </trkpt>
      <trkpt lat="46.77307" lon="6.25233">
        <ele>970</ele>
        <time>2019-04-14T11:34:25Z</time>
      </trkpt>
      <trkpt lat="46.77308" lon="6.25219">
        <ele>970.2</ele>
        <time>2019-04-14T11:34:31Z</time>
      </trkpt>
      <trkpt lat="46.7731" lon="6.25205">
        <ele>970.3</ele>
        <time>2019-04-14T11:34:36Z</time>
      </trkpt>
      <trkpt lat="46.7731" lon="6.2519">
        <ele>970.2</ele>
        <time>2019-04-14T11:34:45Z</time>
      </trkpt>
      <trkpt lat="46.77304" lon="6.25179">
        <ele>970.7</ele>
        <time>2019-04-14T11:34:53Z</time>
      </trkpt>
      <trkpt lat="46.77298" lon="6.25168">
        <ele>971.5</ele>
        <time>2019-04-14T11:35:04Z</time>
      </trkpt>
      <trkpt lat="46.7729" lon="6.25158">
        <ele>971.8</ele>
        <time>2019-04-14T11:35:13Z</time>
      </trkpt>
      <trkpt lat="46.77282" lon="6.25149">
        <ele>972.3</ele>
        <time>2019-04-14T11:35:22Z</time>
      </trkpt>
      <trkpt lat="46.77273" lon="6.25145">
        <ele>973.1</ele>
        <time>2019-04-14T11:35:34Z</time>
      </trkpt>
      <trkpt lat="46.77265" lon="6.25138">
        <ele>973.3</ele>
        <time>2019-04-14T11:35:45Z</time>
      </trkpt>
      <trkpt lat="46.77258" lon="6.25128">
        <ele>973.9</ele>
        <time>2019-04-14T11:35:54Z</time>
      </trkpt>
      <trkpt lat="46.77252" lon="6.25116">
        <ele>974.5</ele>
        <time>2019-04-14T11:36:05Z</time>
      </trkpt>
      <trkpt lat="46.77246" lon="6.25105">
        <ele>974.6</ele>
        <time>2019-04-14T11:36:10Z</time>
      </trkpt>
      <trkpt lat="46.77238" lon="6.25096">
        <ele>974.8</ele>
        <time>2019-04-14T11:36:19Z</time>
      </trkpt>
      <trkpt lat="46.77234" lon="6.25084">
        <ele>975.7</ele>
        <time>2019-04-14T11:36:47Z</time>
      </trkpt>
      <trkpt lat="46.77243" lon="6.2508">
        <ele>976.2</ele>
        <time>2019-04-14T11:37:01Z</time>
      </trkpt>
      <trkpt lat="46.77253" lon="6.2508">
        <ele>977.2</ele>
        <time>2019-04-14T11:37:17Z</time>
      </trkpt>
      <trkpt lat="46.77259" lon="6.25091">
        <ele>977.5</ele>
        <time>2019-04-14T11:37:29Z</time>
      </trkpt>
      <trkpt lat="46.77264" lon="6.25102">
        <ele>978</ele>
        <time>2019-04-14T11:37:41Z</time>
      </trkpt>
      <trkpt lat="46.77271" lon="6.25113">
        <ele>978.8</ele>
        <time>2019-04-14T11:37:50Z</time>
      </trkpt>
      <trkpt lat="46.77278" lon="6.2512">
        <ele>979.1</ele>
        <time>2019-04-14T11:37:58Z</time>
      </trkpt>
      <trkpt lat="46.77286" lon="6.25126">
        <ele>979.4</ele>
        <time>2019-04-14T11:38:06Z</time>
      </trkpt>
      <trkpt lat="46.77294" lon="6.25133">
        <ele>979.9</ele>
        <time>2019-04-14T11:38:12Z</time>
      </trkpt>
      <trkpt lat="46.77303" lon="6.25136">
        <ele>979.7</ele>
        <time>2019-04-14T11:38:21Z</time>
      </trkpt>
      <trkpt lat="46.77313" lon="6.25136">
        <ele>980</ele>
        <time>2019-04-14T11:38:28Z</time>
      </trkpt>
      <trkpt lat="46.77323" lon="6.25135">
        <ele>980.1</ele>
        <time>2019-04-14T11:38:36Z</time>
      </trkpt>
      <trkpt lat="46.77332" lon="6.25134">
        <ele>980.4</ele>
        <time>2019-04-14T11:38:48Z</time>
      </trkpt>
      <trkpt lat="46.77342" lon="6.25129">
        <ele>981.1</ele>
        <time>2019-04-14T11:38:59Z</time>
      </trkpt>
      <trkpt lat="46.7735" lon="6.25123">
        <ele>981.3</ele>
        <time>2019-04-14T11:39:08Z</time>
      </trkpt>
      <trkpt lat="46.77357" lon="6.25114">
        <ele>981.5</ele>
        <time>2019-04-14T11:39:15Z</time>
      </trkpt>
      <trkpt lat="46.7736" lon="6.25101">
        <ele>982.4</ele>
        <time>2019-04-14T11:39:25Z</time>
      </trkpt>
      <trkpt lat="46.77363" lon="6.25088">
        <ele>982.8</ele>
        <time>2019-04-14T11:39:36Z</time>
      </trkpt>
      <trkpt lat="46.77361" lon="6.25075">
        <ele>983</ele>
        <time>2019-04-14T11:39:43Z</time>
      </trkpt>
      <trkpt lat="46.77362" lon="6.2506">
        <ele>982.9</ele>
        <time>2019-04-14T11:39:53Z</time>
      </trkpt>
      <trkpt lat="46.77366" lon="6.25048">
        <ele>982.9</ele>
        <time>2019-04-14T11:40:01Z</time>
      </trkpt>
      <trkpt lat="46.77367" lon="6.25033">
        <ele>982.7</ele>
        <time>2019-04-14T11:40:07Z</time>
      </trkpt>
      <trkpt lat="46.77365" lon="6.2502">
        <ele>981.6</ele>
        <time>2019-04-14T11:40:23Z</time>
      </trkpt>
      <trkpt lat="46.77363" lon="6.25007">
        <ele>981</ele>
        <time>2019-04-14T11:40:35Z</time>
      </trkpt>
      <trkpt lat="46.77365" lon="6.24993">
        <ele>979.3</ele>
        <time>2019-04-14T11:40:53Z</time>
      </trkpt>
      <trkpt lat="46.77369" lon="6.24981">
        <ele>978.8</ele>
        <time>2019-04-14T11:41:01Z</time>
      </trkpt>
      <trkpt lat="46.77376" lon="6.24971">
        <ele>978.5</ele>
        <time>2019-04-14T11:41:09Z</time>
      </trkpt>
      <trkpt lat="46.77381" lon="6.24961">
        <ele>977.7</ele>
        <time>2019-04-14T11:41:18Z</time>
      </trkpt>
      <trkpt lat="46.77387" lon="6.24948">
        <ele>977.4</ele>
        <time>2019-04-14T11:41:23Z</time>
      </trkpt>
      <trkpt lat="46.7739" lon="6.24936">
        <ele>976.9</ele>
        <time>2019-04-14T11:41:31Z</time>
      </trkpt>
      <trkpt lat="46.774" lon="6.24932">
        <ele>976.3</ele>
        <time>2019-04-14T11:41:45Z</time>
      </trkpt>
      <trkpt lat="46.77409" lon="6.24934">
        <ele>975.9</ele>
        <time>2019-04-14T11:41:52Z</time>
      </trkpt>
      <trkpt lat="46.77419" lon="6.24929">
        <ele>975.9</ele>
        <time>2019-04-14T11:42:00Z</time>
      </trkpt>
      <trkpt lat="46.77424" lon="6.24941">
        <ele>975.3</ele>
        <time>2019-04-14T11:42:12Z</time>
      </trkpt>
      <trkpt lat="46.7743" lon="6.24953">
        <ele>975.3</ele>
        <time>2019-04-14T11:42:21Z</time>
      </trkpt>
      <trkpt lat="46.77436" lon="6.24964">
        <ele>974.9</ele>
        <time>2019-04-14T11:42:31Z</time>
      </trkpt>
      <trkpt lat="46.77444" lon="6.24974">
        <ele>975.2</ele>
        <time>2019-04-14T11:42:40Z</time>
      </trkpt>
      <trkpt lat="46.77452" lon="6.24981">
        <ele>975.2</ele>
        <time>2019-04-14T11:42:47Z</time>
      </trkpt>
      <trkpt lat="46.7746" lon="6.24988">
        <ele>975.2</ele>
        <time>2019-04-14T11:42:55Z</time>
      </trkpt>
      <trkpt lat="46.77469" lon="6.24993">
        <ele>975.1</ele>
        <time>2019-04-14T11:43:04Z</time>
      </trkpt>
      <trkpt lat="46.77479" lon="6.24998">
        <ele>975.2</ele>
        <time>2019-04-14T11:43:12Z</time>
      </trkpt>
      <trkpt lat="46.77487" lon="6.25003">
        <ele>975</ele>
        <time>2019-04-14T11:43:19Z</time>
      </trkpt>
      <trkpt lat="46.77496" lon="6.2501">
        <ele>975</ele>
        <time>2019-04-14T11:43:26Z</time>
      </trkpt>
      <trkpt lat="46.77505" lon="6.25017">
        <ele>974.7</ele>
        <time>2019-04-14T11:43:31Z</time>
      </trkpt>
      <trkpt lat="46.77513" lon="6.25023">
        <ele>974.9</ele>
        <time>2019-04-14T11:43:40Z</time>
      </trkpt>
      <trkpt lat="46.77522" lon="6.25027">
        <ele>974.7</ele>
        <time>2019-04-14T11:43:53Z</time>
      </trkpt>
      <trkpt lat="46.77531" lon="6.25028">
        <ele>974.3</ele>
        <time>2019-04-14T11:44:02Z</time>
      </trkpt>
      <trkpt lat="46.7754" lon="6.2503">
        <ele>974.4</ele>
        <time>2019-04-14T11:44:11Z</time>
      </trkpt>
      <trkpt lat="46.7755" lon="6.25032">
        <ele>974.7</ele>
        <time>2019-04-14T11:44:19Z</time>
      </trkpt>
      <trkpt lat="46.77559" lon="6.25028">
        <ele>974.4</ele>
        <time>2019-04-14T11:44:25Z</time>
      </trkpt>
      <trkpt lat="46.77559" lon="6.25014">
        <ele>974.2</ele>
        <time>2019-04-14T11:44:35Z</time>
      </trkpt>
      <trkpt lat="46.77558" lon="6.25">
        <ele>973.6</ele>
        <time>2019-04-14T11:44:46Z</time>
      </trkpt>
      <trkpt lat="46.77555" lon="6.24987">
        <ele>972.2</ele>
        <time>2019-04-14T11:44:59Z</time>
      </trkpt>
      <trkpt lat="46.77552" lon="6.24975">
        <ele>971.5</ele>
        <time>2019-04-14T11:45:10Z</time>
      </trkpt>
      <trkpt lat="46.77548" lon="6.24963">
        <ele>970.1</ele>
        <time>2019-04-14T11:45:23Z</time>
      </trkpt>
      <trkpt lat="46.77546" lon="6.24949">
        <ele>968.6</ele>
        <time>2019-04-14T11:45:35Z</time>
      </trkpt>
      <trkpt lat="46.77548" lon="6.24936">
        <ele>967.7</ele>
        <time>2019-04-14T11:45:46Z</time>
      </trkpt>
      <trkpt lat="46.77549" lon="6.24923">
        <ele>966.7</ele>
        <time>2019-04-14T11:45:53Z</time>
      </trkpt>
      <trkpt lat="46.77551" lon="6.2491">
        <ele>966</ele>
        <time>2019-04-14T11:46:00Z</time>
      </trkpt>
      <trkpt lat="46.77546" lon="6.24897">
        <ele>965.3</ele>
        <time>2019-04-14T11:46:09Z</time>
      </trkpt>
      <trkpt lat="46.77539" lon="6.24889">
        <ele>964.7</ele>
        <time>2019-04-14T11:46:15Z</time>
      </trkpt>
      <trkpt lat="46.77536" lon="6.24875">
        <ele>963.1</ele>
        <time>2019-04-14T11:46:26Z</time>
      </trkpt>
      <trkpt lat="46.77538" lon="6.24862">
        <ele>961.9</ele>
        <time>2019-04-14T11:46:35Z</time>
      </trkpt>
      <trkpt lat="46.77535" lon="6.24848">
        <ele>960.8</ele>
        <time>2019-04-14T11:46:44Z</time>
      </trkpt>
      <trkpt lat="46.77536" lon="6.24835">
        <ele>959.7</ele>
        <time>2019-04-14T11:46:53Z</time>
      </trkpt>
      <trkpt lat="46.77536" lon="6.2482">
        <ele>958.5</ele>
        <time>2019-04-14T11:47:01Z</time>
      </trkpt>
      <trkpt lat="46.77528" lon="6.24812">
        <ele>957.2</ele>
        <time>2019-04-14T11:47:16Z</time>
      </trkpt>
      <trkpt lat="46.77514" lon="6.24815">
        <ele>955</ele>
        <time>2019-04-14T11:47:44Z</time>
      </trkpt>
      <trkpt lat="46.77511" lon="6.24803">
        <ele>952.5</ele>
        <time>2019-04-14T11:49:35Z</time>
      </trkpt>
      <trkpt lat="46.77516" lon="6.24791">
        <ele>951.9</ele>
        <time>2019-04-14T11:49:43Z</time>
      </trkpt>
      <trkpt lat="46.77514" lon="6.24778">
        <ele>951.2</ele>
        <time>2019-04-14T11:49:52Z</time>
      </trkpt>
      <trkpt lat="46.7751" lon="6.24765">
        <ele>950.8</ele>
        <time>2019-04-14T11:50:01Z</time>
      </trkpt>
      <trkpt lat="46.77506" lon="6.24753">
        <ele>950.3</ele>
        <time>2019-04-14T11:50:09Z</time>
      </trkpt>
      <trkpt lat="46.77501" lon="6.24741">
        <ele>949.5</ele>
        <time>2019-04-14T11:50:16Z</time>
      </trkpt>
      <trkpt lat="46.77496" lon="6.2473">
        <ele>949.3</ele>
        <time>2019-04-14T11:50:23Z</time>
      </trkpt>
      <trkpt lat="46.77489" lon="6.24719">
        <ele>948.8</ele>
        <time>2019-04-14T11:50:30Z</time>
      </trkpt>
      <trkpt lat="46.77482" lon="6.24708">
        <ele>948.3</ele>
        <time>2019-04-14T11:50:37Z</time>
      </trkpt>
      <trkpt lat="46.77476" lon="6.24697">
        <ele>947.2</ele>
        <time>2019-04-14T11:50:45Z</time>
      </trkpt>
      <trkpt lat="46.77469" lon="6.24689">
        <ele>946.8</ele>
        <time>2019-04-14T11:50:52Z</time>
      </trkpt>
      <trkpt lat="46.77463" lon="6.24678">
        <ele>946.2</ele>
        <time>2019-04-14T11:50:59Z</time>
      </trkpt>
      <trkpt lat="46.77457" lon="6.24668">
        <ele>945.2</ele>
        <time>2019-04-14T11:51:06Z</time>
      </trkpt>
      <trkpt lat="46.77451" lon="6.24657">
        <ele>944.2</ele>
        <time>2019-04-14T11:51:14Z</time>
      </trkpt>
      <trkpt lat="46.77445" lon="6.24646">
        <ele>943</ele>
        <time>2019-04-14T11:51:22Z</time>
      </trkpt>
      <trkpt lat="46.77439" lon="6.24634">
        <ele>942.2</ele>
        <time>2019-04-14T11:51:29Z</time>
      </trkpt>
      <trkpt lat="46.77434" lon="6.24623">
        <ele>941.3</ele>
        <time>2019-04-14T11:51:36Z</time>
      </trkpt>
      <trkpt lat="46.77428" lon="6.24612">
        <ele>940.6</ele>
        <time>2019-04-14T11:51:43Z</time>
      </trkpt>
      <trkpt lat="46.77422" lon="6.246">
        <ele>939.8</ele>
        <time>2019-04-14T11:51:50Z</time>
      </trkpt>
      <trkpt lat="46.77417" lon="6.24588">
        <ele>939.3</ele>
        <time>2019-04-14T11:51:57Z</time>
      </trkpt>
      <trkpt lat="46.77412" lon="6.24577">
        <ele>938</ele>
        <time>2019-04-14T11:52:04Z</time>
      </trkpt>
      <trkpt lat="46.77407" lon="6.24565">
        <ele>937.6</ele>
        <time>2019-04-14T11:52:11Z</time>
      </trkpt>
      <trkpt lat="46.77401" lon="6.24555">
        <ele>937.5</ele>
        <time>2019-04-14T11:52:17Z</time>
      </trkpt>
      <trkpt lat="46.77394" lon="6.24544">
        <ele>936.6</ele>
        <time>2019-04-14T11:52:24Z</time>
      </trkpt>
      <trkpt lat="46.77389" lon="6.24534">
        <ele>936.5</ele>
        <time>2019-04-14T11:52:31Z</time>
      </trkpt>
      <trkpt lat="46.77384" lon="6.24522">
        <ele>936.3</ele>
        <time>2019-04-14T11:52:39Z</time>
      </trkpt>
      <trkpt lat="46.77378" lon="6.2451">
        <ele>935.4</ele>
        <time>2019-04-14T11:52:47Z</time>
      </trkpt>
      <trkpt lat="46.77372" lon="6.24498">
        <ele>935.5</ele>
        <time>2019-04-14T11:52:55Z</time>
      </trkpt>
      <trkpt lat="46.77366" lon="6.24486">
        <ele>935.4</ele>
        <time>2019-04-14T11:53:03Z</time>
      </trkpt>
      <trkpt lat="46.77361" lon="6.24476">
        <ele>934.1</ele>
        <time>2019-04-14T11:53:10Z</time>
      </trkpt>
      <trkpt lat="46.77354" lon="6.24465">
        <ele>934.4</ele>
        <time>2019-04-14T11:53:18Z</time>
      </trkpt>
      <trkpt lat="46.77349" lon="6.24452">
        <ele>933.9</ele>
        <time>2019-04-14T11:53:26Z</time>
      </trkpt>
      <trkpt lat="46.77343" lon="6.2444">
        <ele>933.8</ele>
        <time>2019-04-14T11:53:33Z</time>
      </trkpt>
      <trkpt lat="46.77338" lon="6.24429">
        <ele>932.4</ele>
        <time>2019-04-14T11:53:40Z</time>
      </trkpt>
      <trkpt lat="46.77332" lon="6.24418">
        <ele>932.7</ele>
        <time>2019-04-14T11:53:47Z</time>
      </trkpt>
      <trkpt lat="46.77327" lon="6.24407">
        <ele>932.5</ele>
        <time>2019-04-14T11:53:54Z</time>
      </trkpt>
      <trkpt lat="46.77322" lon="6.24395">
        <ele>932.3</ele>
        <time>2019-04-14T11:54:01Z</time>
      </trkpt>
      <trkpt lat="46.77316" lon="6.24385">
        <ele>931.7</ele>
        <time>2019-04-14T11:54:08Z</time>
      </trkpt>
      <trkpt lat="46.7731" lon="6.24375">
        <ele>931.1</ele>
        <time>2019-04-14T11:54:15Z</time>
      </trkpt>
      <trkpt lat="46.77303" lon="6.24364">
        <ele>930.8</ele>
        <time>2019-04-14T11:54:22Z</time>
      </trkpt>
      <trkpt lat="46.77297" lon="6.24353">
        <ele>930.2</ele>
        <time>2019-04-14T11:54:41Z</time>
      </trkpt>
      <trkpt lat="46.77292" lon="6.2434">
        <ele>929.5</ele>
        <time>2019-04-14T11:54:51Z</time>
      </trkpt>
      <trkpt lat="46.77288" lon="6.24328">
        <ele>928.6</ele>
        <time>2019-04-14T11:55:03Z</time>
      </trkpt>
      <trkpt lat="46.77281" lon="6.24317">
        <ele>928.6</ele>
        <time>2019-04-14T11:55:12Z</time>
      </trkpt>
      <trkpt lat="46.77276" lon="6.24306">
        <ele>928.5</ele>
        <time>2019-04-14T11:55:20Z</time>
      </trkpt>
      <trkpt lat="46.7727" lon="6.24296">
        <ele>927.8</ele>
        <time>2019-04-14T11:55:35Z</time>
      </trkpt>
      <trkpt lat="46.77263" lon="6.24287">
        <ele>927.2</ele>
        <time>2019-04-14T11:55:45Z</time>
      </trkpt>
      <trkpt lat="46.77254" lon="6.24279">
        <ele>927.2</ele>
        <time>2019-04-14T11:55:55Z</time>
      </trkpt>
      <trkpt lat="46.77247" lon="6.24271">
        <ele>926.4</ele>
        <time>2019-04-14T11:56:02Z</time>
      </trkpt>
      <trkpt lat="46.7724" lon="6.24263">
        <ele>926.4</ele>
        <time>2019-04-14T11:56:09Z</time>
      </trkpt>
      <trkpt lat="46.77233" lon="6.24253">
        <ele>926.7</ele>
        <time>2019-04-14T11:56:16Z</time>
      </trkpt>
      <trkpt lat="46.77226" lon="6.24243">
        <ele>925.8</ele>
        <time>2019-04-14T11:56:24Z</time>
      </trkpt>
      <trkpt lat="46.77218" lon="6.24235">
        <ele>925.8</ele>
        <time>2019-04-14T11:56:32Z</time>
      </trkpt>
      <trkpt lat="46.7721" lon="6.24227">
        <ele>925.6</ele>
        <time>2019-04-14T11:56:40Z</time>
      </trkpt>
      <trkpt lat="46.77202" lon="6.24218">
        <ele>925.3</ele>
        <time>2019-04-14T11:56:48Z</time>
      </trkpt>
      <trkpt lat="46.77195" lon="6.24209">
        <ele>924.9</ele>
        <time>2019-04-14T11:56:58Z</time>
      </trkpt>
      <trkpt lat="46.77188" lon="6.24199">
        <ele>924.7</ele>
        <time>2019-04-14T11:57:09Z</time>
      </trkpt>
      <trkpt lat="46.77181" lon="6.24191">
        <ele>924.5</ele>
        <time>2019-04-14T11:57:17Z</time>
      </trkpt>
      <trkpt lat="46.77173" lon="6.24184">
        <ele>924</ele>
        <time>2019-04-14T11:57:24Z</time>
      </trkpt>
      <trkpt lat="46.77167" lon="6.24173">
        <ele>923.8</ele>
        <time>2019-04-14T11:57:31Z</time>
      </trkpt>
      <trkpt lat="46.7716" lon="6.24163">
        <ele>924</ele>
        <time>2019-04-14T11:57:39Z</time>
      </trkpt>
      <trkpt lat="46.77153" lon="6.24153">
        <ele>923.2</ele>
        <time>2019-04-14T11:57:47Z</time>
      </trkpt>
      <trkpt lat="46.77145" lon="6.24143">
        <ele>923.3</ele>
        <time>2019-04-14T11:57:56Z</time>
      </trkpt>
      <trkpt lat="46.77136" lon="6.24138">
        <ele>923</ele>
        <time>2019-04-14T11:58:05Z</time>
      </trkpt>
      <trkpt lat="46.77128" lon="6.24132">
        <ele>922.8</ele>
        <time>2019-04-14T11:58:14Z</time>
      </trkpt>
      <trkpt lat="46.77119" lon="6.24128">
        <ele>922.2</ele>
        <time>2019-04-14T11:58:23Z</time>
      </trkpt>
      <trkpt lat="46.77109" lon="6.24125">
        <ele>922.3</ele>
        <time>2019-04-14T11:58:30Z</time>
      </trkpt>
      <trkpt lat="46.771" lon="6.24123">
        <ele>921.5</ele>
        <time>2019-04-14T11:58:39Z</time>
      </trkpt>
      <trkpt lat="46.77091" lon="6.24122">
        <ele>920.1</ele>
        <time>2019-04-14T11:58:51Z</time>
      </trkpt>
      <trkpt lat="46.77081" lon="6.24119">
        <ele>919.5</ele>
        <time>2019-04-14T11:59:01Z</time>
      </trkpt>
      <trkpt lat="46.77072" lon="6.24117">
        <ele>919.1</ele>
        <time>2019-04-14T11:59:09Z</time>
      </trkpt>
      <trkpt lat="46.77062" lon="6.24115">
        <ele>919</ele>
        <time>2019-04-14T11:59:19Z</time>
      </trkpt>
      <trkpt lat="46.77053" lon="6.24113">
        <ele>918.9</ele>
        <time>2019-04-14T11:59:28Z</time>
      </trkpt>
      <trkpt lat="46.77044" lon="6.2411">
        <ele>918.4</ele>
        <time>2019-04-14T11:59:37Z</time>
      </trkpt>
      <trkpt lat="46.77034" lon="6.2411">
        <ele>918.1</ele>
        <time>2019-04-14T11:59:48Z</time>
      </trkpt>
      <trkpt lat="46.77024" lon="6.24109">
        <ele>917.9</ele>
        <time>2019-04-14T11:59:57Z</time>
      </trkpt>
      <trkpt lat="46.77016" lon="6.24104">
        <ele>917.9</ele>
        <time>2019-04-14T12:00:06Z</time>
      </trkpt>
      <trkpt lat="46.77009" lon="6.24095">
        <ele>917.4</ele>
        <time>2019-04-14T12:00:18Z</time>
      </trkpt>
      <trkpt lat="46.77002" lon="6.24086">
        <ele>916.9</ele>
        <time>2019-04-14T12:00:32Z</time>
      </trkpt>
      <trkpt lat="46.76996" lon="6.24076">
        <ele>917.1</ele>
        <time>2019-04-14T12:00:46Z</time>
      </trkpt>
      <trkpt lat="46.76987" lon="6.24067">
        <ele>916.9</ele>
        <time>2019-04-14T12:00:58Z</time>
      </trkpt>
      <trkpt lat="46.7698" lon="6.24059">
        <ele>916.3</ele>
        <time>2019-04-14T12:01:09Z</time>
      </trkpt>
      <trkpt lat="46.76973" lon="6.24049">
        <ele>916</ele>
        <time>2019-04-14T12:01:22Z</time>
      </trkpt>
      <trkpt lat="46.76965" lon="6.24041">
        <ele>916</ele>
        <time>2019-04-14T12:01:32Z</time>
      </trkpt>
      <trkpt lat="46.76958" lon="6.2403">
        <ele>915.9</ele>
        <time>2019-04-14T12:01:41Z</time>
      </trkpt>
      <trkpt lat="46.76952" lon="6.24019">
        <ele>915.9</ele>
        <time>2019-04-14T12:01:51Z</time>
      </trkpt>
      <trkpt lat="46.76944" lon="6.2401">
        <ele>915.9</ele>
        <time>2019-04-14T12:02:00Z</time>
      </trkpt>
      <trkpt lat="46.76936" lon="6.24003">
        <ele>915.9</ele>
        <time>2019-04-14T12:02:10Z</time>
      </trkpt>
      <trkpt lat="46.7693" lon="6.23993">
        <ele>915.8</ele>
        <time>2019-04-14T12:02:32Z</time>
      </trkpt>
      <trkpt lat="46.76926" lon="6.2398">
        <ele>915.6</ele>
        <time>2019-04-14T12:02:43Z</time>
      </trkpt>
      <trkpt lat="46.76919" lon="6.23971">
        <ele>915.8</ele>
        <time>2019-04-14T12:02:55Z</time>
      </trkpt>
      <trkpt lat="46.76911" lon="6.23965">
        <ele>916</ele>
        <time>2019-04-14T12:03:06Z</time>
      </trkpt>
      <trkpt lat="46.76902" lon="6.23962">
        <ele>916.4</ele>
        <time>2019-04-14T12:03:18Z</time>
      </trkpt>
      <trkpt lat="46.76892" lon="6.23956">
        <ele>916.6</ele>
        <time>2019-04-14T12:03:26Z</time>
      </trkpt>
      <trkpt lat="46.76883" lon="6.23952">
        <ele>916.8</ele>
        <time>2019-04-14T12:03:34Z</time>
      </trkpt>
      <trkpt lat="46.76874" lon="6.23947">
        <ele>916.7</ele>
        <time>2019-04-14T12:03:47Z</time>
      </trkpt>
      <trkpt lat="46.76864" lon="6.23945">
        <ele>917.5</ele>
        <time>2019-04-14T12:04:36Z</time>
      </trkpt>
      <trkpt lat="46.76858" lon="6.2398">
        <ele>917</ele>
        <time>2019-04-14T12:06:24Z</time>
      </trkpt>
      <trkpt lat="46.76864" lon="6.23968">
        <ele>917.4</ele>
        <time>2019-04-14T12:07:08Z</time>
      </trkpt>
      <trkpt lat="46.76852" lon="6.23954">
        <ele>916</ele>
        <time>2019-04-14T12:07:56Z</time>
      </trkpt>
      <trkpt lat="46.76861" lon="6.23951">
        <ele>916</ele>
        <time>2019-04-14T12:10:44Z</time>
      </trkpt>
      <trkpt lat="46.76862" lon="6.23965">
        <ele>916.4</ele>
        <time>2019-04-14T12:11:57Z</time>
      </trkpt>
      <trkpt lat="46.76867" lon="6.23977">
        <ele>915.6</ele>
        <time>2019-04-14T12:12:10Z</time>
      </trkpt>
      <trkpt lat="46.76869" lon="6.23991">
        <ele>915.2</ele>
        <time>2019-04-14T12:12:18Z</time>
      </trkpt>
      <trkpt lat="46.76864" lon="6.24005">
        <ele>914.9</ele>
        <time>2019-04-14T12:12:29Z</time>
      </trkpt>
      <trkpt lat="46.76858" lon="6.24018">
        <ele>914.4</ele>
        <time>2019-04-14T12:12:37Z</time>
      </trkpt>
      <trkpt lat="46.76856" lon="6.24031">
        <ele>914.3</ele>
        <time>2019-04-14T12:12:48Z</time>
      </trkpt>
      <trkpt lat="46.76853" lon="6.24045">
        <ele>914.1</ele>
        <time>2019-04-14T12:12:56Z</time>
      </trkpt>
      <trkpt lat="46.76852" lon="6.2406">
        <ele>913.7</ele>
        <time>2019-04-14T12:13:05Z</time>
      </trkpt>
      <trkpt lat="46.76853" lon="6.24073">
        <ele>913.5</ele>
        <time>2019-04-14T12:13:35Z</time>
      </trkpt>
      <trkpt lat="46.76849" lon="6.24086">
        <ele>913.4</ele>
        <time>2019-04-14T12:13:51Z</time>
      </trkpt>
      <trkpt lat="46.76842" lon="6.24095">
        <ele>912.8</ele>
        <time>2019-04-14T12:14:14Z</time>
      </trkpt>
      <trkpt lat="46.76836" lon="6.24105">
        <ele>913.1</ele>
        <time>2019-04-14T12:14:34Z</time>
      </trkpt>
      <trkpt lat="46.76829" lon="6.24116">
        <ele>913.6</ele>
        <time>2019-04-14T12:15:03Z</time>
      </trkpt>
      <trkpt lat="46.7682" lon="6.24123">
        <ele>913.7</ele>
        <time>2019-04-14T12:15:13Z</time>
      </trkpt>
      <trkpt lat="46.7681" lon="6.24126">
        <ele>913.8</ele>
        <time>2019-04-14T12:15:24Z</time>
      </trkpt>
      <trkpt lat="46.76802" lon="6.24131">
        <ele>913.7</ele>
        <time>2019-04-14T12:15:44Z</time>
      </trkpt>
      <trkpt lat="46.768" lon="6.24144">
        <ele>913.7</ele>
        <time>2019-04-14T12:15:51Z</time>
      </trkpt>
      <trkpt lat="46.76798" lon="6.24159">
        <ele>913.9</ele>
        <time>2019-04-14T12:15:59Z</time>
      </trkpt>
      <trkpt lat="46.76797" lon="6.24173">
        <ele>913.5</ele>
        <time>2019-04-14T12:16:06Z</time>
      </trkpt>
      <trkpt lat="46.76794" lon="6.24187">
        <ele>913.2</ele>
        <time>2019-04-14T12:16:13Z</time>
      </trkpt>
      <trkpt lat="46.76791" lon="6.24201">
        <ele>913.5</ele>
        <time>2019-04-14T12:16:20Z</time>
      </trkpt>
      <trkpt lat="46.76788" lon="6.24214">
        <ele>912.9</ele>
        <time>2019-04-14T12:16:27Z</time>
      </trkpt>
      <trkpt lat="46.76784" lon="6.24227">
        <ele>912.4</ele>
        <time>2019-04-14T12:16:34Z</time>
      </trkpt>
      <trkpt lat="46.76779" lon="6.24239">
        <ele>912.9</ele>
        <time>2019-04-14T12:16:41Z</time>
      </trkpt>
      <trkpt lat="46.76774" lon="6.2425">
        <ele>913</ele>
        <time>2019-04-14T12:16:48Z</time>
      </trkpt>
      <trkpt lat="46.76769" lon="6.24262">
        <ele>913.3</ele>
        <time>2019-04-14T12:16:56Z</time>
      </trkpt>
      <trkpt lat="46.76765" lon="6.24273">
        <ele>912.7</ele>
        <time>2019-04-14T12:17:03Z</time>
      </trkpt>
      <trkpt lat="46.76759" lon="6.24284">
        <ele>913</ele>
        <time>2019-04-14T12:17:10Z</time>
      </trkpt>
      <trkpt lat="46.76752" lon="6.24295">
        <ele>913</ele>
        <time>2019-04-14T12:17:17Z</time>
      </trkpt>
      <trkpt lat="46.76743" lon="6.24303">
        <ele>912.5</ele>
        <time>2019-04-14T12:17:25Z</time>
      </trkpt>
      <trkpt lat="46.76735" lon="6.24311">
        <ele>911.3</ele>
        <time>2019-04-14T12:17:33Z</time>
      </trkpt>
      <trkpt lat="46.76728" lon="6.2432">
        <ele>911.2</ele>
        <time>2019-04-14T12:17:41Z</time>
      </trkpt>
      <trkpt lat="46.7672" lon="6.24329">
        <ele>910</ele>
        <time>2019-04-14T12:17:49Z</time>
      </trkpt>
      <trkpt lat="46.76712" lon="6.24338">
        <ele>910.1</ele>
        <time>2019-04-14T12:17:56Z</time>
      </trkpt>
      <trkpt lat="46.76706" lon="6.24347">
        <ele>910.5</ele>
        <time>2019-04-14T12:18:03Z</time>
      </trkpt>
      <trkpt lat="46.767" lon="6.24358">
        <ele>909.9</ele>
        <time>2019-04-14T12:18:10Z</time>
      </trkpt>
      <trkpt lat="46.76694" lon="6.2437">
        <ele>910.4</ele>
        <time>2019-04-14T12:18:17Z</time>
      </trkpt>
      <trkpt lat="46.76689" lon="6.24383">
        <ele>910</ele>
        <time>2019-04-14T12:18:24Z</time>
      </trkpt>
      <trkpt lat="46.76683" lon="6.24393">
        <ele>910.7</ele>
        <time>2019-04-14T12:18:32Z</time>
      </trkpt>
      <trkpt lat="46.76677" lon="6.24404">
        <ele>910.9</ele>
        <time>2019-04-14T12:18:40Z</time>
      </trkpt>
      <trkpt lat="46.76671" lon="6.24415">
        <ele>911.4</ele>
        <time>2019-04-14T12:18:48Z</time>
      </trkpt>
      <trkpt lat="46.76665" lon="6.24425">
        <ele>912</ele>
        <time>2019-04-14T12:18:55Z</time>
      </trkpt>
      <trkpt lat="46.76659" lon="6.24437">
        <ele>912.5</ele>
        <time>2019-04-14T12:19:03Z</time>
      </trkpt>
      <trkpt lat="46.76652" lon="6.24447">
        <ele>912.6</ele>
        <time>2019-04-14T12:19:11Z</time>
      </trkpt>
      <trkpt lat="46.76645" lon="6.24456">
        <ele>913.3</ele>
        <time>2019-04-14T12:19:18Z</time>
      </trkpt>
      <trkpt lat="46.76636" lon="6.24461">
        <ele>912.9</ele>
        <time>2019-04-14T12:19:26Z</time>
      </trkpt>
      <trkpt lat="46.76626" lon="6.24464">
        <ele>912.5</ele>
        <time>2019-04-14T12:19:36Z</time>
      </trkpt>
      <trkpt lat="46.76617" lon="6.24466">
        <ele>911.4</ele>
        <time>2019-04-14T12:19:47Z</time>
      </trkpt>
      <trkpt lat="46.76608" lon="6.24466">
        <ele>910.4</ele>
        <time>2019-04-14T12:19:57Z</time>
      </trkpt>
      <trkpt lat="46.76599" lon="6.24468">
        <ele>909.7</ele>
        <time>2019-04-14T12:20:06Z</time>
      </trkpt>
      <trkpt lat="46.7659" lon="6.24466">
        <ele>908.8</ele>
        <time>2019-04-14T12:20:15Z</time>
      </trkpt>
      <trkpt lat="46.76581" lon="6.24464">
        <ele>908</ele>
        <time>2019-04-14T12:20:24Z</time>
      </trkpt>
      <trkpt lat="46.76572" lon="6.24461">
        <ele>907</ele>
        <time>2019-04-14T12:20:33Z</time>
      </trkpt>
      <trkpt lat="46.76563" lon="6.24457">
        <ele>906</ele>
        <time>2019-04-14T12:20:42Z</time>
      </trkpt>
      <trkpt lat="46.76554" lon="6.24452">
        <ele>904.3</ele>
        <time>2019-04-14T12:20:52Z</time>
      </trkpt>
      <trkpt lat="46.76545" lon="6.24447">
        <ele>903.1</ele>
        <time>2019-04-14T12:21:02Z</time>
      </trkpt>
      <trkpt lat="46.76537" lon="6.2444">
        <ele>902.1</ele>
        <time>2019-04-14T12:21:12Z</time>
      </trkpt>
      <trkpt lat="46.76528" lon="6.24433">
        <ele>901.4</ele>
        <time>2019-04-14T12:21:20Z</time>
      </trkpt>
      <trkpt lat="46.76519" lon="6.24427">
        <ele>899.9</ele>
        <time>2019-04-14T12:21:28Z</time>
      </trkpt>
      <trkpt lat="46.76511" lon="6.24421">
        <ele>898.7</ele>
        <time>2019-04-14T12:21:36Z</time>
      </trkpt>
      <trkpt lat="46.76502" lon="6.24416">
        <ele>897.8</ele>
        <time>2019-04-14T12:21:44Z</time>
      </trkpt>
      <trkpt lat="46.76494" lon="6.24408">
        <ele>896.9</ele>
        <time>2019-04-14T12:21:53Z</time>
      </trkpt>
      <trkpt lat="46.76488" lon="6.24398">
        <ele>895.9</ele>
        <time>2019-04-14T12:22:01Z</time>
      </trkpt>
      <trkpt lat="46.7648" lon="6.24388">
        <ele>894.7</ele>
        <time>2019-04-14T12:22:10Z</time>
      </trkpt>
      <trkpt lat="46.76473" lon="6.24381">
        <ele>893.9</ele>
        <time>2019-04-14T12:22:18Z</time>
      </trkpt>
      <trkpt lat="46.76463" lon="6.2438">
        <ele>892.9</ele>
        <time>2019-04-14T12:22:27Z</time>
      </trkpt>
      <trkpt lat="46.76454" lon="6.24378">
        <ele>892.4</ele>
        <time>2019-04-14T12:22:34Z</time>
      </trkpt>
      <trkpt lat="46.76445" lon="6.2438">
        <ele>891.6</ele>
        <time>2019-04-14T12:22:43Z</time>
      </trkpt>
      <trkpt lat="46.76436" lon="6.24384">
        <ele>890.6</ele>
        <time>2019-04-14T12:22:50Z</time>
      </trkpt>
      <trkpt lat="46.76427" lon="6.24389">
        <ele>889.9</ele>
        <time>2019-04-14T12:22:58Z</time>
      </trkpt>
      <trkpt lat="46.76418" lon="6.24395">
        <ele>889.2</ele>
        <time>2019-04-14T12:23:06Z</time>
      </trkpt>
      <trkpt lat="46.76411" lon="6.24402">
        <ele>887.9</ele>
        <time>2019-04-14T12:23:14Z</time>
      </trkpt>
      <trkpt lat="46.76402" lon="6.24408">
        <ele>887</ele>
        <time>2019-04-14T12:23:22Z</time>
      </trkpt>
      <trkpt lat="46.76394" lon="6.24414">
        <ele>885.8</ele>
        <time>2019-04-14T12:23:30Z</time>
      </trkpt>
      <trkpt lat="46.76385" lon="6.2442">
        <ele>884.4</ele>
        <time>2019-04-14T12:23:38Z</time>
      </trkpt>
      <trkpt lat="46.76376" lon="6.24424">
        <ele>883.2</ele>
        <time>2019-04-14T12:23:48Z</time>
      </trkpt>
      <trkpt lat="46.76366" lon="6.24424">
        <ele>882.7</ele>
        <time>2019-04-14T12:23:58Z</time>
      </trkpt>
      <trkpt lat="46.76357" lon="6.24423">
        <ele>881.3</ele>
        <time>2019-04-14T12:24:11Z</time>
      </trkpt>
      <trkpt lat="46.76347" lon="6.24422">
        <ele>880.5</ele>
        <time>2019-04-14T12:24:20Z</time>
      </trkpt>
      <trkpt lat="46.76338" lon="6.24421">
        <ele>879.6</ele>
        <time>2019-04-14T12:24:29Z</time>
      </trkpt>
      <trkpt lat="46.76329" lon="6.24423">
        <ele>878.5</ele>
        <time>2019-04-14T12:24:40Z</time>
      </trkpt>
      <trkpt lat="46.76319" lon="6.24425">
        <ele>878.1</ele>
        <time>2019-04-14T12:24:49Z</time>
      </trkpt>
      <trkpt lat="46.7631" lon="6.24425">
        <ele>877.7</ele>
        <time>2019-04-14T12:24:57Z</time>
      </trkpt>
      <trkpt lat="46.763" lon="6.24428">
        <ele>876.9</ele>
        <time>2019-04-14T12:25:11Z</time>
      </trkpt>
      <trkpt lat="46.7629" lon="6.2443">
        <ele>876.2</ele>
        <time>2019-04-14T12:25:19Z</time>
      </trkpt>
      <trkpt lat="46.76281" lon="6.24432">
        <ele>875.8</ele>
        <time>2019-04-14T12:25:27Z</time>
      </trkpt>
      <trkpt lat="46.76272" lon="6.24436">
        <ele>875.4</ele>
        <time>2019-04-14T12:25:37Z</time>
      </trkpt>
      <trkpt lat="46.76263" lon="6.24439">
        <ele>874.5</ele>
        <time>2019-04-14T12:25:45Z</time>
      </trkpt>
      <trkpt lat="46.76253" lon="6.2444">
        <ele>874.5</ele>
        <time>2019-04-14T12:25:52Z</time>
      </trkpt>
      <trkpt lat="46.76243" lon="6.24443">
        <ele>873.5</ele>
        <time>2019-04-14T12:26:00Z</time>
      </trkpt>
      <trkpt lat="46.76234" lon="6.24448">
        <ele>873.2</ele>
        <time>2019-04-14T12:26:07Z</time>
      </trkpt>
      <trkpt lat="46.76225" lon="6.24453">
        <ele>872.7</ele>
        <time>2019-04-14T12:26:14Z</time>
      </trkpt>
      <trkpt lat="46.76216" lon="6.24459">
        <ele>872.2</ele>
        <time>2019-04-14T12:26:22Z</time>
      </trkpt>
      <trkpt lat="46.76207" lon="6.24463">
        <ele>871.8</ele>
        <time>2019-04-14T12:26:29Z</time>
      </trkpt>
      <trkpt lat="46.76199" lon="6.24468">
        <ele>870.7</ele>
        <time>2019-04-14T12:26:36Z</time>
      </trkpt>
      <trkpt lat="46.76189" lon="6.24471">
        <ele>870.7</ele>
        <time>2019-04-14T12:26:44Z</time>
      </trkpt>
      <trkpt lat="46.76181" lon="6.24475">
        <ele>870.7</ele>
        <time>2019-04-14T12:26:51Z</time>
      </trkpt>
      <trkpt lat="46.76173" lon="6.24483">
        <ele>869.8</ele>
        <time>2019-04-14T12:26:58Z</time>
      </trkpt>
      <trkpt lat="46.76164" lon="6.24489">
        <ele>870.1</ele>
        <time>2019-04-14T12:27:06Z</time>
      </trkpt>
      <trkpt lat="46.76156" lon="6.24496">
        <ele>869.5</ele>
        <time>2019-04-14T12:27:14Z</time>
      </trkpt>
      <trkpt lat="46.76147" lon="6.24503">
        <ele>869</ele>
        <time>2019-04-14T12:27:21Z</time>
      </trkpt>
      <trkpt lat="46.76138" lon="6.24507">
        <ele>868.4</ele>
        <time>2019-04-14T12:27:29Z</time>
      </trkpt>
      <trkpt lat="46.7613" lon="6.24514">
        <ele>867.9</ele>
        <time>2019-04-14T12:27:37Z</time>
      </trkpt>
      <trkpt lat="46.76121" lon="6.24519">
        <ele>866.9</ele>
        <time>2019-04-14T12:27:46Z</time>
      </trkpt>
      <trkpt lat="46.76112" lon="6.24527">
        <ele>866.8</ele>
        <time>2019-04-14T12:27:55Z</time>
      </trkpt>
      <trkpt lat="46.76103" lon="6.24532">
        <ele>866.3</ele>
        <time>2019-04-14T12:28:03Z</time>
      </trkpt>
      <trkpt lat="46.76094" lon="6.24539">
        <ele>866.3</ele>
        <time>2019-04-14T12:28:11Z</time>
      </trkpt>
      <trkpt lat="46.76085" lon="6.24546">
        <ele>865.8</ele>
        <time>2019-04-14T12:28:19Z</time>
      </trkpt>
      <trkpt lat="46.76076" lon="6.24552">
        <ele>865.8</ele>
        <time>2019-04-14T12:28:27Z</time>
      </trkpt>
      <trkpt lat="46.76067" lon="6.24558">
        <ele>865.3</ele>
        <time>2019-04-14T12:28:35Z</time>
      </trkpt>
      <trkpt lat="46.76059" lon="6.24566">
        <ele>865.1</ele>
        <time>2019-04-14T12:28:43Z</time>
      </trkpt>
      <trkpt lat="46.7605" lon="6.2457">
        <ele>865.6</ele>
        <time>2019-04-14T12:28:51Z</time>
      </trkpt>
      <trkpt lat="46.76041" lon="6.24578">
        <ele>865.3</ele>
        <time>2019-04-14T12:28:59Z</time>
      </trkpt>
      <trkpt lat="46.76033" lon="6.24583">
        <ele>865.7</ele>
        <time>2019-04-14T12:29:06Z</time>
      </trkpt>
      <trkpt lat="46.76024" lon="6.24591">
        <ele>865.1</ele>
        <time>2019-04-14T12:29:14Z</time>
      </trkpt>
      <trkpt lat="46.76016" lon="6.24596">
        <ele>865.4</ele>
        <time>2019-04-14T12:29:21Z</time>
      </trkpt>
      <trkpt lat="46.76007" lon="6.24602">
        <ele>865.3</ele>
        <time>2019-04-14T12:29:31Z</time>
      </trkpt>
      <trkpt lat="46.76" lon="6.24609">
        <ele>865.3</ele>
        <time>2019-04-14T12:29:39Z</time>
      </trkpt>
      <trkpt lat="46.75991" lon="6.24615">
        <ele>865.7</ele>
        <time>2019-04-14T12:29:46Z</time>
      </trkpt>
      <trkpt lat="46.75984" lon="6.24623">
        <ele>865.6</ele>
        <time>2019-04-14T12:29:53Z</time>
      </trkpt>
      <trkpt lat="46.75975" lon="6.24629">
        <ele>865.7</ele>
        <time>2019-04-14T12:30:01Z</time>
      </trkpt>
      <trkpt lat="46.75967" lon="6.24636">
        <ele>865.2</ele>
        <time>2019-04-14T12:30:09Z</time>
      </trkpt>
      <trkpt lat="46.75958" lon="6.24642">
        <ele>865.3</ele>
        <time>2019-04-14T12:30:18Z</time>
      </trkpt>
      <trkpt lat="46.7595" lon="6.24648">
        <ele>865.2</ele>
        <time>2019-04-14T12:30:26Z</time>
      </trkpt>
      <trkpt lat="46.75942" lon="6.24655">
        <ele>865.1</ele>
        <time>2019-04-14T12:30:34Z</time>
      </trkpt>
      <trkpt lat="46.75934" lon="6.24662">
        <ele>865.1</ele>
        <time>2019-04-14T12:30:42Z</time>
      </trkpt>
      <trkpt lat="46.75925" lon="6.24668">
        <ele>865.3</ele>
        <time>2019-04-14T12:30:51Z</time>
      </trkpt>
      <trkpt lat="46.75917" lon="6.24673">
        <ele>865.4</ele>
        <time>2019-04-14T12:30:58Z</time>
      </trkpt>
      <trkpt lat="46.75908" lon="6.2468">
        <ele>865.6</ele>
        <time>2019-04-14T12:31:06Z</time>
      </trkpt>
      <trkpt lat="46.759" lon="6.24686">
        <ele>865.7</ele>
        <time>2019-04-14T12:31:14Z</time>
      </trkpt>
      <trkpt lat="46.75891" lon="6.24692">
        <ele>865.9</ele>
        <time>2019-04-14T12:31:21Z</time>
      </trkpt>
      <trkpt lat="46.75883" lon="6.24698">
        <ele>865.8</ele>
        <time>2019-04-14T12:31:29Z</time>
      </trkpt>
      <trkpt lat="46.75874" lon="6.24705">
        <ele>865.5</ele>
        <time>2019-04-14T12:31:38Z</time>
      </trkpt>
      <trkpt lat="46.75866" lon="6.24712">
        <ele>865.1</ele>
        <time>2019-04-14T12:31:47Z</time>
      </trkpt>
      <trkpt lat="46.75857" lon="6.24717">
        <ele>865.6</ele>
        <time>2019-04-14T12:31:56Z</time>
      </trkpt>
      <trkpt lat="46.75848" lon="6.24724">
        <ele>865.5</ele>
        <time>2019-04-14T12:32:05Z</time>
      </trkpt>
      <trkpt lat="46.75841" lon="6.24733">
        <ele>865.3</ele>
        <time>2019-04-14T12:32:13Z</time>
      </trkpt>
      <trkpt lat="46.75838" lon="6.24746">
        <ele>865.5</ele>
        <time>2019-04-14T12:32:25Z</time>
      </trkpt>
      <trkpt lat="46.75837" lon="6.2476">
        <ele>865.6</ele>
        <time>2019-04-14T12:32:36Z</time>
      </trkpt>
      <trkpt lat="46.75838" lon="6.24774">
        <ele>866</ele>
        <time>2019-04-14T12:32:43Z</time>
      </trkpt>
      <trkpt lat="46.75837" lon="6.24788">
        <ele>865.9</ele>
        <time>2019-04-14T12:32:51Z</time>
      </trkpt>
      <trkpt lat="46.75834" lon="6.248">
        <ele>866.1</ele>
        <time>2019-04-14T12:32:59Z</time>
      </trkpt>
      <trkpt lat="46.75835" lon="6.24814">
        <ele>866.2</ele>
        <time>2019-04-14T12:33:07Z</time>
      </trkpt>
      <trkpt lat="46.75836" lon="6.24828">
        <ele>866.1</ele>
        <time>2019-04-14T12:33:14Z</time>
      </trkpt>
      <trkpt lat="46.75836" lon="6.24841">
        <ele>866.5</ele>
        <time>2019-04-14T12:33:27Z</time>
      </trkpt>
      <trkpt lat="46.75836" lon="6.24856">
        <ele>867.6</ele>
        <time>2019-04-14T12:33:39Z</time>
      </trkpt>
      <trkpt lat="46.75839" lon="6.24868">
        <ele>868.2</ele>
        <time>2019-04-14T12:33:49Z</time>
      </trkpt>
      <trkpt lat="46.75839" lon="6.24882">
        <ele>869.2</ele>
        <time>2019-04-14T12:34:00Z</time>
      </trkpt>
      <trkpt lat="46.7584" lon="6.24895">
        <ele>870.6</ele>
        <time>2019-04-14T12:34:11Z</time>
      </trkpt>
      <trkpt lat="46.75839" lon="6.24909">
        <ele>871.9</ele>
        <time>2019-04-14T12:34:21Z</time>
      </trkpt>
      <trkpt lat="46.7584" lon="6.24923">
        <ele>872.4</ele>
        <time>2019-04-14T12:34:29Z</time>
      </trkpt>
      <trkpt lat="46.75837" lon="6.24937">
        <ele>873</ele>
        <time>2019-04-14T12:34:39Z</time>
      </trkpt>
      <trkpt lat="46.75833" lon="6.24949">
        <ele>873.1</ele>
        <time>2019-04-14T12:34:50Z</time>
      </trkpt>
      <trkpt lat="46.75829" lon="6.24961">
        <ele>873.6</ele>
        <time>2019-04-14T12:34:58Z</time>
      </trkpt>
      <trkpt lat="46.75827" lon="6.24975">
        <ele>873.7</ele>
        <time>2019-04-14T12:35:06Z</time>
      </trkpt>
      <trkpt lat="46.75827" lon="6.24988">
        <ele>874.5</ele>
        <time>2019-04-14T12:35:16Z</time>
      </trkpt>
      <trkpt lat="46.75827" lon="6.25003">
        <ele>875.8</ele>
        <time>2019-04-14T12:35:26Z</time>
      </trkpt>
      <trkpt lat="46.75827" lon="6.25016">
        <ele>876.5</ele>
        <time>2019-04-14T12:35:36Z</time>
      </trkpt>
      <trkpt lat="46.75828" lon="6.2503">
        <ele>877.6</ele>
        <time>2019-04-14T12:35:43Z</time>
      </trkpt>
      <trkpt lat="46.75823" lon="6.25042">
        <ele>878.3</ele>
        <time>2019-04-14T12:35:52Z</time>
      </trkpt>
      <trkpt lat="46.75819" lon="6.25054">
        <ele>878.8</ele>
        <time>2019-04-14T12:36:02Z</time>
      </trkpt>
      <trkpt lat="46.75816" lon="6.25066">
        <ele>878.6</ele>
        <time>2019-04-14T12:36:13Z</time>
      </trkpt>
      <trkpt lat="46.75813" lon="6.2508">
        <ele>879.5</ele>
        <time>2019-04-14T12:36:28Z</time>
      </trkpt>
      <trkpt lat="46.75807" lon="6.2509">
        <ele>879.9</ele>
        <time>2019-04-14T12:36:38Z</time>
      </trkpt>
      <trkpt lat="46.75801" lon="6.25101">
        <ele>880</ele>
        <time>2019-04-14T12:36:47Z</time>
      </trkpt>
      <trkpt lat="46.75797" lon="6.25114">
        <ele>879.6</ele>
        <time>2019-04-14T12:36:57Z</time>
      </trkpt>
      <trkpt lat="46.75793" lon="6.25126">
        <ele>880</ele>
        <time>2019-04-14T12:37:07Z</time>
      </trkpt>
      <trkpt lat="46.75793" lon="6.2514">
        <ele>880.4</ele>
        <time>2019-04-14T12:37:16Z</time>
      </trkpt>
      <trkpt lat="46.7579" lon="6.25154">
        <ele>880</ele>
        <time>2019-04-14T12:37:29Z</time>
      </trkpt>
      <trkpt lat="46.75787" lon="6.25167">
        <ele>880</ele>
        <time>2019-04-14T12:37:37Z</time>
      </trkpt>
      <trkpt lat="46.75782" lon="6.25179">
        <ele>880.1</ele>
        <time>2019-04-14T12:37:47Z</time>
      </trkpt>
      <trkpt lat="46.7578" lon="6.25192">
        <ele>880.5</ele>
        <time>2019-04-14T12:37:57Z</time>
      </trkpt>
      <trkpt lat="46.75776" lon="6.25205">
        <ele>880.6</ele>
        <time>2019-04-14T12:38:07Z</time>
      </trkpt>
      <trkpt lat="46.75773" lon="6.25218">
        <ele>880.7</ele>
        <time>2019-04-14T12:38:18Z</time>
      </trkpt>
      <trkpt lat="46.75768" lon="6.25229">
        <ele>880.3</ele>
        <time>2019-04-14T12:38:29Z</time>
      </trkpt>
      <trkpt lat="46.75765" lon="6.25242">
        <ele>880.7</ele>
        <time>2019-04-14T12:38:39Z</time>
      </trkpt>
      <trkpt lat="46.75767" lon="6.25255">
        <ele>881.3</ele>
        <time>2019-04-14T12:38:50Z</time>
      </trkpt>
      <trkpt lat="46.75767" lon="6.25268">
        <ele>881.8</ele>
        <time>2019-04-14T12:39:00Z</time>
      </trkpt>
      <trkpt lat="46.75765" lon="6.25282">
        <ele>882.3</ele>
        <time>2019-04-14T12:39:09Z</time>
      </trkpt>
      <trkpt lat="46.75761" lon="6.25295">
        <ele>882.9</ele>
        <time>2019-04-14T12:39:17Z</time>
      </trkpt>
      <trkpt lat="46.75759" lon="6.25309">
        <ele>884</ele>
        <time>2019-04-14T12:39:26Z</time>
      </trkpt>
      <trkpt lat="46.7576" lon="6.25322">
        <ele>884.6</ele>
        <time>2019-04-14T12:39:35Z</time>
      </trkpt>
      <trkpt lat="46.7576" lon="6.25337">
        <ele>885.2</ele>
        <time>2019-04-14T12:39:45Z</time>
      </trkpt>
      <trkpt lat="46.75759" lon="6.25351">
        <ele>886</ele>
        <time>2019-04-14T12:39:58Z</time>
      </trkpt>
      <trkpt lat="46.75757" lon="6.25364">
        <ele>886.7</ele>
        <time>2019-04-14T12:40:09Z</time>
      </trkpt>
      <trkpt lat="46.75752" lon="6.25376">
        <ele>886.6</ele>
        <time>2019-04-14T12:40:20Z</time>
      </trkpt>
      <trkpt lat="46.75748" lon="6.25389">
        <ele>886.6</ele>
        <time>2019-04-14T12:40:30Z</time>
      </trkpt>
      <trkpt lat="46.75744" lon="6.25401">
        <ele>886.5</ele>
        <time>2019-04-14T12:40:40Z</time>
      </trkpt>
      <trkpt lat="46.75743" lon="6.25415">
        <ele>886.7</ele>
        <time>2019-04-14T12:40:50Z</time>
      </trkpt>
      <trkpt lat="46.75742" lon="6.25428">
        <ele>886.3</ele>
        <time>2019-04-14T12:40:58Z</time>
      </trkpt>
      <trkpt lat="46.7574" lon="6.25442">
        <ele>885.8</ele>
        <time>2019-04-14T12:41:07Z</time>
      </trkpt>
      <trkpt lat="46.75735" lon="6.25453">
        <ele>885.8</ele>
        <time>2019-04-14T12:41:16Z</time>
      </trkpt>
      <trkpt lat="46.75731" lon="6.25466">
        <ele>885.9</ele>
        <time>2019-04-14T12:41:27Z</time>
      </trkpt>
      <trkpt lat="46.75727" lon="6.25479">
        <ele>884.9</ele>
        <time>2019-04-14T12:41:36Z</time>
      </trkpt>
      <trkpt lat="46.75723" lon="6.25492">
        <ele>884.9</ele>
        <time>2019-04-14T12:41:45Z</time>
      </trkpt>
      <trkpt lat="46.75721" lon="6.25506">
        <ele>884.3</ele>
        <time>2019-04-14T12:41:54Z</time>
      </trkpt>
      <trkpt lat="46.75717" lon="6.25519">
        <ele>883.9</ele>
        <time>2019-04-14T12:42:01Z</time>
      </trkpt>
      <trkpt lat="46.75713" lon="6.25531">
        <ele>883.6</ele>
        <time>2019-04-14T12:42:08Z</time>
      </trkpt>
      <trkpt lat="46.75711" lon="6.25545">
        <ele>883.5</ele>
        <time>2019-04-14T12:42:18Z</time>
      </trkpt>
      <trkpt lat="46.75708" lon="6.25558">
        <ele>883.6</ele>
        <time>2019-04-14T12:42:28Z</time>
      </trkpt>
      <trkpt lat="46.75703" lon="6.2557">
        <ele>883.5</ele>
        <time>2019-04-14T12:42:38Z</time>
      </trkpt>
      <trkpt lat="46.75699" lon="6.25582">
        <ele>883.3</ele>
        <time>2019-04-14T12:42:46Z</time>
      </trkpt>
      <trkpt lat="46.75694" lon="6.25593">
        <ele>883.1</ele>
        <time>2019-04-14T12:42:54Z</time>
      </trkpt>
      <trkpt lat="46.75689" lon="6.25605">
        <ele>883.5</ele>
        <time>2019-04-14T12:43:02Z</time>
      </trkpt>
      <trkpt lat="46.75685" lon="6.25618">
        <ele>884.2</ele>
        <time>2019-04-14T12:43:11Z</time>
      </trkpt>
      <trkpt lat="46.75678" lon="6.25628">
        <ele>884.3</ele>
        <time>2019-04-14T12:43:19Z</time>
      </trkpt>
      <trkpt lat="46.75671" lon="6.25638">
        <ele>884.5</ele>
        <time>2019-04-14T12:43:26Z</time>
      </trkpt>
      <trkpt lat="46.75664" lon="6.25647">
        <ele>884.3</ele>
        <time>2019-04-14T12:43:32Z</time>
      </trkpt>
      <trkpt lat="46.75656" lon="6.25654">
        <ele>884.4</ele>
        <time>2019-04-14T12:43:40Z</time>
      </trkpt>
      <trkpt lat="46.75652" lon="6.25667">
        <ele>885.1</ele>
        <time>2019-04-14T12:43:50Z</time>
      </trkpt>
      <trkpt lat="46.75659" lon="6.25677">
        <ele>885.9</ele>
        <time>2019-04-14T12:44:05Z</time>
      </trkpt>
      <trkpt lat="46.75668" lon="6.25681">
        <ele>885.4</ele>
        <time>2019-04-14T12:44:26Z</time>
      </trkpt>
      <trkpt lat="46.75677" lon="6.25675">
        <ele>884.8</ele>
        <time>2019-04-14T12:46:16Z</time>
      </trkpt>
      <trkpt lat="46.75667" lon="6.2567">
        <ele>885.1</ele>
        <time>2019-04-14T12:46:25Z</time>
      </trkpt>
      <trkpt lat="46.75658" lon="6.25673">
        <ele>885.2</ele>
        <time>2019-04-14T12:46:32Z</time>
      </trkpt>
      <trkpt lat="46.7565" lon="6.2568">
        <ele>885.9</ele>
        <time>2019-04-14T12:46:39Z</time>
      </trkpt>
      <trkpt lat="46.75641" lon="6.2569">
        <ele>886.5</ele>
        <time>2019-04-14T12:46:48Z</time>
      </trkpt>
      <trkpt lat="46.75632" lon="6.25691">
        <ele>886.8</ele>
        <time>2019-04-14T12:47:02Z</time>
      </trkpt>
      <trkpt lat="46.75626" lon="6.25681">
        <ele>887.3</ele>
        <time>2019-04-14T12:47:15Z</time>
      </trkpt>
      <trkpt lat="46.75619" lon="6.25672">
        <ele>887.7</ele>
        <time>2019-04-14T12:47:28Z</time>
      </trkpt>
      <trkpt lat="46.75615" lon="6.25659">
        <ele>889.2</ele>
        <time>2019-04-14T12:47:38Z</time>
      </trkpt>
      <trkpt lat="46.75616" lon="6.25645">
        <ele>890.9</ele>
        <time>2019-04-14T12:47:49Z</time>
      </trkpt>
      <trkpt lat="46.75617" lon="6.25632">
        <ele>892.3</ele>
        <time>2019-04-14T12:47:59Z</time>
      </trkpt>
      <trkpt lat="46.75619" lon="6.25619">
        <ele>893.9</ele>
        <time>2019-04-14T12:48:12Z</time>
      </trkpt>
      <trkpt lat="46.75617" lon="6.25606">
        <ele>895.4</ele>
        <time>2019-04-14T12:48:22Z</time>
      </trkpt>
      <trkpt lat="46.75617" lon="6.25593">
        <ele>896.5</ele>
        <time>2019-04-14T12:48:31Z</time>
      </trkpt>
      <trkpt lat="46.75619" lon="6.25579">
        <ele>897.7</ele>
        <time>2019-04-14T12:48:40Z</time>
      </trkpt>
      <trkpt lat="46.75618" lon="6.25566">
        <ele>899</ele>
        <time>2019-04-14T12:48:52Z</time>
      </trkpt>
      <trkpt lat="46.75613" lon="6.25554">
        <ele>900.4</ele>
        <time>2019-04-14T12:49:03Z</time>
      </trkpt>
      <trkpt lat="46.75611" lon="6.2554">
        <ele>901.9</ele>
        <time>2019-04-14T12:49:14Z</time>
      </trkpt>
      <trkpt lat="46.7561" lon="6.25527">
        <ele>903.6</ele>
        <time>2019-04-14T12:49:25Z</time>
      </trkpt>
      <trkpt lat="46.75608" lon="6.25513">
        <ele>905.5</ele>
        <time>2019-04-14T12:49:39Z</time>
      </trkpt>
      <trkpt lat="46.75606" lon="6.25501">
        <ele>907.3</ele>
        <time>2019-04-14T12:49:53Z</time>
      </trkpt>
      <trkpt lat="46.75602" lon="6.25487">
        <ele>908.5</ele>
        <time>2019-04-14T12:50:04Z</time>
      </trkpt>
      <trkpt lat="46.75599" lon="6.25474">
        <ele>910.2</ele>
        <time>2019-04-14T12:50:16Z</time>
      </trkpt>
      <trkpt lat="46.75595" lon="6.25462">
        <ele>911.8</ele>
        <time>2019-04-14T12:50:27Z</time>
      </trkpt>
      <trkpt lat="46.75594" lon="6.25449">
        <ele>914.1</ele>
        <time>2019-04-14T12:50:40Z</time>
      </trkpt>
      <trkpt lat="46.75592" lon="6.25435">
        <ele>916.5</ele>
        <time>2019-04-14T12:50:54Z</time>
      </trkpt>
      <trkpt lat="46.75587" lon="6.25423">
        <ele>918</ele>
        <time>2019-04-14T12:51:04Z</time>
      </trkpt>
      <trkpt lat="46.75582" lon="6.25411">
        <ele>919.4</ele>
        <time>2019-04-14T12:51:15Z</time>
      </trkpt>
      <trkpt lat="46.75581" lon="6.25397">
        <ele>921</ele>
        <time>2019-04-14T12:51:26Z</time>
      </trkpt>
      <trkpt lat="46.75577" lon="6.25385">
        <ele>922.3</ele>
        <time>2019-04-14T12:51:38Z</time>
      </trkpt>
      <trkpt lat="46.75573" lon="6.25373">
        <ele>923.5</ele>
        <time>2019-04-14T12:51:50Z</time>
      </trkpt>
      <trkpt lat="46.75569" lon="6.25361">
        <ele>924.5</ele>
        <time>2019-04-14T12:52:00Z</time>
      </trkpt>
      <trkpt lat="46.75561" lon="6.25354">
        <ele>925.3</ele>
        <time>2019-04-14T12:52:06Z</time>
      </trkpt>
      <trkpt lat="46.75552" lon="6.25352">
        <ele>926.2</ele>
        <time>2019-04-14T12:52:15Z</time>
      </trkpt>
      <trkpt lat="46.75542" lon="6.25355">
        <ele>928.6</ele>
        <time>2019-04-14T12:52:29Z</time>
      </trkpt>
      <trkpt lat="46.75535" lon="6.25364">
        <ele>930.6</ele>
        <time>2019-04-14T12:52:45Z</time>
      </trkpt>
      <trkpt lat="46.75536" lon="6.25377">
        <ele>933.5</ele>
        <time>2019-04-14T12:53:07Z</time>
      </trkpt>
      <trkpt lat="46.75535" lon="6.25391">
        <ele>935.4</ele>
        <time>2019-04-14T12:53:23Z</time>
      </trkpt>
      <trkpt lat="46.75535" lon="6.25404">
        <ele>936.3</ele>
        <time>2019-04-14T12:53:34Z</time>
      </trkpt>
      <trkpt lat="46.75537" lon="6.25417">
        <ele>937</ele>
        <time>2019-04-14T12:53:41Z</time>
      </trkpt>
      <trkpt lat="46.75538" lon="6.25431">
        <ele>938.2</ele>
        <time>2019-04-14T12:53:51Z</time>
      </trkpt>
      <trkpt lat="46.75536" lon="6.25444">
        <ele>939.3</ele>
        <time>2019-04-14T12:54:04Z</time>
      </trkpt>
      <trkpt lat="46.75535" lon="6.25458">
        <ele>940.8</ele>
        <time>2019-04-14T12:54:17Z</time>
      </trkpt>
      <trkpt lat="46.75538" lon="6.25471">
        <ele>942.9</ele>
        <time>2019-04-14T12:54:33Z</time>
      </trkpt>
      <trkpt lat="46.75541" lon="6.25484">
        <ele>944.4</ele>
        <time>2019-04-14T12:54:46Z</time>
      </trkpt>
      <trkpt lat="46.75544" lon="6.25498">
        <ele>945.7</ele>
        <time>2019-04-14T12:54:59Z</time>
      </trkpt>
      <trkpt lat="46.75549" lon="6.25509">
        <ele>946.4</ele>
        <time>2019-04-14T12:55:08Z</time>
      </trkpt>
      <trkpt lat="46.75557" lon="6.25518">
        <ele>945.2</ele>
        <time>2019-04-14T12:55:32Z</time>
      </trkpt>
      <trkpt lat="46.75548" lon="6.25513">
        <ele>944.7</ele>
        <time>2019-04-14T13:00:37Z</time>
      </trkpt>
      <trkpt lat="46.75541" lon="6.25505">
        <ele>946.9</ele>
        <time>2019-04-14T13:01:22Z</time>
      </trkpt>
      <trkpt lat="46.75535" lon="6.25495">
        <ele>948.9</ele>
        <time>2019-04-14T13:01:39Z</time>
      </trkpt>
      <trkpt lat="46.75529" lon="6.25485">
        <ele>951.1</ele>
        <time>2019-04-14T13:01:57Z</time>
      </trkpt>
      <trkpt lat="46.75524" lon="6.25473">
        <ele>954.3</ele>
        <time>2019-04-14T13:02:19Z</time>
      </trkpt>
      <trkpt lat="46.75523" lon="6.25459">
        <ele>955.9</ele>
        <time>2019-04-14T13:02:34Z</time>
      </trkpt>
      <trkpt lat="46.75521" lon="6.25446">
        <ele>956.6</ele>
        <time>2019-04-14T13:02:45Z</time>
      </trkpt>
      <trkpt lat="46.75515" lon="6.25433">
        <ele>958</ele>
        <time>2019-04-14T13:02:55Z</time>
      </trkpt>
      <trkpt lat="46.75508" lon="6.25425">
        <ele>958.5</ele>
        <time>2019-04-14T13:03:05Z</time>
      </trkpt>
      <trkpt lat="46.75499" lon="6.2542">
        <ele>957.9</ele>
        <time>2019-04-14T13:03:20Z</time>
      </trkpt>
      <trkpt lat="46.75495" lon="6.25407">
        <ele>955.7</ele>
        <time>2019-04-14T13:03:49Z</time>
      </trkpt>
      <trkpt lat="46.75493" lon="6.25394">
        <ele>955</ele>
        <time>2019-04-14T13:03:59Z</time>
      </trkpt>
      <trkpt lat="46.75491" lon="6.25381">
        <ele>954.6</ele>
        <time>2019-04-14T13:04:08Z</time>
      </trkpt>
      <trkpt lat="46.75491" lon="6.25368">
        <ele>954</ele>
        <time>2019-04-14T13:04:18Z</time>
      </trkpt>
      <trkpt lat="46.7549" lon="6.25354">
        <ele>953.9</ele>
        <time>2019-04-14T13:04:27Z</time>
      </trkpt>
      <trkpt lat="46.75486" lon="6.25341">
        <ele>954</ele>
        <time>2019-04-14T13:04:36Z</time>
      </trkpt>
      <trkpt lat="46.75481" lon="6.25329">
        <ele>954.5</ele>
        <time>2019-04-14T13:04:49Z</time>
      </trkpt>
      <trkpt lat="46.75477" lon="6.25317">
        <ele>955.7</ele>
        <time>2019-04-14T13:05:00Z</time>
      </trkpt>
      <trkpt lat="46.75472" lon="6.25304">
        <ele>957.1</ele>
        <time>2019-04-14T13:05:13Z</time>
      </trkpt>
      <trkpt lat="46.75471" lon="6.2529">
        <ele>958.3</ele>
        <time>2019-04-14T13:05:25Z</time>
      </trkpt>
      <trkpt lat="46.75463" lon="6.25282">
        <ele>959</ele>
        <time>2019-04-14T13:05:38Z</time>
      </trkpt>
      <trkpt lat="46.75469" lon="6.2527">
        <ele>961</ele>
        <time>2019-04-14T13:06:19Z</time>
      </trkpt>
      <trkpt lat="46.75469" lon="6.25256">
        <ele>962.1</ele>
        <time>2019-04-14T13:06:32Z</time>
      </trkpt>
      <trkpt lat="46.75468" lon="6.25242">
        <ele>962.9</ele>
        <time>2019-04-14T13:06:40Z</time>
      </trkpt>
      <trkpt lat="46.75465" lon="6.25228">
        <ele>963.7</ele>
        <time>2019-04-14T13:06:51Z</time>
      </trkpt>
      <trkpt lat="46.75458" lon="6.25219">
        <ele>965.3</ele>
        <time>2019-04-14T13:07:04Z</time>
      </trkpt>
      <trkpt lat="46.75449" lon="6.25215">
        <ele>966.1</ele>
        <time>2019-04-14T13:07:14Z</time>
      </trkpt>
      <trkpt lat="46.75433" lon="6.25211">
        <ele>967</ele>
        <time>2019-04-14T13:07:37Z</time>
      </trkpt>
      <trkpt lat="46.75423" lon="6.25209">
        <ele>968.3</ele>
        <time>2019-04-14T13:07:54Z</time>
      </trkpt>
      <trkpt lat="46.75414" lon="6.25208">
        <ele>968.9</ele>
        <time>2019-04-14T13:08:10Z</time>
      </trkpt>
      <trkpt lat="46.75404" lon="6.2521">
        <ele>969.2</ele>
        <time>2019-04-14T13:08:20Z</time>
      </trkpt>
      <trkpt lat="46.75395" lon="6.25214">
        <ele>969.2</ele>
        <time>2019-04-14T13:08:28Z</time>
      </trkpt>
      <trkpt lat="46.75387" lon="6.25218">
        <ele>969.2</ele>
        <time>2019-04-14T13:08:37Z</time>
      </trkpt>
      <trkpt lat="46.75375" lon="6.2522">
        <ele>969.9</ele>
        <time>2019-04-14T13:09:14Z</time>
      </trkpt>
      <trkpt lat="46.75367" lon="6.25212">
        <ele>968.9</ele>
        <time>2019-04-14T13:09:29Z</time>
      </trkpt>
      <trkpt lat="46.75359" lon="6.25206">
        <ele>968.1</ele>
        <time>2019-04-14T13:09:44Z</time>
      </trkpt>
      <trkpt lat="46.7535" lon="6.25204">
        <ele>968</ele>
        <time>2019-04-14T13:09:59Z</time>
      </trkpt>
      <trkpt lat="46.7534" lon="6.25201">
        <ele>967.7</ele>
        <time>2019-04-14T13:10:12Z</time>
      </trkpt>
      <trkpt lat="46.75331" lon="6.252">
        <ele>967.7</ele>
        <time>2019-04-14T13:10:22Z</time>
      </trkpt>
      <trkpt lat="46.75323" lon="6.25195">
        <ele>967.7</ele>
        <time>2019-04-14T13:10:31Z</time>
      </trkpt>
      <trkpt lat="46.75315" lon="6.25187">
        <ele>967.7</ele>
        <time>2019-04-14T13:10:40Z</time>
      </trkpt>
      <trkpt lat="46.75306" lon="6.25182">
        <ele>967.6</ele>
        <time>2019-04-14T13:10:48Z</time>
      </trkpt>
      <trkpt lat="46.75297" lon="6.25178">
        <ele>967.5</ele>
        <time>2019-04-14T13:10:55Z</time>
      </trkpt>
      <trkpt lat="46.75288" lon="6.25174">
        <ele>966.7</ele>
        <time>2019-04-14T13:11:04Z</time>
      </trkpt>
      <trkpt lat="46.75279" lon="6.2517">
        <ele>966.1</ele>
        <time>2019-04-14T13:11:14Z</time>
      </trkpt>
      <trkpt lat="46.7527" lon="6.25168">
        <ele>965.6</ele>
        <time>2019-04-14T13:11:21Z</time>
      </trkpt>
      <trkpt lat="46.7526" lon="6.25166">
        <ele>965.2</ele>
        <time>2019-04-14T13:11:28Z</time>
      </trkpt>
      <trkpt lat="46.75251" lon="6.25166">
        <ele>965</ele>
        <time>2019-04-14T13:11:33Z</time>
      </trkpt>
      <trkpt lat="46.75241" lon="6.25166">
        <ele>964.7</ele>
        <time>2019-04-14T13:11:39Z</time>
      </trkpt>
      <trkpt lat="46.75232" lon="6.2517">
        <ele>964.7</ele>
        <time>2019-04-14T13:11:48Z</time>
      </trkpt>
      <trkpt lat="46.75224" lon="6.25176">
        <ele>964.3</ele>
        <time>2019-04-14T13:11:56Z</time>
      </trkpt>
      <trkpt lat="46.75206" lon="6.25202">
        <ele>965</ele>
        <time>2019-04-14T13:13:25Z</time>
      </trkpt>
      <trkpt lat="46.75198" lon="6.2521">
        <ele>965.1</ele>
        <time>2019-04-14T13:13:33Z</time>
      </trkpt>
      <trkpt lat="46.7519" lon="6.25218">
        <ele>965</ele>
        <time>2019-04-14T13:13:40Z</time>
      </trkpt>
      <trkpt lat="46.75182" lon="6.25225">
        <ele>964.5</ele>
        <time>2019-04-14T13:13:51Z</time>
      </trkpt>
      <trkpt lat="46.75174" lon="6.25233">
        <ele>964.4</ele>
        <time>2019-04-14T13:14:03Z</time>
      </trkpt>
      <trkpt lat="46.75168" lon="6.25243">
        <ele>964.5</ele>
        <time>2019-04-14T13:14:15Z</time>
      </trkpt>
      <trkpt lat="46.75162" lon="6.25253">
        <ele>964.3</ele>
        <time>2019-04-14T13:14:28Z</time>
      </trkpt>
      <trkpt lat="46.75153" lon="6.25258">
        <ele>963.8</ele>
        <time>2019-04-14T13:14:39Z</time>
      </trkpt>
      <trkpt lat="46.75145" lon="6.25264">
        <ele>963.7</ele>
        <time>2019-04-14T13:14:49Z</time>
      </trkpt>
      <trkpt lat="46.75137" lon="6.2527">
        <ele>963.6</ele>
        <time>2019-04-14T13:15:02Z</time>
      </trkpt>
      <trkpt lat="46.75129" lon="6.25277">
        <ele>963</ele>
        <time>2019-04-14T13:15:20Z</time>
      </trkpt>
      <trkpt lat="46.7512" lon="6.25281">
        <ele>961.9</ele>
        <time>2019-04-14T13:15:36Z</time>
      </trkpt>
      <trkpt lat="46.7511" lon="6.25282">
        <ele>961.4</ele>
        <time>2019-04-14T13:15:45Z</time>
      </trkpt>
      <trkpt lat="46.751" lon="6.25285">
        <ele>961.3</ele>
        <time>2019-04-14T13:15:52Z</time>
      </trkpt>
      <trkpt lat="46.7509" lon="6.25289">
        <ele>961</ele>
        <time>2019-04-14T13:16:01Z</time>
      </trkpt>
      <trkpt lat="46.75082" lon="6.25295">
        <ele>960.5</ele>
        <time>2019-04-14T13:16:11Z</time>
      </trkpt>
      <trkpt lat="46.75074" lon="6.25302">
        <ele>959.6</ele>
        <time>2019-04-14T13:16:26Z</time>
      </trkpt>
      <trkpt lat="46.75053" lon="6.25316">
        <ele>958</ele>
        <time>2019-04-14T13:17:31Z</time>
      </trkpt>
      <trkpt lat="46.75069" lon="6.25323">
        <ele>958</ele>
        <time>2019-04-14T13:18:42Z</time>
      </trkpt>
      <trkpt lat="46.75077" lon="6.25336">
        <ele>958</ele>
        <time>2019-04-14T13:21:01Z</time>
      </trkpt>
      <trkpt lat="46.75086" lon="6.25332">
        <ele>959.4</ele>
        <time>2019-04-14T13:21:27Z</time>
      </trkpt>
      <trkpt lat="46.75094" lon="6.25324">
        <ele>960</ele>
        <time>2019-04-14T13:21:40Z</time>
      </trkpt>
      <trkpt lat="46.75102" lon="6.25319">
        <ele>960.8</ele>
        <time>2019-04-14T13:21:53Z</time>
      </trkpt>
      <trkpt lat="46.75111" lon="6.25304">
        <ele>961.8</ele>
        <time>2019-04-14T13:22:24Z</time>
      </trkpt>
      <trkpt lat="46.7512" lon="6.25309">
        <ele>961.7</ele>
        <time>2019-04-14T13:22:32Z</time>
      </trkpt>
      <trkpt lat="46.7513" lon="6.25308">
        <ele>962.4</ele>
        <time>2019-04-14T13:22:40Z</time>
      </trkpt>
      <trkpt lat="46.75139" lon="6.2531">
        <ele>962.8</ele>
        <time>2019-04-14T13:22:45Z</time>
      </trkpt>
      <trkpt lat="46.75148" lon="6.25305">
        <ele>963.4</ele>
        <time>2019-04-14T13:22:54Z</time>
      </trkpt>
      <trkpt lat="46.75156" lon="6.25297">
        <ele>963.3</ele>
        <time>2019-04-14T13:23:05Z</time>
      </trkpt>
      <trkpt lat="46.75165" lon="6.2529">
        <ele>963.4</ele>
        <time>2019-04-14T13:23:17Z</time>
      </trkpt>
      <trkpt lat="46.75173" lon="6.25282">
        <ele>963.3</ele>
        <time>2019-04-14T13:23:27Z</time>
      </trkpt>
      <trkpt lat="46.7518" lon="6.25274">
        <ele>963.5</ele>
        <time>2019-04-14T13:23:39Z</time>
      </trkpt>
      <trkpt lat="46.75187" lon="6.25264">
        <ele>963.5</ele>
        <time>2019-04-14T13:23:47Z</time>
      </trkpt>
      <trkpt lat="46.75195" lon="6.25256">
        <ele>963.7</ele>
        <time>2019-04-14T13:23:57Z</time>
      </trkpt>
      <trkpt lat="46.75201" lon="6.25245">
        <ele>963.9</ele>
        <time>2019-04-14T13:24:06Z</time>
      </trkpt>
      <trkpt lat="46.75208" lon="6.25234">
        <ele>964.1</ele>
        <time>2019-04-14T13:24:16Z</time>
      </trkpt>
      <trkpt lat="46.75214" lon="6.25224">
        <ele>964</ele>
        <time>2019-04-14T13:24:27Z</time>
      </trkpt>
      <trkpt lat="46.75221" lon="6.25215">
        <ele>963.5</ele>
        <time>2019-04-14T13:24:39Z</time>
      </trkpt>
      <trkpt lat="46.75229" lon="6.25208">
        <ele>963.5</ele>
        <time>2019-04-14T13:24:51Z</time>
      </trkpt>
      <trkpt lat="46.75238" lon="6.25203">
        <ele>963.9</ele>
        <time>2019-04-14T13:25:00Z</time>
      </trkpt>
      <trkpt lat="46.75248" lon="6.25203">
        <ele>963.9</ele>
        <time>2019-04-14T13:25:12Z</time>
      </trkpt>
      <trkpt lat="46.75257" lon="6.25206">
        <ele>964.9</ele>
        <time>2019-04-14T13:25:23Z</time>
      </trkpt>
      <trkpt lat="46.75267" lon="6.25207">
        <ele>965.2</ele>
        <time>2019-04-14T13:25:31Z</time>
      </trkpt>
      <trkpt lat="46.75276" lon="6.25209">
        <ele>966.1</ele>
        <time>2019-04-14T13:25:42Z</time>
      </trkpt>
      <trkpt lat="46.75285" lon="6.25207">
        <ele>966.7</ele>
        <time>2019-04-14T13:25:54Z</time>
      </trkpt>
      <trkpt lat="46.75294" lon="6.25209">
        <ele>967.3</ele>
        <time>2019-04-14T13:26:07Z</time>
      </trkpt>
      <trkpt lat="46.75302" lon="6.25216">
        <ele>967.1</ele>
        <time>2019-04-14T13:26:20Z</time>
      </trkpt>
      <trkpt lat="46.7531" lon="6.25225">
        <ele>966.8</ele>
        <time>2019-04-14T13:26:28Z</time>
      </trkpt>
      <trkpt lat="46.75317" lon="6.25232">
        <ele>966.9</ele>
        <time>2019-04-14T13:26:42Z</time>
      </trkpt>
      <trkpt lat="46.75326" lon="6.25237">
        <ele>966.8</ele>
        <time>2019-04-14T13:26:52Z</time>
      </trkpt>
      <trkpt lat="46.75336" lon="6.2524">
        <ele>967</ele>
        <time>2019-04-14T13:27:02Z</time>
      </trkpt>
      <trkpt lat="46.75345" lon="6.25245">
        <ele>967.2</ele>
        <time>2019-04-14T13:27:09Z</time>
      </trkpt>
      <trkpt lat="46.75353" lon="6.25251">
        <ele>967.5</ele>
        <time>2019-04-14T13:27:19Z</time>
      </trkpt>
      <trkpt lat="46.75364" lon="6.25249">
        <ele>968</ele>
        <time>2019-04-14T13:27:28Z</time>
      </trkpt>
      <trkpt lat="46.75372" lon="6.25255">
        <ele>968.7</ele>
        <time>2019-04-14T13:27:49Z</time>
      </trkpt>
      <trkpt lat="46.75381" lon="6.25257">
        <ele>968.6</ele>
        <time>2019-04-14T13:27:55Z</time>
      </trkpt>
      <trkpt lat="46.7539" lon="6.25256">
        <ele>968.6</ele>
        <time>2019-04-14T13:28:04Z</time>
      </trkpt>
      <trkpt lat="46.75398" lon="6.25251">
        <ele>968.6</ele>
        <time>2019-04-14T13:28:13Z</time>
      </trkpt>
      <trkpt lat="46.75406" lon="6.25242">
        <ele>968.7</ele>
        <time>2019-04-14T13:28:24Z</time>
      </trkpt>
      <trkpt lat="46.75415" lon="6.2524">
        <ele>968.1</ele>
        <time>2019-04-14T13:28:35Z</time>
      </trkpt>
      <trkpt lat="46.75425" lon="6.25242">
        <ele>967.4</ele>
        <time>2019-04-14T13:28:43Z</time>
      </trkpt>
      <trkpt lat="46.75434" lon="6.25243">
        <ele>966.5</ele>
        <time>2019-04-14T13:28:51Z</time>
      </trkpt>
      <trkpt lat="46.75439" lon="6.25255">
        <ele>961.6</ele>
        <time>2019-04-14T13:29:21Z</time>
      </trkpt>
      <trkpt lat="46.75443" lon="6.25266">
        <ele>960</ele>
        <time>2019-04-14T13:29:29Z</time>
      </trkpt>
      <trkpt lat="46.75445" lon="6.25279">
        <ele>958.8</ele>
        <time>2019-04-14T13:29:37Z</time>
      </trkpt>
      <trkpt lat="46.75448" lon="6.25292">
        <ele>957.4</ele>
        <time>2019-04-14T13:29:48Z</time>
      </trkpt>
      <trkpt lat="46.75453" lon="6.25305">
        <ele>955.6</ele>
        <time>2019-04-14T13:29:56Z</time>
      </trkpt>
      <trkpt lat="46.75456" lon="6.25319">
        <ele>954.5</ele>
        <time>2019-04-14T13:30:04Z</time>
      </trkpt>
      <trkpt lat="46.7546" lon="6.25331">
        <ele>953.9</ele>
        <time>2019-04-14T13:30:11Z</time>
      </trkpt>
      <trkpt lat="46.75461" lon="6.25346">
        <ele>953.3</ele>
        <time>2019-04-14T13:30:22Z</time>
      </trkpt>
      <trkpt lat="46.75466" lon="6.25357">
        <ele>953.1</ele>
        <time>2019-04-14T13:30:29Z</time>
      </trkpt>
      <trkpt lat="46.7547" lon="6.25369">
        <ele>953.3</ele>
        <time>2019-04-14T13:30:37Z</time>
      </trkpt>
      <trkpt lat="46.75472" lon="6.25382">
        <ele>953.6</ele>
        <time>2019-04-14T13:30:46Z</time>
      </trkpt>
      <trkpt lat="46.75474" lon="6.25397">
        <ele>953.9</ele>
        <time>2019-04-14T13:30:56Z</time>
      </trkpt>
      <trkpt lat="46.75477" lon="6.25409">
        <ele>954.6</ele>
        <time>2019-04-14T13:31:11Z</time>
      </trkpt>
      <trkpt lat="46.75485" lon="6.25417">
        <ele>955.7</ele>
        <time>2019-04-14T13:31:23Z</time>
      </trkpt>
      <trkpt lat="46.75492" lon="6.25426">
        <ele>956.8</ele>
        <time>2019-04-14T13:31:31Z</time>
      </trkpt>
      <trkpt lat="46.75498" lon="6.25437">
        <ele>957.1</ele>
        <time>2019-04-14T13:31:48Z</time>
      </trkpt>
      <trkpt lat="46.75502" lon="6.25449">
        <ele>956</ele>
        <time>2019-04-14T13:32:04Z</time>
      </trkpt>
      <trkpt lat="46.75505" lon="6.25462">
        <ele>954.6</ele>
        <time>2019-04-14T13:32:18Z</time>
      </trkpt>
      <trkpt lat="46.75509" lon="6.25475">
        <ele>951.5</ele>
        <time>2019-04-14T13:32:39Z</time>
      </trkpt>
      <trkpt lat="46.75513" lon="6.25487">
        <ele>949.4</ele>
        <time>2019-04-14T13:32:49Z</time>
      </trkpt>
      <trkpt lat="46.75519" lon="6.25498">
        <ele>947.6</ele>
        <time>2019-04-14T13:33:01Z</time>
      </trkpt>
      <trkpt lat="46.75528" lon="6.25506">
        <ele>947</ele>
        <time>2019-04-14T13:33:15Z</time>
      </trkpt>
      <trkpt lat="46.75534" lon="6.25518">
        <ele>945.8</ele>
        <time>2019-04-14T13:33:28Z</time>
      </trkpt>
      <trkpt lat="46.75543" lon="6.25518">
        <ele>945.1</ele>
        <time>2019-04-14T13:33:35Z</time>
      </trkpt>
      <trkpt lat="46.75549" lon="6.25509">
        <ele>944.1</ele>
        <time>2019-04-14T13:33:45Z</time>
      </trkpt>
      <trkpt lat="46.75554" lon="6.25497">
        <ele>942.9</ele>
        <time>2019-04-14T13:33:56Z</time>
      </trkpt>
      <trkpt lat="46.75555" lon="6.25483">
        <ele>942</ele>
        <time>2019-04-14T13:34:06Z</time>
      </trkpt>
      <trkpt lat="46.75558" lon="6.2547">
        <ele>940.4</ele>
        <time>2019-04-14T13:34:17Z</time>
      </trkpt>
      <trkpt lat="46.7556" lon="6.25456">
        <ele>939.6</ele>
        <time>2019-04-14T13:34:24Z</time>
      </trkpt>
      <trkpt lat="46.75559" lon="6.25443">
        <ele>938</ele>
        <time>2019-04-14T13:34:37Z</time>
      </trkpt>
      <trkpt lat="46.75559" lon="6.2543">
        <ele>936.4</ele>
        <time>2019-04-14T13:34:47Z</time>
      </trkpt>
      <trkpt lat="46.75558" lon="6.25416">
        <ele>935.2</ele>
        <time>2019-04-14T13:34:57Z</time>
      </trkpt>
      <trkpt lat="46.75559" lon="6.25397">
        <ele>930.4</ele>
        <time>2019-04-14T13:35:24Z</time>
      </trkpt>
      <trkpt lat="46.75557" lon="6.25382">
        <ele>924.8</ele>
        <time>2019-04-14T13:35:58Z</time>
      </trkpt>
      <trkpt lat="46.75561" lon="6.25394">
        <ele>920.6</ele>
        <time>2019-04-14T13:36:27Z</time>
      </trkpt>
      <trkpt lat="46.75564" lon="6.25407">
        <ele>919.1</ele>
        <time>2019-04-14T13:36:38Z</time>
      </trkpt>
      <trkpt lat="46.75568" lon="6.25419">
        <ele>917.5</ele>
        <time>2019-04-14T13:36:57Z</time>
      </trkpt>
      <trkpt lat="46.75575" lon="6.25428">
        <ele>915</ele>
        <time>2019-04-14T13:37:12Z</time>
      </trkpt>
      <trkpt lat="46.75577" lon="6.25441">
        <ele>913.3</ele>
        <time>2019-04-14T13:37:24Z</time>
      </trkpt>
      <trkpt lat="46.7558" lon="6.25454">
        <ele>911.6</ele>
        <time>2019-04-14T13:37:36Z</time>
      </trkpt>
      <trkpt lat="46.75582" lon="6.25468">
        <ele>910.3</ele>
        <time>2019-04-14T13:37:44Z</time>
      </trkpt>
      <trkpt lat="46.75579" lon="6.25482">
        <ele>907.8</ele>
        <time>2019-04-14T13:37:55Z</time>
      </trkpt>
      <trkpt lat="46.75582" lon="6.25496">
        <ele>905.4</ele>
        <time>2019-04-14T13:38:06Z</time>
      </trkpt>
      <trkpt lat="46.75583" lon="6.2551">
        <ele>903.5</ele>
        <time>2019-04-14T13:38:17Z</time>
      </trkpt>
      <trkpt lat="46.75582" lon="6.25523">
        <ele>902.1</ele>
        <time>2019-04-14T13:38:26Z</time>
      </trkpt>
      <trkpt lat="46.75585" lon="6.25536">
        <ele>900.6</ele>
        <time>2019-04-14T13:38:38Z</time>
      </trkpt>
      <trkpt lat="46.75587" lon="6.25549">
        <ele>899.2</ele>
        <time>2019-04-14T13:38:49Z</time>
      </trkpt>
      <trkpt lat="46.75585" lon="6.25564">
        <ele>897.9</ele>
        <time>2019-04-14T13:38:57Z</time>
      </trkpt>
      <trkpt lat="46.75587" lon="6.25577">
        <ele>896.6</ele>
        <time>2019-04-14T13:39:06Z</time>
      </trkpt>
      <trkpt lat="46.7559" lon="6.2559">
        <ele>894.5</ele>
        <time>2019-04-14T13:39:21Z</time>
      </trkpt>
      <trkpt lat="46.75596" lon="6.25601">
        <ele>893.1</ele>
        <time>2019-04-14T13:39:32Z</time>
      </trkpt>
      <trkpt lat="46.75602" lon="6.2561">
        <ele>891.9</ele>
        <time>2019-04-14T13:39:42Z</time>
      </trkpt>
      <trkpt lat="46.75597" lon="6.25621">
        <ele>890.8</ele>
        <time>2019-04-14T13:39:52Z</time>
      </trkpt>
      <trkpt lat="46.75594" lon="6.25634">
        <ele>889.8</ele>
        <time>2019-04-14T13:40:00Z</time>
      </trkpt>
      <trkpt lat="46.75599" lon="6.25656">
        <ele>889.1</ele>
        <time>2019-04-14T13:40:06Z</time>
      </trkpt>
      <trkpt lat="46.75603" lon="6.25669">
        <ele>888.7</ele>
        <time>2019-04-14T13:40:09Z</time>
      </trkpt>
      <trkpt lat="46.75608" lon="6.25681">
        <ele>888.2</ele>
        <time>2019-04-14T13:40:22Z</time>
      </trkpt>
      <trkpt lat="46.75618" lon="6.25684">
        <ele>888.1</ele>
        <time>2019-04-14T13:40:30Z</time>
      </trkpt>
      <trkpt lat="46.75619" lon="6.25692">
        <ele>888</ele>
        <time>2019-04-14T13:41:34Z</time>
      </trkpt>
    </trkseg>
  </trk>
</gpx>